<?xml version="1.0" encoding="UTF-8" standalone="no" ?>
<gpx xmlns="http://www.topografix.com/GPX/1/1" xmlns:xsi="http://www.w3.org/2001/XMLSchema-instance" xsi:schemaLocation="http://www.topografix.com/GPX/1/1 http://www.topografix.com/GPX/1/1/gpx.xsd" version="1.1" creator="VisuGPX - https://www.visugpx.com">
  <metadata>
    <name>Autour de Bras, randonnée pédestre</name>
    <desc><![CDATA[Randonnée autour de Bras, deux circuits enchainés.
Tracé rouge, GR99, tracé jaune]]></desc>
  </metadata>
  <trk>
    <name><![CDATA[ACTIVE LOG080536]]></name>
    <trkseg>
      <trkpt lat="43.47114" lon="5.95709">
        <ele>295.594</ele>
        <time>2010-03-10T07:05:34Z</time>
      </trkpt>
      <trkpt lat="43.47114" lon="5.95716">
        <ele>287.758</ele>
        <time>2010-03-10T07:10:33Z</time>
      </trkpt>
      <trkpt lat="43.47114" lon="5.95727">
        <ele>287.035</ele>
        <time>2010-03-10T07:10:57Z</time>
      </trkpt>
    </trkseg>
  </trk>
  <trk>
    <name><![CDATA[ACTIVE LOG081404]]></name>
    <trkseg>
      <trkpt lat="43.47113" lon="5.95729">
        <ele>286.502</ele>
        <time>2010-03-10T07:14:03Z</time>
      </trkpt>
    </trkseg>
  </trk>
  <trk>
    <name><![CDATA[ACTIVE LOG081405]]></name>
    <trkseg>
      <trkpt lat="43.47113" lon="5.95729">
        <ele>286.495</ele>
        <time>2010-03-10T07:14:05Z</time>
      </trkpt>
      <trkpt lat="43.47113" lon="5.95729">
        <ele>286.441</ele>
        <time>2010-03-10T07:14:25Z</time>
      </trkpt>
      <trkpt lat="43.47113" lon="5.95729">
        <ele>286.357</ele>
        <time>2010-03-10T07:14:27Z</time>
      </trkpt>
      <trkpt lat="43.47117" lon="5.95738">
        <ele>286.406</ele>
        <time>2010-03-10T07:14:34Z</time>
      </trkpt>
      <trkpt lat="43.4712" lon="5.95741">
        <ele>285.858</ele>
        <time>2010-03-10T07:14:38Z</time>
      </trkpt>
      <trkpt lat="43.47127" lon="5.95742">
        <ele>284.222</ele>
        <time>2010-03-10T07:14:45Z</time>
      </trkpt>
      <trkpt lat="43.47132" lon="5.95751">
        <ele>283.198</ele>
        <time>2010-03-10T07:14:51Z</time>
      </trkpt>
      <trkpt lat="43.47147" lon="5.95774">
        <ele>281.151</ele>
        <time>2010-03-10T07:15:09Z</time>
      </trkpt>
      <trkpt lat="43.47165" lon="5.95813">
        <ele>284.177</ele>
        <time>2010-03-10T07:15:32Z</time>
      </trkpt>
      <trkpt lat="43.47169" lon="5.95818">
        <ele>284.11</ele>
        <time>2010-03-10T07:15:36Z</time>
      </trkpt>
      <trkpt lat="43.47176" lon="5.95857">
        <ele>282.388</ele>
        <time>2010-03-10T07:16:01Z</time>
      </trkpt>
      <trkpt lat="43.4718" lon="5.95871">
        <ele>282.401</ele>
        <time>2010-03-10T07:16:27Z</time>
      </trkpt>
      <trkpt lat="43.47191" lon="5.95903">
        <ele>284.05</ele>
        <time>2010-03-10T07:16:47Z</time>
      </trkpt>
      <trkpt lat="43.47192" lon="5.95906">
        <ele>283.917</ele>
        <time>2010-03-10T07:16:49Z</time>
      </trkpt>
      <trkpt lat="43.47195" lon="5.95914">
        <ele>284.164</ele>
        <time>2010-03-10T07:16:54Z</time>
      </trkpt>
      <trkpt lat="43.47197" lon="5.95921">
        <ele>285.281</ele>
        <time>2010-03-10T07:16:58Z</time>
      </trkpt>
      <trkpt lat="43.47204" lon="5.95934">
        <ele>284.133</ele>
        <time>2010-03-10T07:17:07Z</time>
      </trkpt>
      <trkpt lat="43.47209" lon="5.95942">
        <ele>284.342</ele>
        <time>2010-03-10T07:17:13Z</time>
      </trkpt>
      <trkpt lat="43.47218" lon="5.95949">
        <ele>284.29</ele>
        <time>2010-03-10T07:17:21Z</time>
      </trkpt>
      <trkpt lat="43.4722" lon="5.95951">
        <ele>283.602</ele>
        <time>2010-03-10T07:17:24Z</time>
      </trkpt>
      <trkpt lat="43.47224" lon="5.95951">
        <ele>283.851</ele>
        <time>2010-03-10T07:17:27Z</time>
      </trkpt>
      <trkpt lat="43.47228" lon="5.95953">
        <ele>284.181</ele>
        <time>2010-03-10T07:17:30Z</time>
      </trkpt>
      <trkpt lat="43.47239" lon="5.95952">
        <ele>282.966</ele>
        <time>2010-03-10T07:17:41Z</time>
      </trkpt>
      <trkpt lat="43.47246" lon="5.95952">
        <ele>282.493</ele>
        <time>2010-03-10T07:17:48Z</time>
      </trkpt>
      <trkpt lat="43.47278" lon="5.95953">
        <ele>274.149</ele>
        <time>2010-03-10T07:18:08Z</time>
      </trkpt>
      <trkpt lat="43.47316" lon="5.95975">
        <ele>275.471</ele>
        <time>2010-03-10T07:18:38Z</time>
      </trkpt>
      <trkpt lat="43.47319" lon="5.95978">
        <ele>275.67</ele>
        <time>2010-03-10T07:18:41Z</time>
      </trkpt>
      <trkpt lat="43.4734" lon="5.96002">
        <ele>276.729</ele>
        <time>2010-03-10T07:19:02Z</time>
      </trkpt>
      <trkpt lat="43.47341" lon="5.96002">
        <ele>276.704</ele>
        <time>2010-03-10T07:19:03Z</time>
      </trkpt>
      <trkpt lat="43.47344" lon="5.96008">
        <ele>277.345</ele>
        <time>2010-03-10T07:19:07Z</time>
      </trkpt>
      <trkpt lat="43.47358" lon="5.96029">
        <ele>278.515</ele>
        <time>2010-03-10T07:19:29Z</time>
      </trkpt>
      <trkpt lat="43.47359" lon="5.96031">
        <ele>278.669</ele>
        <time>2010-03-10T07:19:30Z</time>
      </trkpt>
      <trkpt lat="43.47362" lon="5.96033">
        <ele>278.806</ele>
        <time>2010-03-10T07:19:32Z</time>
      </trkpt>
      <trkpt lat="43.47372" lon="5.96046">
        <ele>281.121</ele>
        <time>2010-03-10T07:19:41Z</time>
      </trkpt>
      <trkpt lat="43.47379" lon="5.96055">
        <ele>279.639</ele>
        <time>2010-03-10T07:19:54Z</time>
      </trkpt>
      <trkpt lat="43.47379" lon="5.96054">
        <ele>279.526</ele>
        <time>2010-03-10T07:20:03Z</time>
      </trkpt>
      <trkpt lat="43.47386" lon="5.96065">
        <ele>280.437</ele>
        <time>2010-03-10T07:20:18Z</time>
      </trkpt>
      <trkpt lat="43.47389" lon="5.96072">
        <ele>280.908</ele>
        <time>2010-03-10T07:20:23Z</time>
      </trkpt>
      <trkpt lat="43.47406" lon="5.961">
        <ele>282.638</ele>
        <time>2010-03-10T07:20:43Z</time>
      </trkpt>
      <trkpt lat="43.47414" lon="5.96121">
        <ele>284.301</ele>
        <time>2010-03-10T07:20:59Z</time>
      </trkpt>
      <trkpt lat="43.47417" lon="5.96128">
        <ele>285.987</ele>
        <time>2010-03-10T07:21:04Z</time>
      </trkpt>
      <trkpt lat="43.47433" lon="5.96147">
        <ele>293.36</ele>
        <time>2010-03-10T07:21:17Z</time>
      </trkpt>
      <trkpt lat="43.47439" lon="5.9616">
        <ele>300.072</ele>
        <time>2010-03-10T07:21:30Z</time>
      </trkpt>
      <trkpt lat="43.47441" lon="5.96161">
        <ele>301.567</ele>
        <time>2010-03-10T07:21:33Z</time>
      </trkpt>
      <trkpt lat="43.47455" lon="5.96168">
        <ele>301.464</ele>
        <time>2010-03-10T07:21:46Z</time>
      </trkpt>
      <trkpt lat="43.47461" lon="5.9617">
        <ele>296.093</ele>
        <time>2010-03-10T07:21:51Z</time>
      </trkpt>
      <trkpt lat="43.47455" lon="5.9617">
        <ele>295.944</ele>
        <time>2010-03-10T07:21:55Z</time>
      </trkpt>
      <trkpt lat="43.47444" lon="5.9617">
        <ele>291.256</ele>
        <time>2010-03-10T07:22:04Z</time>
      </trkpt>
      <trkpt lat="43.47453" lon="5.96193">
        <ele>286.709</ele>
        <time>2010-03-10T07:22:21Z</time>
      </trkpt>
      <trkpt lat="43.47456" lon="5.96196">
        <ele>287.888</ele>
        <time>2010-03-10T07:22:23Z</time>
      </trkpt>
      <trkpt lat="43.47468" lon="5.96206">
        <ele>293.146</ele>
        <time>2010-03-10T07:22:34Z</time>
      </trkpt>
      <trkpt lat="43.47473" lon="5.96209">
        <ele>292.89</ele>
        <time>2010-03-10T07:22:39Z</time>
      </trkpt>
      <trkpt lat="43.47482" lon="5.96214">
        <ele>294.007</ele>
        <time>2010-03-10T07:22:44Z</time>
      </trkpt>
      <trkpt lat="43.4749" lon="5.96217">
        <ele>292.451</ele>
        <time>2010-03-10T07:22:48Z</time>
      </trkpt>
      <trkpt lat="43.47491" lon="5.96221">
        <ele>292.224</ele>
        <time>2010-03-10T07:22:50Z</time>
      </trkpt>
      <trkpt lat="43.47497" lon="5.96228">
        <ele>293.639</ele>
        <time>2010-03-10T07:22:55Z</time>
      </trkpt>
      <trkpt lat="43.475" lon="5.96235">
        <ele>293.398</ele>
        <time>2010-03-10T07:23:00Z</time>
      </trkpt>
      <trkpt lat="43.475" lon="5.9625">
        <ele>293.885</ele>
        <time>2010-03-10T07:23:14Z</time>
      </trkpt>
      <trkpt lat="43.47496" lon="5.96285">
        <ele>295.747</ele>
        <time>2010-03-10T07:23:34Z</time>
      </trkpt>
      <trkpt lat="43.47489" lon="5.963">
        <ele>296.764</ele>
        <time>2010-03-10T07:23:53Z</time>
      </trkpt>
      <trkpt lat="43.47482" lon="5.96306">
        <ele>294.323</ele>
        <time>2010-03-10T07:24:23Z</time>
      </trkpt>
      <trkpt lat="43.47477" lon="5.9631">
        <ele>292.135</ele>
        <time>2010-03-10T07:24:49Z</time>
      </trkpt>
      <trkpt lat="43.47477" lon="5.96309">
        <ele>290.416</ele>
        <time>2010-03-10T07:26:01Z</time>
      </trkpt>
      <trkpt lat="43.47477" lon="5.96309">
        <ele>290.402</ele>
        <time>2010-03-10T07:26:07Z</time>
      </trkpt>
      <trkpt lat="43.47471" lon="5.96326">
        <ele>290.035</ele>
        <time>2010-03-10T07:26:22Z</time>
      </trkpt>
      <trkpt lat="43.47471" lon="5.96327">
        <ele>289.866</ele>
        <time>2010-03-10T07:26:23Z</time>
      </trkpt>
      <trkpt lat="43.47467" lon="5.9634">
        <ele>288.565</ele>
        <time>2010-03-10T07:26:32Z</time>
      </trkpt>
      <trkpt lat="43.47455" lon="5.96371">
        <ele>287.801</ele>
        <time>2010-03-10T07:26:51Z</time>
      </trkpt>
      <trkpt lat="43.47441" lon="5.96409">
        <ele>292.101</ele>
        <time>2010-03-10T07:27:15Z</time>
      </trkpt>
      <trkpt lat="43.47427" lon="5.96445">
        <ele>297.169</ele>
        <time>2010-03-10T07:27:40Z</time>
      </trkpt>
      <trkpt lat="43.47416" lon="5.96478">
        <ele>299.056</ele>
        <time>2010-03-10T07:28:03Z</time>
      </trkpt>
      <trkpt lat="43.47413" lon="5.96487">
        <ele>301.294</ele>
        <time>2010-03-10T07:28:09Z</time>
      </trkpt>
      <trkpt lat="43.47408" lon="5.96502">
        <ele>303.365</ele>
        <time>2010-03-10T07:28:30Z</time>
      </trkpt>
      <trkpt lat="43.47408" lon="5.96504">
        <ele>303.481</ele>
        <time>2010-03-10T07:28:31Z</time>
      </trkpt>
      <trkpt lat="43.47405" lon="5.96519">
        <ele>304.771</ele>
        <time>2010-03-10T07:28:41Z</time>
      </trkpt>
      <trkpt lat="43.47402" lon="5.96523">
        <ele>304.791</ele>
        <time>2010-03-10T07:28:45Z</time>
      </trkpt>
      <trkpt lat="43.47397" lon="5.96529">
        <ele>304.976</ele>
        <time>2010-03-10T07:28:50Z</time>
      </trkpt>
      <trkpt lat="43.47399" lon="5.9654">
        <ele>304.737</ele>
        <time>2010-03-10T07:29:00Z</time>
      </trkpt>
      <trkpt lat="43.47396" lon="5.96547">
        <ele>303.973</ele>
        <time>2010-03-10T07:29:04Z</time>
      </trkpt>
      <trkpt lat="43.47392" lon="5.96554">
        <ele>303.98</ele>
        <time>2010-03-10T07:29:08Z</time>
      </trkpt>
      <trkpt lat="43.47392" lon="5.96559">
        <ele>304.428</ele>
        <time>2010-03-10T07:29:11Z</time>
      </trkpt>
      <trkpt lat="43.4739" lon="5.96587">
        <ele>304.755</ele>
        <time>2010-03-10T07:29:29Z</time>
      </trkpt>
      <trkpt lat="43.47384" lon="5.96637">
        <ele>305.511</ele>
        <time>2010-03-10T07:29:56Z</time>
      </trkpt>
      <trkpt lat="43.47382" lon="5.9666">
        <ele>302.929</ele>
        <time>2010-03-10T07:30:16Z</time>
      </trkpt>
      <trkpt lat="43.47384" lon="5.96665">
        <ele>303.424</ele>
        <time>2010-03-10T07:30:19Z</time>
      </trkpt>
      <trkpt lat="43.47382" lon="5.96709">
        <ele>302.055</ele>
        <time>2010-03-10T07:30:45Z</time>
      </trkpt>
      <trkpt lat="43.47379" lon="5.96755">
        <ele>307.814</ele>
        <time>2010-03-10T07:31:11Z</time>
      </trkpt>
      <trkpt lat="43.47375" lon="5.96784">
        <ele>309.23</ele>
        <time>2010-03-10T07:31:32Z</time>
      </trkpt>
      <trkpt lat="43.47373" lon="5.96789">
        <ele>309.623</ele>
        <time>2010-03-10T07:31:35Z</time>
      </trkpt>
      <trkpt lat="43.4737" lon="5.96793">
        <ele>311.095</ele>
        <time>2010-03-10T07:31:41Z</time>
      </trkpt>
      <trkpt lat="43.47369" lon="5.96799">
        <ele>312.51</ele>
        <time>2010-03-10T07:31:45Z</time>
      </trkpt>
      <trkpt lat="43.47366" lon="5.96807">
        <ele>314.612</ele>
        <time>2010-03-10T07:31:51Z</time>
      </trkpt>
      <trkpt lat="43.47366" lon="5.96812">
        <ele>315.662</ele>
        <time>2010-03-10T07:31:54Z</time>
      </trkpt>
      <trkpt lat="43.47359" lon="5.96831">
        <ele>321.074</ele>
        <time>2010-03-10T07:32:12Z</time>
      </trkpt>
      <trkpt lat="43.47359" lon="5.96836">
        <ele>321.837</ele>
        <time>2010-03-10T07:32:15Z</time>
      </trkpt>
      <trkpt lat="43.47362" lon="5.96839">
        <ele>322.406</ele>
        <time>2010-03-10T07:32:17Z</time>
      </trkpt>
      <trkpt lat="43.47363" lon="5.96847">
        <ele>323.739</ele>
        <time>2010-03-10T07:32:21Z</time>
      </trkpt>
      <trkpt lat="43.47354" lon="5.96878">
        <ele>327.11</ele>
        <time>2010-03-10T07:32:37Z</time>
      </trkpt>
      <trkpt lat="43.47353" lon="5.96884">
        <ele>326.267</ele>
        <time>2010-03-10T07:32:42Z</time>
      </trkpt>
      <trkpt lat="43.47356" lon="5.96899">
        <ele>327.653</ele>
        <time>2010-03-10T07:32:51Z</time>
      </trkpt>
      <trkpt lat="43.47357" lon="5.96913">
        <ele>329.017</ele>
        <time>2010-03-10T07:33:00Z</time>
      </trkpt>
      <trkpt lat="43.47369" lon="5.9694">
        <ele>333.418</ele>
        <time>2010-03-10T07:33:19Z</time>
      </trkpt>
      <trkpt lat="43.47372" lon="5.96948">
        <ele>334.118</ele>
        <time>2010-03-10T07:33:28Z</time>
      </trkpt>
      <trkpt lat="43.47374" lon="5.96956">
        <ele>333.836</ele>
        <time>2010-03-10T07:33:33Z</time>
      </trkpt>
      <trkpt lat="43.47379" lon="5.96975">
        <ele>335.833</ele>
        <time>2010-03-10T07:33:46Z</time>
      </trkpt>
      <trkpt lat="43.47379" lon="5.96983">
        <ele>335.691</ele>
        <time>2010-03-10T07:33:52Z</time>
      </trkpt>
      <trkpt lat="43.47384" lon="5.97005">
        <ele>339.749</ele>
        <time>2010-03-10T07:34:08Z</time>
      </trkpt>
      <trkpt lat="43.47386" lon="5.97014">
        <ele>341.623</ele>
        <time>2010-03-10T07:34:15Z</time>
      </trkpt>
      <trkpt lat="43.47386" lon="5.97016">
        <ele>342.134</ele>
        <time>2010-03-10T07:34:17Z</time>
      </trkpt>
      <trkpt lat="43.47389" lon="5.97021">
        <ele>342.663</ele>
        <time>2010-03-10T07:34:22Z</time>
      </trkpt>
      <trkpt lat="43.47389" lon="5.9703">
        <ele>342.384</ele>
        <time>2010-03-10T07:34:27Z</time>
      </trkpt>
      <trkpt lat="43.47389" lon="5.97035">
        <ele>342.148</ele>
        <time>2010-03-10T07:34:30Z</time>
      </trkpt>
      <trkpt lat="43.47396" lon="5.97064">
        <ele>344.65</ele>
        <time>2010-03-10T07:34:49Z</time>
      </trkpt>
      <trkpt lat="43.47394" lon="5.97081">
        <ele>346.901</ele>
        <time>2010-03-10T07:35:06Z</time>
      </trkpt>
      <trkpt lat="43.474" lon="5.97097">
        <ele>349.414</ele>
        <time>2010-03-10T07:35:24Z</time>
      </trkpt>
      <trkpt lat="43.47405" lon="5.97108">
        <ele>351.514</ele>
        <time>2010-03-10T07:35:31Z</time>
      </trkpt>
      <trkpt lat="43.47415" lon="5.97126">
        <ele>355.82</ele>
        <time>2010-03-10T07:35:47Z</time>
      </trkpt>
      <trkpt lat="43.47424" lon="5.97147">
        <ele>359.574</ele>
        <time>2010-03-10T07:36:03Z</time>
      </trkpt>
      <trkpt lat="43.4743" lon="5.97162">
        <ele>361.401</ele>
        <time>2010-03-10T07:36:14Z</time>
      </trkpt>
      <trkpt lat="43.4743" lon="5.97166">
        <ele>362.578</ele>
        <time>2010-03-10T07:36:17Z</time>
      </trkpt>
      <trkpt lat="43.47426" lon="5.97164">
        <ele>368.254</ele>
        <time>2010-03-10T07:36:35Z</time>
      </trkpt>
      <trkpt lat="43.47427" lon="5.97161">
        <ele>368.658</ele>
        <time>2010-03-10T07:37:03Z</time>
      </trkpt>
      <trkpt lat="43.47433" lon="5.97176">
        <ele>366.855</ele>
        <time>2010-03-10T07:38:06Z</time>
      </trkpt>
      <trkpt lat="43.47434" lon="5.9718">
        <ele>366.301</ele>
        <time>2010-03-10T07:38:08Z</time>
      </trkpt>
      <trkpt lat="43.47435" lon="5.97185">
        <ele>365.643</ele>
        <time>2010-03-10T07:38:15Z</time>
      </trkpt>
      <trkpt lat="43.47437" lon="5.97197">
        <ele>364.983</ele>
        <time>2010-03-10T07:38:23Z</time>
      </trkpt>
      <trkpt lat="43.47445" lon="5.972">
        <ele>363.843</ele>
        <time>2010-03-10T07:38:29Z</time>
      </trkpt>
      <trkpt lat="43.47449" lon="5.97209">
        <ele>363.314</ele>
        <time>2010-03-10T07:38:38Z</time>
      </trkpt>
      <trkpt lat="43.47455" lon="5.97217">
        <ele>364.513</ele>
        <time>2010-03-10T07:38:44Z</time>
      </trkpt>
      <trkpt lat="43.47463" lon="5.97229">
        <ele>367.72</ele>
        <time>2010-03-10T07:38:55Z</time>
      </trkpt>
      <trkpt lat="43.47467" lon="5.97242">
        <ele>373.153</ele>
        <time>2010-03-10T07:39:04Z</time>
      </trkpt>
      <trkpt lat="43.47466" lon="5.97265">
        <ele>376.045</ele>
        <time>2010-03-10T07:39:19Z</time>
      </trkpt>
      <trkpt lat="43.47469" lon="5.9729">
        <ele>379.15</ele>
        <time>2010-03-10T07:39:37Z</time>
      </trkpt>
      <trkpt lat="43.47466" lon="5.97317">
        <ele>382.064</ele>
        <time>2010-03-10T07:39:57Z</time>
      </trkpt>
      <trkpt lat="43.47464" lon="5.9732">
        <ele>382.483</ele>
        <time>2010-03-10T07:40:00Z</time>
      </trkpt>
      <trkpt lat="43.47463" lon="5.97329">
        <ele>385.17</ele>
        <time>2010-03-10T07:40:07Z</time>
      </trkpt>
      <trkpt lat="43.47464" lon="5.97356">
        <ele>386.626</ele>
        <time>2010-03-10T07:40:25Z</time>
      </trkpt>
      <trkpt lat="43.47465" lon="5.97363">
        <ele>386.251</ele>
        <time>2010-03-10T07:40:31Z</time>
      </trkpt>
      <trkpt lat="43.47465" lon="5.9738">
        <ele>387.42</ele>
        <time>2010-03-10T07:40:40Z</time>
      </trkpt>
      <trkpt lat="43.47467" lon="5.97402">
        <ele>380.67</ele>
        <time>2010-03-10T07:41:02Z</time>
      </trkpt>
      <trkpt lat="43.47466" lon="5.97411">
        <ele>379.943</ele>
        <time>2010-03-10T07:41:10Z</time>
      </trkpt>
      <trkpt lat="43.47465" lon="5.97414">
        <ele>379.587</ele>
        <time>2010-03-10T07:41:12Z</time>
      </trkpt>
      <trkpt lat="43.47463" lon="5.9742">
        <ele>379.108</ele>
        <time>2010-03-10T07:41:16Z</time>
      </trkpt>
      <trkpt lat="43.47455" lon="5.97431">
        <ele>380.241</ele>
        <time>2010-03-10T07:41:27Z</time>
      </trkpt>
      <trkpt lat="43.4745" lon="5.97436">
        <ele>379.221</ele>
        <time>2010-03-10T07:41:32Z</time>
      </trkpt>
      <trkpt lat="43.47441" lon="5.97454">
        <ele>381.234</ele>
        <time>2010-03-10T07:41:47Z</time>
      </trkpt>
      <trkpt lat="43.47441" lon="5.97458">
        <ele>382.134</ele>
        <time>2010-03-10T07:41:50Z</time>
      </trkpt>
      <trkpt lat="43.4744" lon="5.97461">
        <ele>382.253</ele>
        <time>2010-03-10T07:41:52Z</time>
      </trkpt>
      <trkpt lat="43.47441" lon="5.97465">
        <ele>383.932</ele>
        <time>2010-03-10T07:41:55Z</time>
      </trkpt>
      <trkpt lat="43.47442" lon="5.97468">
        <ele>382.961</ele>
        <time>2010-03-10T07:41:57Z</time>
      </trkpt>
      <trkpt lat="43.47441" lon="5.975">
        <ele>385.07</ele>
        <time>2010-03-10T07:42:17Z</time>
      </trkpt>
      <trkpt lat="43.47444" lon="5.97526">
        <ele>392.645</ele>
        <time>2010-03-10T07:42:36Z</time>
      </trkpt>
      <trkpt lat="43.47444" lon="5.97528">
        <ele>392.078</ele>
        <time>2010-03-10T07:42:38Z</time>
      </trkpt>
      <trkpt lat="43.47444" lon="5.9755">
        <ele>394.287</ele>
        <time>2010-03-10T07:42:54Z</time>
      </trkpt>
      <trkpt lat="43.47441" lon="5.97563">
        <ele>394.023</ele>
        <time>2010-03-10T07:43:08Z</time>
      </trkpt>
      <trkpt lat="43.4744" lon="5.97564">
        <ele>394.209</ele>
        <time>2010-03-10T07:43:11Z</time>
      </trkpt>
      <trkpt lat="43.47441" lon="5.97568">
        <ele>394.826</ele>
        <time>2010-03-10T07:43:15Z</time>
      </trkpt>
      <trkpt lat="43.47441" lon="5.97575">
        <ele>396.716</ele>
        <time>2010-03-10T07:43:19Z</time>
      </trkpt>
      <trkpt lat="43.47439" lon="5.97586">
        <ele>400.751</ele>
        <time>2010-03-10T07:43:39Z</time>
      </trkpt>
      <trkpt lat="43.47436" lon="5.97596">
        <ele>402.203</ele>
        <time>2010-03-10T07:43:48Z</time>
      </trkpt>
      <trkpt lat="43.47432" lon="5.97619">
        <ele>405.233</ele>
        <time>2010-03-10T07:44:08Z</time>
      </trkpt>
      <trkpt lat="43.47432" lon="5.97638">
        <ele>409.255</ele>
        <time>2010-03-10T07:44:23Z</time>
      </trkpt>
      <trkpt lat="43.47436" lon="5.9766">
        <ele>415.859</ele>
        <time>2010-03-10T07:44:42Z</time>
      </trkpt>
      <trkpt lat="43.47437" lon="5.97661">
        <ele>418.362</ele>
        <time>2010-03-10T07:44:50Z</time>
      </trkpt>
      <trkpt lat="43.4744" lon="5.97686">
        <ele>422.482</ele>
        <time>2010-03-10T07:45:11Z</time>
      </trkpt>
      <trkpt lat="43.47439" lon="5.97709">
        <ele>429.188</ele>
        <time>2010-03-10T07:45:33Z</time>
      </trkpt>
      <trkpt lat="43.47429" lon="5.97721">
        <ele>433.401</ele>
        <time>2010-03-10T07:45:51Z</time>
      </trkpt>
      <trkpt lat="43.47424" lon="5.97723">
        <ele>435.34</ele>
        <time>2010-03-10T07:46:13Z</time>
      </trkpt>
      <trkpt lat="43.47424" lon="5.97749">
        <ele>436.348</ele>
        <time>2010-03-10T07:46:33Z</time>
      </trkpt>
      <trkpt lat="43.47428" lon="5.97765">
        <ele>436.198</ele>
        <time>2010-03-10T07:46:55Z</time>
      </trkpt>
      <trkpt lat="43.47428" lon="5.97796">
        <ele>439.999</ele>
        <time>2010-03-10T07:47:21Z</time>
      </trkpt>
      <trkpt lat="43.47431" lon="5.97832">
        <ele>448.917</ele>
        <time>2010-03-10T07:47:53Z</time>
      </trkpt>
      <trkpt lat="43.47438" lon="5.97849">
        <ele>449.799</ele>
        <time>2010-03-10T07:48:19Z</time>
      </trkpt>
      <trkpt lat="43.4744" lon="5.97876">
        <ele>451.664</ele>
        <time>2010-03-10T07:48:39Z</time>
      </trkpt>
      <trkpt lat="43.47444" lon="5.97899">
        <ele>452.408</ele>
        <time>2010-03-10T07:49:03Z</time>
      </trkpt>
      <trkpt lat="43.4744" lon="5.97914">
        <ele>453.082</ele>
        <time>2010-03-10T07:49:37Z</time>
      </trkpt>
      <trkpt lat="43.4744" lon="5.9792">
        <ele>453.328</ele>
        <time>2010-03-10T07:49:43Z</time>
      </trkpt>
      <trkpt lat="43.47433" lon="5.97939">
        <ele>445.316</ele>
        <time>2010-03-10T07:50:01Z</time>
      </trkpt>
      <trkpt lat="43.47426" lon="5.97957">
        <ele>439.791</ele>
        <time>2010-03-10T07:50:18Z</time>
      </trkpt>
      <trkpt lat="43.47424" lon="5.97967">
        <ele>437.633</ele>
        <time>2010-03-10T07:50:28Z</time>
      </trkpt>
      <trkpt lat="43.47421" lon="5.97969">
        <ele>436.825</ele>
        <time>2010-03-10T07:50:31Z</time>
      </trkpt>
      <trkpt lat="43.47414" lon="5.97961">
        <ele>443.058</ele>
        <time>2010-03-10T07:50:42Z</time>
      </trkpt>
      <trkpt lat="43.47415" lon="5.97957">
        <ele>448.161</ele>
        <time>2010-03-10T07:50:47Z</time>
      </trkpt>
      <trkpt lat="43.4741" lon="5.9795">
        <ele>454.506</ele>
        <time>2010-03-10T07:51:05Z</time>
      </trkpt>
      <trkpt lat="43.47399" lon="5.97931">
        <ele>465.829</ele>
        <time>2010-03-10T07:51:29Z</time>
      </trkpt>
      <trkpt lat="43.47387" lon="5.97914">
        <ele>471.975</ele>
        <time>2010-03-10T07:51:48Z</time>
      </trkpt>
      <trkpt lat="43.47375" lon="5.97899">
        <ele>476.796</ele>
        <time>2010-03-10T07:52:07Z</time>
      </trkpt>
      <trkpt lat="43.47359" lon="5.97893">
        <ele>481.585</ele>
        <time>2010-03-10T07:52:29Z</time>
      </trkpt>
      <trkpt lat="43.47353" lon="5.97895">
        <ele>481.06</ele>
        <time>2010-03-10T07:52:51Z</time>
      </trkpt>
      <trkpt lat="43.47351" lon="5.979">
        <ele>481.095</ele>
        <time>2010-03-10T07:52:55Z</time>
      </trkpt>
      <trkpt lat="43.47343" lon="5.97922">
        <ele>487.493</ele>
        <time>2010-03-10T07:53:16Z</time>
      </trkpt>
      <trkpt lat="43.47346" lon="5.9794">
        <ele>492.032</ele>
        <time>2010-03-10T07:53:32Z</time>
      </trkpt>
      <trkpt lat="43.47353" lon="5.97934">
        <ele>491.575</ele>
        <time>2010-03-10T07:53:51Z</time>
      </trkpt>
      <trkpt lat="43.47353" lon="5.97933">
        <ele>491.88</ele>
        <time>2010-03-10T07:54:14Z</time>
      </trkpt>
      <trkpt lat="43.47354" lon="5.97934">
        <ele>491.806</ele>
        <time>2010-03-10T07:54:52Z</time>
      </trkpt>
      <trkpt lat="43.47354" lon="5.97933">
        <ele>491.791</ele>
        <time>2010-03-10T07:54:53Z</time>
      </trkpt>
      <trkpt lat="43.47348" lon="5.9794">
        <ele>491.248</ele>
        <time>2010-03-10T07:55:00Z</time>
      </trkpt>
      <trkpt lat="43.47346" lon="5.97955">
        <ele>492.998</ele>
        <time>2010-03-10T07:55:12Z</time>
      </trkpt>
      <trkpt lat="43.47354" lon="5.97975">
        <ele>498.43</ele>
        <time>2010-03-10T07:55:30Z</time>
      </trkpt>
      <trkpt lat="43.47354" lon="5.97976">
        <ele>499.06</ele>
        <time>2010-03-10T07:55:34Z</time>
      </trkpt>
      <trkpt lat="43.47349" lon="5.97983">
        <ele>500.69</ele>
        <time>2010-03-10T07:55:51Z</time>
      </trkpt>
      <trkpt lat="43.47343" lon="5.97991">
        <ele>500.897</ele>
        <time>2010-03-10T07:56:01Z</time>
      </trkpt>
      <trkpt lat="43.47338" lon="5.97994">
        <ele>499.527</ele>
        <time>2010-03-10T07:56:07Z</time>
      </trkpt>
      <trkpt lat="43.47329" lon="5.97997">
        <ele>501.855</ele>
        <time>2010-03-10T07:56:16Z</time>
      </trkpt>
      <trkpt lat="43.47328" lon="5.97997">
        <ele>501.962</ele>
        <time>2010-03-10T07:56:18Z</time>
      </trkpt>
      <trkpt lat="43.47319" lon="5.98003">
        <ele>501.122</ele>
        <time>2010-03-10T07:56:28Z</time>
      </trkpt>
      <trkpt lat="43.47306" lon="5.98025">
        <ele>504.813</ele>
        <time>2010-03-10T07:56:50Z</time>
      </trkpt>
      <trkpt lat="43.47302" lon="5.98033">
        <ele>506.243</ele>
        <time>2010-03-10T07:56:57Z</time>
      </trkpt>
      <trkpt lat="43.473" lon="5.98067">
        <ele>513.417</ele>
        <time>2010-03-10T07:57:23Z</time>
      </trkpt>
      <trkpt lat="43.47301" lon="5.98068">
        <ele>513.532</ele>
        <time>2010-03-10T07:57:33Z</time>
      </trkpt>
      <trkpt lat="43.47294" lon="5.98086">
        <ele>514.977</ele>
        <time>2010-03-10T07:57:47Z</time>
      </trkpt>
      <trkpt lat="43.47293" lon="5.98091">
        <ele>514.415</ele>
        <time>2010-03-10T07:57:51Z</time>
      </trkpt>
      <trkpt lat="43.47282" lon="5.98107">
        <ele>514.029</ele>
        <time>2010-03-10T07:58:06Z</time>
      </trkpt>
      <trkpt lat="43.47276" lon="5.98113">
        <ele>513.683</ele>
        <time>2010-03-10T07:58:12Z</time>
      </trkpt>
      <trkpt lat="43.47259" lon="5.98136">
        <ele>511.19</ele>
        <time>2010-03-10T07:58:37Z</time>
      </trkpt>
      <trkpt lat="43.47259" lon="5.98136">
        <ele>510.815</ele>
        <time>2010-03-10T07:58:38Z</time>
      </trkpt>
      <trkpt lat="43.47255" lon="5.9814">
        <ele>509.133</ele>
        <time>2010-03-10T07:58:42Z</time>
      </trkpt>
      <trkpt lat="43.4725" lon="5.98144">
        <ele>509.137</ele>
        <time>2010-03-10T07:58:47Z</time>
      </trkpt>
      <trkpt lat="43.47241" lon="5.98153">
        <ele>507.399</ele>
        <time>2010-03-10T07:58:57Z</time>
      </trkpt>
      <trkpt lat="43.47235" lon="5.98176">
        <ele>507.5</ele>
        <time>2010-03-10T07:59:12Z</time>
      </trkpt>
      <trkpt lat="43.47235" lon="5.98179">
        <ele>508.309</ele>
        <time>2010-03-10T07:59:14Z</time>
      </trkpt>
      <trkpt lat="43.47235" lon="5.98184">
        <ele>508.611</ele>
        <time>2010-03-10T07:59:17Z</time>
      </trkpt>
      <trkpt lat="43.47234" lon="5.98187">
        <ele>508.873</ele>
        <time>2010-03-10T07:59:20Z</time>
      </trkpt>
      <trkpt lat="43.47231" lon="5.982">
        <ele>509.713</ele>
        <time>2010-03-10T07:59:29Z</time>
      </trkpt>
      <trkpt lat="43.47229" lon="5.98223">
        <ele>516.32</ele>
        <time>2010-03-10T07:59:52Z</time>
      </trkpt>
      <trkpt lat="43.47228" lon="5.98226">
        <ele>517.151</ele>
        <time>2010-03-10T07:59:54Z</time>
      </trkpt>
      <trkpt lat="43.47226" lon="5.98246">
        <ele>517.688</ele>
        <time>2010-03-10T08:00:07Z</time>
      </trkpt>
      <trkpt lat="43.47225" lon="5.98248">
        <ele>517.588</ele>
        <time>2010-03-10T08:00:09Z</time>
      </trkpt>
      <trkpt lat="43.47223" lon="5.98282">
        <ele>519.166</ele>
        <time>2010-03-10T08:00:31Z</time>
      </trkpt>
      <trkpt lat="43.47225" lon="5.98297">
        <ele>521.196</ele>
        <time>2010-03-10T08:00:42Z</time>
      </trkpt>
      <trkpt lat="43.47225" lon="5.98311">
        <ele>520.845</ele>
        <time>2010-03-10T08:00:52Z</time>
      </trkpt>
      <trkpt lat="43.4723" lon="5.98331">
        <ele>520.499</ele>
        <time>2010-03-10T08:01:12Z</time>
      </trkpt>
      <trkpt lat="43.47224" lon="5.98329">
        <ele>519.777</ele>
        <time>2010-03-10T08:01:30Z</time>
      </trkpt>
      <trkpt lat="43.47217" lon="5.98336">
        <ele>522.189</ele>
        <time>2010-03-10T08:01:46Z</time>
      </trkpt>
      <trkpt lat="43.47221" lon="5.98332">
        <ele>523.848</ele>
        <time>2010-03-10T08:02:04Z</time>
      </trkpt>
      <trkpt lat="43.47223" lon="5.9833">
        <ele>524.468</ele>
        <time>2010-03-10T08:02:29Z</time>
      </trkpt>
      <trkpt lat="43.47224" lon="5.9833">
        <ele>524.453</ele>
        <time>2010-03-10T08:02:32Z</time>
      </trkpt>
      <trkpt lat="43.47232" lon="5.9834">
        <ele>525.2</ele>
        <time>2010-03-10T08:02:41Z</time>
      </trkpt>
      <trkpt lat="43.47243" lon="5.98351">
        <ele>527.143</ele>
        <time>2010-03-10T08:02:57Z</time>
      </trkpt>
      <trkpt lat="43.47245" lon="5.98361">
        <ele>527.708</ele>
        <time>2010-03-10T08:03:06Z</time>
      </trkpt>
      <trkpt lat="43.47225" lon="5.98364">
        <ele>525.106</ele>
        <time>2010-03-10T08:03:24Z</time>
      </trkpt>
      <trkpt lat="43.4722" lon="5.9836">
        <ele>524.711</ele>
        <time>2010-03-10T08:03:29Z</time>
      </trkpt>
      <trkpt lat="43.47213" lon="5.98351">
        <ele>527.741</ele>
        <time>2010-03-10T08:03:38Z</time>
      </trkpt>
      <trkpt lat="43.4721" lon="5.98349">
        <ele>528.099</ele>
        <time>2010-03-10T08:03:41Z</time>
      </trkpt>
      <trkpt lat="43.47207" lon="5.98346">
        <ele>527.258</ele>
        <time>2010-03-10T08:03:44Z</time>
      </trkpt>
      <trkpt lat="43.47203" lon="5.98344">
        <ele>526.082</ele>
        <time>2010-03-10T08:03:47Z</time>
      </trkpt>
      <trkpt lat="43.47183" lon="5.98324">
        <ele>524.467</ele>
        <time>2010-03-10T08:04:08Z</time>
      </trkpt>
      <trkpt lat="43.47183" lon="5.98323">
        <ele>524.454</ele>
        <time>2010-03-10T08:04:09Z</time>
      </trkpt>
      <trkpt lat="43.47172" lon="5.98327">
        <ele>522.671</ele>
        <time>2010-03-10T08:04:26Z</time>
      </trkpt>
      <trkpt lat="43.47171" lon="5.9833">
        <ele>523.29</ele>
        <time>2010-03-10T08:04:29Z</time>
      </trkpt>
      <trkpt lat="43.47157" lon="5.98332">
        <ele>519.073</ele>
        <time>2010-03-10T08:04:45Z</time>
      </trkpt>
      <trkpt lat="43.47139" lon="5.98343">
        <ele>515.121</ele>
        <time>2010-03-10T08:05:08Z</time>
      </trkpt>
      <trkpt lat="43.47134" lon="5.98348">
        <ele>514.117</ele>
        <time>2010-03-10T08:05:18Z</time>
      </trkpt>
      <trkpt lat="43.47117" lon="5.98352">
        <ele>518.912</ele>
        <time>2010-03-10T08:05:42Z</time>
      </trkpt>
      <trkpt lat="43.4711" lon="5.98348">
        <ele>525.162</ele>
        <time>2010-03-10T08:06:01Z</time>
      </trkpt>
      <trkpt lat="43.47105" lon="5.98339">
        <ele>527.906</ele>
        <time>2010-03-10T08:06:11Z</time>
      </trkpt>
      <trkpt lat="43.47098" lon="5.98331">
        <ele>532.115</ele>
        <time>2010-03-10T08:06:30Z</time>
      </trkpt>
      <trkpt lat="43.47098" lon="5.98331">
        <ele>532.24</ele>
        <time>2010-03-10T08:06:34Z</time>
      </trkpt>
      <trkpt lat="43.47093" lon="5.98313">
        <ele>542.724</ele>
        <time>2010-03-10T08:06:55Z</time>
      </trkpt>
      <trkpt lat="43.47092" lon="5.9831">
        <ele>544.318</ele>
        <time>2010-03-10T08:06:58Z</time>
      </trkpt>
      <trkpt lat="43.47084" lon="5.98287">
        <ele>553.92</ele>
        <time>2010-03-10T08:07:19Z</time>
      </trkpt>
      <trkpt lat="43.47085" lon="5.98274">
        <ele>559.012</ele>
        <time>2010-03-10T08:07:32Z</time>
      </trkpt>
      <trkpt lat="43.47078" lon="5.98267">
        <ele>562.951</ele>
        <time>2010-03-10T08:07:50Z</time>
      </trkpt>
      <trkpt lat="43.47071" lon="5.98259">
        <ele>563.555</ele>
        <time>2010-03-10T08:08:06Z</time>
      </trkpt>
      <trkpt lat="43.4706" lon="5.98254">
        <ele>565.396</ele>
        <time>2010-03-10T08:08:25Z</time>
      </trkpt>
      <trkpt lat="43.4706" lon="5.98253">
        <ele>565.231</ele>
        <time>2010-03-10T08:08:30Z</time>
      </trkpt>
      <trkpt lat="43.47054" lon="5.98248">
        <ele>567.561</ele>
        <time>2010-03-10T08:08:48Z</time>
      </trkpt>
      <trkpt lat="43.47043" lon="5.98245">
        <ele>569.026</ele>
        <time>2010-03-10T08:09:09Z</time>
      </trkpt>
      <trkpt lat="43.47035" lon="5.98241">
        <ele>567.985</ele>
        <time>2010-03-10T08:09:24Z</time>
      </trkpt>
      <trkpt lat="43.4703" lon="5.98241">
        <ele>567.96</ele>
        <time>2010-03-10T08:09:41Z</time>
      </trkpt>
      <trkpt lat="43.47023" lon="5.98237">
        <ele>569.612</ele>
        <time>2010-03-10T08:09:59Z</time>
      </trkpt>
      <trkpt lat="43.47011" lon="5.98231">
        <ele>572.58</ele>
        <time>2010-03-10T08:10:19Z</time>
      </trkpt>
      <trkpt lat="43.4701" lon="5.98229">
        <ele>573.614</ele>
        <time>2010-03-10T08:10:33Z</time>
      </trkpt>
      <trkpt lat="43.47" lon="5.98228">
        <ele>573.468</ele>
        <time>2010-03-10T08:10:52Z</time>
      </trkpt>
      <trkpt lat="43.46994" lon="5.98226">
        <ele>575.532</ele>
        <time>2010-03-10T08:11:07Z</time>
      </trkpt>
      <trkpt lat="43.46992" lon="5.98224">
        <ele>577.089</ele>
        <time>2010-03-10T08:11:31Z</time>
      </trkpt>
      <trkpt lat="43.46992" lon="5.98223">
        <ele>578.045</ele>
        <time>2010-03-10T08:12:09Z</time>
      </trkpt>
      <trkpt lat="43.46994" lon="5.98223">
        <ele>577.456</ele>
        <time>2010-03-10T08:13:30Z</time>
      </trkpt>
      <trkpt lat="43.46989" lon="5.98215">
        <ele>576.138</ele>
        <time>2010-03-10T08:13:55Z</time>
      </trkpt>
      <trkpt lat="43.46985" lon="5.98204">
        <ele>575.851</ele>
        <time>2010-03-10T08:14:10Z</time>
      </trkpt>
      <trkpt lat="43.46985" lon="5.98204">
        <ele>575.7</ele>
        <time>2010-03-10T08:14:27Z</time>
      </trkpt>
      <trkpt lat="43.46984" lon="5.98181">
        <ele>577.873</ele>
        <time>2010-03-10T08:14:50Z</time>
      </trkpt>
      <trkpt lat="43.46982" lon="5.98171">
        <ele>578.667</ele>
        <time>2010-03-10T08:15:06Z</time>
      </trkpt>
      <trkpt lat="43.46982" lon="5.9817">
        <ele>577.393</ele>
        <time>2010-03-10T08:15:26Z</time>
      </trkpt>
      <trkpt lat="43.46981" lon="5.98163">
        <ele>575.792</ele>
        <time>2010-03-10T08:17:57Z</time>
      </trkpt>
      <trkpt lat="43.46973" lon="5.98155">
        <ele>571.987</ele>
        <time>2010-03-10T08:18:14Z</time>
      </trkpt>
      <trkpt lat="43.46973" lon="5.98145">
        <ele>567.762</ele>
        <time>2010-03-10T08:18:33Z</time>
      </trkpt>
      <trkpt lat="43.46976" lon="5.98131">
        <ele>568.585</ele>
        <time>2010-03-10T08:18:50Z</time>
      </trkpt>
      <trkpt lat="43.46971" lon="5.98125">
        <ele>566.352</ele>
        <time>2010-03-10T08:19:06Z</time>
      </trkpt>
      <trkpt lat="43.46967" lon="5.98115">
        <ele>565.324</ele>
        <time>2010-03-10T08:19:27Z</time>
      </trkpt>
      <trkpt lat="43.46963" lon="5.98104">
        <ele>565.276</ele>
        <time>2010-03-10T08:19:42Z</time>
      </trkpt>
      <trkpt lat="43.46962" lon="5.98101">
        <ele>564.574</ele>
        <time>2010-03-10T08:20:03Z</time>
      </trkpt>
      <trkpt lat="43.46962" lon="5.98094">
        <ele>563.049</ele>
        <time>2010-03-10T08:20:34Z</time>
      </trkpt>
      <trkpt lat="43.4696" lon="5.98082">
        <ele>566.259</ele>
        <time>2010-03-10T08:20:50Z</time>
      </trkpt>
      <trkpt lat="43.4696" lon="5.98072">
        <ele>565.545</ele>
        <time>2010-03-10T08:21:08Z</time>
      </trkpt>
      <trkpt lat="43.46961" lon="5.9806">
        <ele>567.945</ele>
        <time>2010-03-10T08:21:26Z</time>
      </trkpt>
      <trkpt lat="43.4696" lon="5.98056">
        <ele>566.63</ele>
        <time>2010-03-10T08:21:41Z</time>
      </trkpt>
      <trkpt lat="43.46954" lon="5.98048">
        <ele>563.415</ele>
        <time>2010-03-10T08:21:56Z</time>
      </trkpt>
      <trkpt lat="43.46949" lon="5.98038">
        <ele>560.18</ele>
        <time>2010-03-10T08:22:09Z</time>
      </trkpt>
      <trkpt lat="43.46948" lon="5.98035">
        <ele>559.135</ele>
        <time>2010-03-10T08:22:13Z</time>
      </trkpt>
      <trkpt lat="43.46942" lon="5.98025">
        <ele>557.417</ele>
        <time>2010-03-10T08:22:30Z</time>
      </trkpt>
      <trkpt lat="43.46935" lon="5.9802">
        <ele>556.226</ele>
        <time>2010-03-10T08:22:46Z</time>
      </trkpt>
      <trkpt lat="43.46937" lon="5.98011">
        <ele>559.711</ele>
        <time>2010-03-10T08:23:00Z</time>
      </trkpt>
      <trkpt lat="43.46937" lon="5.98004">
        <ele>560.443</ele>
        <time>2010-03-10T08:23:15Z</time>
      </trkpt>
      <trkpt lat="43.46935" lon="5.98">
        <ele>559.621</ele>
        <time>2010-03-10T08:23:47Z</time>
      </trkpt>
      <trkpt lat="43.46929" lon="5.97987">
        <ele>559.481</ele>
        <time>2010-03-10T08:24:04Z</time>
      </trkpt>
      <trkpt lat="43.46924" lon="5.97977">
        <ele>560.042</ele>
        <time>2010-03-10T08:24:21Z</time>
      </trkpt>
      <trkpt lat="43.46917" lon="5.97968">
        <ele>562.966</ele>
        <time>2010-03-10T08:24:36Z</time>
      </trkpt>
      <trkpt lat="43.46906" lon="5.97965">
        <ele>561.738</ele>
        <time>2010-03-10T08:25:02Z</time>
      </trkpt>
      <trkpt lat="43.46903" lon="5.97949">
        <ele>559.405</ele>
        <time>2010-03-10T08:25:20Z</time>
      </trkpt>
      <trkpt lat="43.46904" lon="5.97938">
        <ele>558.301</ele>
        <time>2010-03-10T08:25:36Z</time>
      </trkpt>
      <trkpt lat="43.46898" lon="5.97922">
        <ele>556.113</ele>
        <time>2010-03-10T08:25:56Z</time>
      </trkpt>
      <trkpt lat="43.46894" lon="5.97911">
        <ele>555.124</ele>
        <time>2010-03-10T08:26:19Z</time>
      </trkpt>
      <trkpt lat="43.46892" lon="5.97896">
        <ele>551.84</ele>
        <time>2010-03-10T08:26:36Z</time>
      </trkpt>
      <trkpt lat="43.46885" lon="5.97894">
        <ele>549.17</ele>
        <time>2010-03-10T08:26:51Z</time>
      </trkpt>
      <trkpt lat="43.4688" lon="5.97877">
        <ele>544.891</ele>
        <time>2010-03-10T08:27:26Z</time>
      </trkpt>
      <trkpt lat="43.46876" lon="5.97862">
        <ele>540.392</ele>
        <time>2010-03-10T08:27:43Z</time>
      </trkpt>
      <trkpt lat="43.46867" lon="5.97852">
        <ele>538.92</ele>
        <time>2010-03-10T08:28:00Z</time>
      </trkpt>
      <trkpt lat="43.46861" lon="5.97848">
        <ele>537.661</ele>
        <time>2010-03-10T08:28:09Z</time>
      </trkpt>
      <trkpt lat="43.46857" lon="5.97836">
        <ele>538.793</ele>
        <time>2010-03-10T08:28:28Z</time>
      </trkpt>
      <trkpt lat="43.46856" lon="5.97834">
        <ele>538.571</ele>
        <time>2010-03-10T08:28:40Z</time>
      </trkpt>
      <trkpt lat="43.46845" lon="5.97833">
        <ele>538.526</ele>
        <time>2010-03-10T08:28:53Z</time>
      </trkpt>
      <trkpt lat="43.46828" lon="5.97826">
        <ele>540.016</ele>
        <time>2010-03-10T08:29:16Z</time>
      </trkpt>
      <trkpt lat="43.46827" lon="5.97823">
        <ele>539.794</ele>
        <time>2010-03-10T08:29:38Z</time>
      </trkpt>
      <trkpt lat="43.46832" lon="5.97833">
        <ele>537.943</ele>
        <time>2010-03-10T08:29:46Z</time>
      </trkpt>
      <trkpt lat="43.46832" lon="5.97836">
        <ele>537.752</ele>
        <time>2010-03-10T08:30:05Z</time>
      </trkpt>
      <trkpt lat="43.46826" lon="5.97822">
        <ele>540.194</ele>
        <time>2010-03-10T08:30:23Z</time>
      </trkpt>
      <trkpt lat="43.46826" lon="5.97822">
        <ele>540.12</ele>
        <time>2010-03-10T08:30:24Z</time>
      </trkpt>
      <trkpt lat="43.46824" lon="5.97807">
        <ele>539.73</ele>
        <time>2010-03-10T08:30:38Z</time>
      </trkpt>
      <trkpt lat="43.46824" lon="5.97801">
        <ele>539.949</ele>
        <time>2010-03-10T08:30:54Z</time>
      </trkpt>
      <trkpt lat="43.46827" lon="5.97784">
        <ele>541.451</ele>
        <time>2010-03-10T08:31:13Z</time>
      </trkpt>
      <trkpt lat="43.46827" lon="5.97776">
        <ele>540.699</ele>
        <time>2010-03-10T08:31:29Z</time>
      </trkpt>
      <trkpt lat="43.46828" lon="5.97762">
        <ele>539.285</ele>
        <time>2010-03-10T08:31:45Z</time>
      </trkpt>
      <trkpt lat="43.46826" lon="5.9775">
        <ele>536.556</ele>
        <time>2010-03-10T08:32:02Z</time>
      </trkpt>
      <trkpt lat="43.46823" lon="5.97733">
        <ele>531.607</ele>
        <time>2010-03-10T08:32:20Z</time>
      </trkpt>
      <trkpt lat="43.46823" lon="5.97719">
        <ele>529.253</ele>
        <time>2010-03-10T08:32:34Z</time>
      </trkpt>
      <trkpt lat="43.46821" lon="5.97718">
        <ele>530.02</ele>
        <time>2010-03-10T08:32:46Z</time>
      </trkpt>
      <trkpt lat="43.46811" lon="5.97711">
        <ele>529.701</ele>
        <time>2010-03-10T08:33:05Z</time>
      </trkpt>
      <trkpt lat="43.46805" lon="5.97705">
        <ele>528.311</ele>
        <time>2010-03-10T08:33:21Z</time>
      </trkpt>
      <trkpt lat="43.46798" lon="5.97699">
        <ele>523.084</ele>
        <time>2010-03-10T08:33:38Z</time>
      </trkpt>
      <trkpt lat="43.46787" lon="5.97683">
        <ele>521.893</ele>
        <time>2010-03-10T08:33:57Z</time>
      </trkpt>
      <trkpt lat="43.46783" lon="5.97663">
        <ele>520.709</ele>
        <time>2010-03-10T08:34:14Z</time>
      </trkpt>
      <trkpt lat="43.46777" lon="5.97651">
        <ele>518.028</ele>
        <time>2010-03-10T08:34:32Z</time>
      </trkpt>
      <trkpt lat="43.46777" lon="5.97642">
        <ele>517.224</ele>
        <time>2010-03-10T08:34:46Z</time>
      </trkpt>
      <trkpt lat="43.46766" lon="5.97633">
        <ele>518.667</ele>
        <time>2010-03-10T08:35:04Z</time>
      </trkpt>
      <trkpt lat="43.46762" lon="5.97614">
        <ele>515.801</ele>
        <time>2010-03-10T08:35:19Z</time>
      </trkpt>
      <trkpt lat="43.46758" lon="5.97594">
        <ele>513.567</ele>
        <time>2010-03-10T08:35:37Z</time>
      </trkpt>
      <trkpt lat="43.46754" lon="5.9758">
        <ele>510.386</ele>
        <time>2010-03-10T08:35:56Z</time>
      </trkpt>
      <trkpt lat="43.46748" lon="5.97564">
        <ele>505.268</ele>
        <time>2010-03-10T08:36:18Z</time>
      </trkpt>
      <trkpt lat="43.4674" lon="5.97558">
        <ele>500.969</ele>
        <time>2010-03-10T08:36:36Z</time>
      </trkpt>
      <trkpt lat="43.46734" lon="5.97546">
        <ele>497.924</ele>
        <time>2010-03-10T08:36:53Z</time>
      </trkpt>
      <trkpt lat="43.46729" lon="5.97528">
        <ele>494.315</ele>
        <time>2010-03-10T08:37:14Z</time>
      </trkpt>
      <trkpt lat="43.46725" lon="5.97528">
        <ele>493.32</ele>
        <time>2010-03-10T08:37:39Z</time>
      </trkpt>
      <trkpt lat="43.46725" lon="5.97518">
        <ele>491.821</ele>
        <time>2010-03-10T08:38:11Z</time>
      </trkpt>
      <trkpt lat="43.46723" lon="5.97508">
        <ele>490.526</ele>
        <time>2010-03-10T08:38:26Z</time>
      </trkpt>
      <trkpt lat="43.46723" lon="5.97498">
        <ele>489.026</ele>
        <time>2010-03-10T08:38:45Z</time>
      </trkpt>
      <trkpt lat="43.46721" lon="5.97489">
        <ele>486.091</ele>
        <time>2010-03-10T08:38:59Z</time>
      </trkpt>
      <trkpt lat="43.46713" lon="5.97472">
        <ele>479.536</ele>
        <time>2010-03-10T08:39:21Z</time>
      </trkpt>
      <trkpt lat="43.4671" lon="5.97455">
        <ele>475.906</ele>
        <time>2010-03-10T08:39:42Z</time>
      </trkpt>
      <trkpt lat="43.46705" lon="5.97443">
        <ele>472.272</ele>
        <time>2010-03-10T08:39:57Z</time>
      </trkpt>
      <trkpt lat="43.46699" lon="5.97436">
        <ele>469.726</ele>
        <time>2010-03-10T08:40:15Z</time>
      </trkpt>
      <trkpt lat="43.46695" lon="5.97422">
        <ele>467.946</ele>
        <time>2010-03-10T08:40:52Z</time>
      </trkpt>
      <trkpt lat="43.46686" lon="5.97405">
        <ele>465.038</ele>
        <time>2010-03-10T08:41:11Z</time>
      </trkpt>
      <trkpt lat="43.46684" lon="5.97391">
        <ele>464.004</ele>
        <time>2010-03-10T08:41:25Z</time>
      </trkpt>
      <trkpt lat="43.46679" lon="5.9738">
        <ele>461.443</ele>
        <time>2010-03-10T08:41:42Z</time>
      </trkpt>
      <trkpt lat="43.46671" lon="5.97364">
        <ele>458.154</ele>
        <time>2010-03-10T08:42:03Z</time>
      </trkpt>
      <trkpt lat="43.46671" lon="5.97349">
        <ele>458.509</ele>
        <time>2010-03-10T08:42:19Z</time>
      </trkpt>
      <trkpt lat="43.46671" lon="5.97336">
        <ele>454.781</ele>
        <time>2010-03-10T08:42:34Z</time>
      </trkpt>
      <trkpt lat="43.46671" lon="5.97316">
        <ele>452.624</ele>
        <time>2010-03-10T08:42:55Z</time>
      </trkpt>
      <trkpt lat="43.46668" lon="5.97302">
        <ele>449.663</ele>
        <time>2010-03-10T08:43:15Z</time>
      </trkpt>
      <trkpt lat="43.4667" lon="5.97301">
        <ele>450.095</ele>
        <time>2010-03-10T08:43:37Z</time>
      </trkpt>
      <trkpt lat="43.46664" lon="5.97299">
        <ele>450.217</ele>
        <time>2010-03-10T08:43:46Z</time>
      </trkpt>
      <trkpt lat="43.46661" lon="5.97298">
        <ele>450.016</ele>
        <time>2010-03-10T08:43:49Z</time>
      </trkpt>
      <trkpt lat="43.46658" lon="5.97295">
        <ele>450.004</ele>
        <time>2010-03-10T08:43:52Z</time>
      </trkpt>
      <trkpt lat="43.46651" lon="5.97293">
        <ele>445.904</ele>
        <time>2010-03-10T08:44:10Z</time>
      </trkpt>
      <trkpt lat="43.46643" lon="5.97286">
        <ele>444.226</ele>
        <time>2010-03-10T08:44:26Z</time>
      </trkpt>
      <trkpt lat="43.46639" lon="5.97263">
        <ele>439.413</ele>
        <time>2010-03-10T08:44:49Z</time>
      </trkpt>
      <trkpt lat="43.46634" lon="5.97248">
        <ele>435.17</ele>
        <time>2010-03-10T08:45:07Z</time>
      </trkpt>
      <trkpt lat="43.46635" lon="5.97232">
        <ele>428.481</ele>
        <time>2010-03-10T08:45:27Z</time>
      </trkpt>
      <trkpt lat="43.46626" lon="5.97216">
        <ele>421.194</ele>
        <time>2010-03-10T08:45:46Z</time>
      </trkpt>
      <trkpt lat="43.46626" lon="5.97203">
        <ele>422.679</ele>
        <time>2010-03-10T08:46:06Z</time>
      </trkpt>
      <trkpt lat="43.46621" lon="5.97189">
        <ele>420.804</ele>
        <time>2010-03-10T08:46:22Z</time>
      </trkpt>
      <trkpt lat="43.46618" lon="5.97171">
        <ele>416.011</ele>
        <time>2010-03-10T08:46:41Z</time>
      </trkpt>
      <trkpt lat="43.46609" lon="5.97157">
        <ele>412.751</ele>
        <time>2010-03-10T08:47:02Z</time>
      </trkpt>
      <trkpt lat="43.46606" lon="5.97143">
        <ele>410.649</ele>
        <time>2010-03-10T08:47:19Z</time>
      </trkpt>
      <trkpt lat="43.46601" lon="5.97128">
        <ele>409.995</ele>
        <time>2010-03-10T08:47:42Z</time>
      </trkpt>
      <trkpt lat="43.46602" lon="5.97119">
        <ele>408.126</ele>
        <time>2010-03-10T08:47:52Z</time>
      </trkpt>
      <trkpt lat="43.46601" lon="5.97109">
        <ele>406.828</ele>
        <time>2010-03-10T08:48:05Z</time>
      </trkpt>
      <trkpt lat="43.46601" lon="5.97105">
        <ele>406.093</ele>
        <time>2010-03-10T08:48:09Z</time>
      </trkpt>
      <trkpt lat="43.46599" lon="5.97088">
        <ele>404.231</ele>
        <time>2010-03-10T08:48:27Z</time>
      </trkpt>
      <trkpt lat="43.466" lon="5.97068">
        <ele>401.44</ele>
        <time>2010-03-10T08:48:45Z</time>
      </trkpt>
      <trkpt lat="43.4661" lon="5.97063">
        <ele>399.201</ele>
        <time>2010-03-10T08:49:02Z</time>
      </trkpt>
      <trkpt lat="43.46616" lon="5.97052">
        <ele>400.325</ele>
        <time>2010-03-10T08:49:15Z</time>
      </trkpt>
      <trkpt lat="43.46628" lon="5.97045">
        <ele>398.626</ele>
        <time>2010-03-10T08:49:31Z</time>
      </trkpt>
      <trkpt lat="43.4663" lon="5.97043">
        <ele>400.685</ele>
        <time>2010-03-10T08:49:52Z</time>
      </trkpt>
      <trkpt lat="43.46634" lon="5.97031">
        <ele>397.033</ele>
        <time>2010-03-10T08:51:07Z</time>
      </trkpt>
      <trkpt lat="43.46641" lon="5.97006">
        <ele>393.754</ele>
        <time>2010-03-10T08:51:27Z</time>
      </trkpt>
      <trkpt lat="43.46646" lon="5.9699">
        <ele>392.173</ele>
        <time>2010-03-10T08:51:42Z</time>
      </trkpt>
      <trkpt lat="43.46646" lon="5.96977">
        <ele>390.943</ele>
        <time>2010-03-10T08:51:59Z</time>
      </trkpt>
      <trkpt lat="43.46644" lon="5.96963">
        <ele>393.662</ele>
        <time>2010-03-10T08:52:14Z</time>
      </trkpt>
      <trkpt lat="43.46642" lon="5.96964">
        <ele>394.458</ele>
        <time>2010-03-10T08:52:20Z</time>
      </trkpt>
      <trkpt lat="43.46648" lon="5.96965">
        <ele>394.238</ele>
        <time>2010-03-10T08:52:27Z</time>
      </trkpt>
      <trkpt lat="43.46653" lon="5.96962">
        <ele>394.475</ele>
        <time>2010-03-10T08:52:33Z</time>
      </trkpt>
      <trkpt lat="43.46656" lon="5.96959">
        <ele>394.036</ele>
        <time>2010-03-10T08:52:36Z</time>
      </trkpt>
      <trkpt lat="43.46656" lon="5.96953">
        <ele>393.396</ele>
        <time>2010-03-10T08:52:41Z</time>
      </trkpt>
      <trkpt lat="43.46662" lon="5.96945">
        <ele>392.229</ele>
        <time>2010-03-10T08:52:51Z</time>
      </trkpt>
      <trkpt lat="43.4667" lon="5.96939">
        <ele>391.224</ele>
        <time>2010-03-10T08:53:02Z</time>
      </trkpt>
      <trkpt lat="43.46673" lon="5.96929">
        <ele>389.784</ele>
        <time>2010-03-10T08:53:17Z</time>
      </trkpt>
      <trkpt lat="43.46674" lon="5.96916">
        <ele>387.69</ele>
        <time>2010-03-10T08:53:35Z</time>
      </trkpt>
      <trkpt lat="43.46676" lon="5.96895">
        <ele>383.649</ele>
        <time>2010-03-10T08:53:52Z</time>
      </trkpt>
      <trkpt lat="43.46684" lon="5.96875">
        <ele>379.84</ele>
        <time>2010-03-10T08:54:12Z</time>
      </trkpt>
      <trkpt lat="43.46693" lon="5.96857">
        <ele>377.074</ele>
        <time>2010-03-10T08:54:33Z</time>
      </trkpt>
      <trkpt lat="43.46696" lon="5.96857">
        <ele>376.364</ele>
        <time>2010-03-10T08:54:36Z</time>
      </trkpt>
      <trkpt lat="43.46706" lon="5.96844">
        <ele>375.119</ele>
        <time>2010-03-10T08:54:57Z</time>
      </trkpt>
      <trkpt lat="43.46721" lon="5.9683">
        <ele>374.861</ele>
        <time>2010-03-10T08:55:22Z</time>
      </trkpt>
      <trkpt lat="43.46726" lon="5.9683">
        <ele>374.655</ele>
        <time>2010-03-10T08:55:37Z</time>
      </trkpt>
      <trkpt lat="43.46734" lon="5.96826">
        <ele>372.975</ele>
        <time>2010-03-10T08:55:44Z</time>
      </trkpt>
      <trkpt lat="43.46737" lon="5.96823">
        <ele>371.734</ele>
        <time>2010-03-10T08:55:47Z</time>
      </trkpt>
      <trkpt lat="43.46744" lon="5.96829">
        <ele>368.33</ele>
        <time>2010-03-10T08:55:56Z</time>
      </trkpt>
      <trkpt lat="43.46746" lon="5.96821">
        <ele>366.169</ele>
        <time>2010-03-10T08:56:09Z</time>
      </trkpt>
      <trkpt lat="43.46747" lon="5.96816">
        <ele>365.058</ele>
        <time>2010-03-10T08:56:23Z</time>
      </trkpt>
      <trkpt lat="43.46749" lon="5.96831">
        <ele>365.741</ele>
        <time>2010-03-10T08:56:40Z</time>
      </trkpt>
      <trkpt lat="43.46751" lon="5.9683">
        <ele>365.424</ele>
        <time>2010-03-10T08:56:42Z</time>
      </trkpt>
      <trkpt lat="43.46756" lon="5.96834">
        <ele>363.499</ele>
        <time>2010-03-10T08:56:50Z</time>
      </trkpt>
      <trkpt lat="43.46758" lon="5.96863">
        <ele>357.606</ele>
        <time>2010-03-10T08:57:13Z</time>
      </trkpt>
      <trkpt lat="43.4676" lon="5.96867">
        <ele>355.813</ele>
        <time>2010-03-10T08:57:17Z</time>
      </trkpt>
      <trkpt lat="43.46761" lon="5.96875">
        <ele>353.533</ele>
        <time>2010-03-10T08:57:25Z</time>
      </trkpt>
      <trkpt lat="43.46764" lon="5.96888">
        <ele>353.62</ele>
        <time>2010-03-10T08:57:43Z</time>
      </trkpt>
      <trkpt lat="43.46769" lon="5.96892">
        <ele>351.672</ele>
        <time>2010-03-10T08:57:53Z</time>
      </trkpt>
      <trkpt lat="43.46774" lon="5.96901">
        <ele>350.525</ele>
        <time>2010-03-10T08:58:04Z</time>
      </trkpt>
      <trkpt lat="43.46774" lon="5.96904">
        <ele>349.797</ele>
        <time>2010-03-10T08:58:06Z</time>
      </trkpt>
      <trkpt lat="43.46776" lon="5.96909">
        <ele>346.946</ele>
        <time>2010-03-10T08:58:13Z</time>
      </trkpt>
      <trkpt lat="43.46782" lon="5.96918">
        <ele>345.546</ele>
        <time>2010-03-10T08:58:22Z</time>
      </trkpt>
      <trkpt lat="43.46784" lon="5.96918">
        <ele>345.468</ele>
        <time>2010-03-10T08:58:24Z</time>
      </trkpt>
      <trkpt lat="43.46791" lon="5.9692">
        <ele>346.417</ele>
        <time>2010-03-10T08:58:31Z</time>
      </trkpt>
      <trkpt lat="43.46796" lon="5.96919">
        <ele>345.629</ele>
        <time>2010-03-10T08:58:36Z</time>
      </trkpt>
      <trkpt lat="43.468" lon="5.96921">
        <ele>343.512</ele>
        <time>2010-03-10T08:58:40Z</time>
      </trkpt>
      <trkpt lat="43.46809" lon="5.96926">
        <ele>343.38</ele>
        <time>2010-03-10T08:58:48Z</time>
      </trkpt>
      <trkpt lat="43.46816" lon="5.96929">
        <ele>341.804</ele>
        <time>2010-03-10T08:58:55Z</time>
      </trkpt>
      <trkpt lat="43.46842" lon="5.96931">
        <ele>345.591</ele>
        <time>2010-03-10T08:59:17Z</time>
      </trkpt>
      <trkpt lat="43.46849" lon="5.96929">
        <ele>345.581</ele>
        <time>2010-03-10T08:59:23Z</time>
      </trkpt>
      <trkpt lat="43.46858" lon="5.96931">
        <ele>344.992</ele>
        <time>2010-03-10T08:59:32Z</time>
      </trkpt>
      <trkpt lat="43.46873" lon="5.96938">
        <ele>342.258</ele>
        <time>2010-03-10T08:59:47Z</time>
      </trkpt>
      <trkpt lat="43.46886" lon="5.96947">
        <ele>338.51</ele>
        <time>2010-03-10T09:00:00Z</time>
      </trkpt>
      <trkpt lat="43.469" lon="5.96953">
        <ele>336.095</ele>
        <time>2010-03-10T09:00:14Z</time>
      </trkpt>
      <trkpt lat="43.46906" lon="5.96957">
        <ele>336.2</ele>
        <time>2010-03-10T09:00:28Z</time>
      </trkpt>
      <trkpt lat="43.46921" lon="5.96966">
        <ele>338.899</ele>
        <time>2010-03-10T09:00:43Z</time>
      </trkpt>
      <trkpt lat="43.4693" lon="5.96969">
        <ele>338.972</ele>
        <time>2010-03-10T09:00:51Z</time>
      </trkpt>
      <trkpt lat="43.46934" lon="5.96971">
        <ele>337.837</ele>
        <time>2010-03-10T09:00:55Z</time>
      </trkpt>
      <trkpt lat="43.46938" lon="5.96974">
        <ele>337.269</ele>
        <time>2010-03-10T09:00:58Z</time>
      </trkpt>
      <trkpt lat="43.46941" lon="5.96974">
        <ele>337.378</ele>
        <time>2010-03-10T09:01:00Z</time>
      </trkpt>
      <trkpt lat="43.46942" lon="5.96976">
        <ele>336.216</ele>
        <time>2010-03-10T09:01:02Z</time>
      </trkpt>
      <trkpt lat="43.46946" lon="5.96975">
        <ele>335.057</ele>
        <time>2010-03-10T09:01:05Z</time>
      </trkpt>
      <trkpt lat="43.46951" lon="5.96979">
        <ele>332.726</ele>
        <time>2010-03-10T09:01:10Z</time>
      </trkpt>
      <trkpt lat="43.46954" lon="5.96975">
        <ele>332.298</ele>
        <time>2010-03-10T09:01:13Z</time>
      </trkpt>
      <trkpt lat="43.46957" lon="5.96975">
        <ele>331.399</ele>
        <time>2010-03-10T09:01:15Z</time>
      </trkpt>
      <trkpt lat="43.46968" lon="5.96972">
        <ele>329.505</ele>
        <time>2010-03-10T09:01:25Z</time>
      </trkpt>
      <trkpt lat="43.46977" lon="5.96965">
        <ele>332.083</ele>
        <time>2010-03-10T09:01:37Z</time>
      </trkpt>
      <trkpt lat="43.46979" lon="5.96965">
        <ele>331.208</ele>
        <time>2010-03-10T09:01:40Z</time>
      </trkpt>
      <trkpt lat="43.46993" lon="5.96973">
        <ele>331.084</ele>
        <time>2010-03-10T09:01:55Z</time>
      </trkpt>
      <trkpt lat="43.46993" lon="5.96971">
        <ele>331.053</ele>
        <time>2010-03-10T09:02:00Z</time>
      </trkpt>
      <trkpt lat="43.46997" lon="5.96963">
        <ele>331.967</ele>
        <time>2010-03-10T09:02:07Z</time>
      </trkpt>
      <trkpt lat="43.47004" lon="5.96958">
        <ele>331.414</ele>
        <time>2010-03-10T09:02:33Z</time>
      </trkpt>
      <trkpt lat="43.47011" lon="5.9694">
        <ele>330.277</ele>
        <time>2010-03-10T09:03:02Z</time>
      </trkpt>
      <trkpt lat="43.47014" lon="5.96936">
        <ele>329.218</ele>
        <time>2010-03-10T09:03:06Z</time>
      </trkpt>
      <trkpt lat="43.47017" lon="5.96932">
        <ele>327.503</ele>
        <time>2010-03-10T09:03:10Z</time>
      </trkpt>
      <trkpt lat="43.4702" lon="5.96927">
        <ele>326.092</ele>
        <time>2010-03-10T09:03:14Z</time>
      </trkpt>
      <trkpt lat="43.47028" lon="5.96906">
        <ele>318.106</ele>
        <time>2010-03-10T09:03:30Z</time>
      </trkpt>
      <trkpt lat="43.47028" lon="5.96904">
        <ele>317.96</ele>
        <time>2010-03-10T09:03:31Z</time>
      </trkpt>
      <trkpt lat="43.47025" lon="5.96897">
        <ele>318.096</ele>
        <time>2010-03-10T09:03:33Z</time>
      </trkpt>
      <trkpt lat="43.47024" lon="5.96891">
        <ele>317.853</ele>
        <time>2010-03-10T09:03:37Z</time>
      </trkpt>
      <trkpt lat="43.47023" lon="5.96889">
        <ele>318.092</ele>
        <time>2010-03-10T09:03:39Z</time>
      </trkpt>
      <trkpt lat="43.47022" lon="5.96883">
        <ele>318.642</ele>
        <time>2010-03-10T09:03:44Z</time>
      </trkpt>
      <trkpt lat="43.47016" lon="5.96861">
        <ele>320.659</ele>
        <time>2010-03-10T09:03:58Z</time>
      </trkpt>
      <trkpt lat="43.4702" lon="5.96833">
        <ele>320.121</ele>
        <time>2010-03-10T09:04:20Z</time>
      </trkpt>
      <trkpt lat="43.47026" lon="5.96829">
        <ele>319.912</ele>
        <time>2010-03-10T09:04:34Z</time>
      </trkpt>
      <trkpt lat="43.47031" lon="5.96828">
        <ele>320.273</ele>
        <time>2010-03-10T09:04:39Z</time>
      </trkpt>
      <trkpt lat="43.47036" lon="5.96828">
        <ele>320.088</ele>
        <time>2010-03-10T09:04:44Z</time>
      </trkpt>
      <trkpt lat="43.47044" lon="5.96829">
        <ele>319.447</ele>
        <time>2010-03-10T09:04:51Z</time>
      </trkpt>
      <trkpt lat="43.47054" lon="5.96826">
        <ele>318.272</ele>
        <time>2010-03-10T09:04:58Z</time>
      </trkpt>
      <trkpt lat="43.47059" lon="5.96823">
        <ele>319.537</ele>
        <time>2010-03-10T09:05:02Z</time>
      </trkpt>
      <trkpt lat="43.47061" lon="5.96821">
        <ele>318.615</ele>
        <time>2010-03-10T09:05:05Z</time>
      </trkpt>
      <trkpt lat="43.4708" lon="5.96804">
        <ele>316.334</ele>
        <time>2010-03-10T09:05:22Z</time>
      </trkpt>
      <trkpt lat="43.47087" lon="5.96788">
        <ele>316.587</ele>
        <time>2010-03-10T09:05:34Z</time>
      </trkpt>
      <trkpt lat="43.47101" lon="5.96764">
        <ele>314.574</ele>
        <time>2010-03-10T09:05:55Z</time>
      </trkpt>
      <trkpt lat="43.47101" lon="5.96762">
        <ele>314.257</ele>
        <time>2010-03-10T09:05:56Z</time>
      </trkpt>
      <trkpt lat="43.47107" lon="5.96755">
        <ele>312.465</ele>
        <time>2010-03-10T09:06:02Z</time>
      </trkpt>
      <trkpt lat="43.47108" lon="5.96751">
        <ele>311.563</ele>
        <time>2010-03-10T09:06:04Z</time>
      </trkpt>
      <trkpt lat="43.47117" lon="5.9674">
        <ele>311.12</ele>
        <time>2010-03-10T09:06:14Z</time>
      </trkpt>
      <trkpt lat="43.47127" lon="5.96724">
        <ele>312.054</ele>
        <time>2010-03-10T09:06:26Z</time>
      </trkpt>
      <trkpt lat="43.47127" lon="5.96718">
        <ele>313.093</ele>
        <time>2010-03-10T09:06:32Z</time>
      </trkpt>
      <trkpt lat="43.47125" lon="5.96712">
        <ele>313.905</ele>
        <time>2010-03-10T09:06:37Z</time>
      </trkpt>
      <trkpt lat="43.47122" lon="5.96704">
        <ele>313.954</ele>
        <time>2010-03-10T09:06:41Z</time>
      </trkpt>
      <trkpt lat="43.47117" lon="5.96693">
        <ele>312.574</ele>
        <time>2010-03-10T09:07:07Z</time>
      </trkpt>
      <trkpt lat="43.4712" lon="5.967">
        <ele>313.103</ele>
        <time>2010-03-10T09:07:14Z</time>
      </trkpt>
      <trkpt lat="43.47123" lon="5.9671">
        <ele>312.208</ele>
        <time>2010-03-10T09:07:29Z</time>
      </trkpt>
      <trkpt lat="43.47121" lon="5.96696">
        <ele>312.365</ele>
        <time>2010-03-10T09:07:38Z</time>
      </trkpt>
      <trkpt lat="43.47109" lon="5.96671">
        <ele>306.102</ele>
        <time>2010-03-10T09:07:57Z</time>
      </trkpt>
      <trkpt lat="43.47105" lon="5.96668">
        <ele>308.118</ele>
        <time>2010-03-10T09:08:00Z</time>
      </trkpt>
      <trkpt lat="43.471" lon="5.96665">
        <ele>309.688</ele>
        <time>2010-03-10T09:08:04Z</time>
      </trkpt>
      <trkpt lat="43.47087" lon="5.9665">
        <ele>308.405</ele>
        <time>2010-03-10T09:08:18Z</time>
      </trkpt>
      <trkpt lat="43.47083" lon="5.96649">
        <ele>309.162</ele>
        <time>2010-03-10T09:08:26Z</time>
      </trkpt>
      <trkpt lat="43.47082" lon="5.96642">
        <ele>307.62</ele>
        <time>2010-03-10T09:08:30Z</time>
      </trkpt>
      <trkpt lat="43.4708" lon="5.9664">
        <ele>307.615</ele>
        <time>2010-03-10T09:08:32Z</time>
      </trkpt>
      <trkpt lat="43.47075" lon="5.96637">
        <ele>307.707</ele>
        <time>2010-03-10T09:08:37Z</time>
      </trkpt>
      <trkpt lat="43.4707" lon="5.96633">
        <ele>308.223</ele>
        <time>2010-03-10T09:08:42Z</time>
      </trkpt>
      <trkpt lat="43.47047" lon="5.96623">
        <ele>308.235</ele>
        <time>2010-03-10T09:09:01Z</time>
      </trkpt>
      <trkpt lat="43.47033" lon="5.96616">
        <ele>307.762</ele>
        <time>2010-03-10T09:09:14Z</time>
      </trkpt>
      <trkpt lat="43.4703" lon="5.96613">
        <ele>307.641</ele>
        <time>2010-03-10T09:09:16Z</time>
      </trkpt>
      <trkpt lat="43.47019" lon="5.9661">
        <ele>307.922</ele>
        <time>2010-03-10T09:09:27Z</time>
      </trkpt>
      <trkpt lat="43.46993" lon="5.96598">
        <ele>305.766</ele>
        <time>2010-03-10T09:09:50Z</time>
      </trkpt>
      <trkpt lat="43.46989" lon="5.96596">
        <ele>306.661</ele>
        <time>2010-03-10T09:09:53Z</time>
      </trkpt>
      <trkpt lat="43.46987" lon="5.96592">
        <ele>306.919</ele>
        <time>2010-03-10T09:09:56Z</time>
      </trkpt>
      <trkpt lat="43.46986" lon="5.96583">
        <ele>308.281</ele>
        <time>2010-03-10T09:10:02Z</time>
      </trkpt>
      <trkpt lat="43.46989" lon="5.9658">
        <ele>307.908</ele>
        <time>2010-03-10T09:10:05Z</time>
      </trkpt>
      <trkpt lat="43.46989" lon="5.96545">
        <ele>307.169</ele>
        <time>2010-03-10T09:10:26Z</time>
      </trkpt>
      <trkpt lat="43.46987" lon="5.96532">
        <ele>308.088</ele>
        <time>2010-03-10T09:10:34Z</time>
      </trkpt>
      <trkpt lat="43.46985" lon="5.96525">
        <ele>308.58</ele>
        <time>2010-03-10T09:10:38Z</time>
      </trkpt>
      <trkpt lat="43.46983" lon="5.96495">
        <ele>306.461</ele>
        <time>2010-03-10T09:10:57Z</time>
      </trkpt>
      <trkpt lat="43.46978" lon="5.96474">
        <ele>304.701</ele>
        <time>2010-03-10T09:11:16Z</time>
      </trkpt>
      <trkpt lat="43.46976" lon="5.96477">
        <ele>303.719</ele>
        <time>2010-03-10T09:11:27Z</time>
      </trkpt>
      <trkpt lat="43.46973" lon="5.96481">
        <ele>303.352</ele>
        <time>2010-03-10T09:11:31Z</time>
      </trkpt>
      <trkpt lat="43.46964" lon="5.96485">
        <ele>302.712</ele>
        <time>2010-03-10T09:11:39Z</time>
      </trkpt>
      <trkpt lat="43.4695" lon="5.96496">
        <ele>303.826</ele>
        <time>2010-03-10T09:11:56Z</time>
      </trkpt>
      <trkpt lat="43.46967" lon="5.96483">
        <ele>300.217</ele>
        <time>2010-03-10T09:12:13Z</time>
      </trkpt>
      <trkpt lat="43.46979" lon="5.96463">
        <ele>298.121</ele>
        <time>2010-03-10T09:12:31Z</time>
      </trkpt>
      <trkpt lat="43.46978" lon="5.96452">
        <ele>298.611</ele>
        <time>2010-03-10T09:12:37Z</time>
      </trkpt>
      <trkpt lat="43.46978" lon="5.96448">
        <ele>298.193</ele>
        <time>2010-03-10T09:12:40Z</time>
      </trkpt>
      <trkpt lat="43.46967" lon="5.96437">
        <ele>298.509</ele>
        <time>2010-03-10T09:12:51Z</time>
      </trkpt>
      <trkpt lat="43.46953" lon="5.96425">
        <ele>300.308</ele>
        <time>2010-03-10T09:13:07Z</time>
      </trkpt>
      <trkpt lat="43.46947" lon="5.96424">
        <ele>302.482</ele>
        <time>2010-03-10T09:13:14Z</time>
      </trkpt>
      <trkpt lat="43.46928" lon="5.96435">
        <ele>302.895</ele>
        <time>2010-03-10T09:13:35Z</time>
      </trkpt>
      <trkpt lat="43.46915" lon="5.96437">
        <ele>303.313</ele>
        <time>2010-03-10T09:13:43Z</time>
      </trkpt>
      <trkpt lat="43.46909" lon="5.96442">
        <ele>302.779</ele>
        <time>2010-03-10T09:13:50Z</time>
      </trkpt>
      <trkpt lat="43.46908" lon="5.96443">
        <ele>302.561</ele>
        <time>2010-03-10T09:13:52Z</time>
      </trkpt>
      <trkpt lat="43.46889" lon="5.96454">
        <ele>302.2</ele>
        <time>2010-03-10T09:14:08Z</time>
      </trkpt>
      <trkpt lat="43.46869" lon="5.96454">
        <ele>300.541</ele>
        <time>2010-03-10T09:14:25Z</time>
      </trkpt>
      <trkpt lat="43.46859" lon="5.96437">
        <ele>296.831</ele>
        <time>2010-03-10T09:14:38Z</time>
      </trkpt>
      <trkpt lat="43.46851" lon="5.96417">
        <ele>296.572</ele>
        <time>2010-03-10T09:14:52Z</time>
      </trkpt>
      <trkpt lat="43.4683" lon="5.96381">
        <ele>293.138</ele>
        <time>2010-03-10T09:15:19Z</time>
      </trkpt>
      <trkpt lat="43.46828" lon="5.96378">
        <ele>292.573</ele>
        <time>2010-03-10T09:15:36Z</time>
      </trkpt>
      <trkpt lat="43.46827" lon="5.96378">
        <ele>291.558</ele>
        <time>2010-03-10T09:16:51Z</time>
      </trkpt>
      <trkpt lat="43.46818" lon="5.96357">
        <ele>291.844</ele>
        <time>2010-03-10T09:17:10Z</time>
      </trkpt>
      <trkpt lat="43.46802" lon="5.96328">
        <ele>289.66</ele>
        <time>2010-03-10T09:17:31Z</time>
      </trkpt>
      <trkpt lat="43.46793" lon="5.96306">
        <ele>286.948</ele>
        <time>2010-03-10T09:17:52Z</time>
      </trkpt>
      <trkpt lat="43.46781" lon="5.96289">
        <ele>289.872</ele>
        <time>2010-03-10T09:18:09Z</time>
      </trkpt>
      <trkpt lat="43.4678" lon="5.96288">
        <ele>289.849</ele>
        <time>2010-03-10T09:18:10Z</time>
      </trkpt>
      <trkpt lat="43.46764" lon="5.96259">
        <ele>289.441</ele>
        <time>2010-03-10T09:18:33Z</time>
      </trkpt>
      <trkpt lat="43.46749" lon="5.96229">
        <ele>286.951</ele>
        <time>2010-03-10T09:18:56Z</time>
      </trkpt>
      <trkpt lat="43.46727" lon="5.96193">
        <ele>283.615</ele>
        <time>2010-03-10T09:19:24Z</time>
      </trkpt>
      <trkpt lat="43.46726" lon="5.96192">
        <ele>283.586</ele>
        <time>2010-03-10T09:19:25Z</time>
      </trkpt>
      <trkpt lat="43.46723" lon="5.9619">
        <ele>285.246</ele>
        <time>2010-03-10T09:19:54Z</time>
      </trkpt>
      <trkpt lat="43.4672" lon="5.96185">
        <ele>285.444</ele>
        <time>2010-03-10T09:23:19Z</time>
      </trkpt>
      <trkpt lat="43.46717" lon="5.96188">
        <ele>285.791</ele>
        <time>2010-03-10T09:23:23Z</time>
      </trkpt>
      <trkpt lat="43.46705" lon="5.96218">
        <ele>286.608</ele>
        <time>2010-03-10T09:23:44Z</time>
      </trkpt>
      <trkpt lat="43.46692" lon="5.96244">
        <ele>287.392</ele>
        <time>2010-03-10T09:24:03Z</time>
      </trkpt>
      <trkpt lat="43.46674" lon="5.9627">
        <ele>287.924</ele>
        <time>2010-03-10T09:24:24Z</time>
      </trkpt>
      <trkpt lat="43.46656" lon="5.96269">
        <ele>288.642</ele>
        <time>2010-03-10T09:24:45Z</time>
      </trkpt>
      <trkpt lat="43.46643" lon="5.96257">
        <ele>286.848</ele>
        <time>2010-03-10T09:25:01Z</time>
      </trkpt>
      <trkpt lat="43.46621" lon="5.96234">
        <ele>288.493</ele>
        <time>2010-03-10T09:25:21Z</time>
      </trkpt>
      <trkpt lat="43.46606" lon="5.9622">
        <ele>289.22</ele>
        <time>2010-03-10T09:25:34Z</time>
      </trkpt>
      <trkpt lat="43.46584" lon="5.96202">
        <ele>287.913</ele>
        <time>2010-03-10T09:25:55Z</time>
      </trkpt>
      <trkpt lat="43.4657" lon="5.96184">
        <ele>287.645</ele>
        <time>2010-03-10T09:26:13Z</time>
      </trkpt>
      <trkpt lat="43.46561" lon="5.96154">
        <ele>287.133</ele>
        <time>2010-03-10T09:26:33Z</time>
      </trkpt>
      <trkpt lat="43.46562" lon="5.96134">
        <ele>288.659</ele>
        <time>2010-03-10T09:26:44Z</time>
      </trkpt>
      <trkpt lat="43.46561" lon="5.96118">
        <ele>290.504</ele>
        <time>2010-03-10T09:26:56Z</time>
      </trkpt>
      <trkpt lat="43.46566" lon="5.96097">
        <ele>292.162</ele>
        <time>2010-03-10T09:27:05Z</time>
      </trkpt>
      <trkpt lat="43.46565" lon="5.96074">
        <ele>292.209</ele>
        <time>2010-03-10T09:27:21Z</time>
      </trkpt>
      <trkpt lat="43.46565" lon="5.96063">
        <ele>292.365</ele>
        <time>2010-03-10T09:27:28Z</time>
      </trkpt>
      <trkpt lat="43.46564" lon="5.96048">
        <ele>294.649</ele>
        <time>2010-03-10T09:27:37Z</time>
      </trkpt>
      <trkpt lat="43.4656" lon="5.96037">
        <ele>293.442</ele>
        <time>2010-03-10T09:27:49Z</time>
      </trkpt>
      <trkpt lat="43.4657" lon="5.96045">
        <ele>295.367</ele>
        <time>2010-03-10T09:27:59Z</time>
      </trkpt>
      <trkpt lat="43.46575" lon="5.96037">
        <ele>295.737</ele>
        <time>2010-03-10T09:28:04Z</time>
      </trkpt>
      <trkpt lat="43.4658" lon="5.96025">
        <ele>296.266</ele>
        <time>2010-03-10T09:28:18Z</time>
      </trkpt>
      <trkpt lat="43.46581" lon="5.9602">
        <ele>297.089</ele>
        <time>2010-03-10T09:28:21Z</time>
      </trkpt>
      <trkpt lat="43.46581" lon="5.96011">
        <ele>297.487</ele>
        <time>2010-03-10T09:28:25Z</time>
      </trkpt>
      <trkpt lat="43.46584" lon="5.9599">
        <ele>301.605</ele>
        <time>2010-03-10T09:28:37Z</time>
      </trkpt>
      <trkpt lat="43.46583" lon="5.95983">
        <ele>304.181</ele>
        <time>2010-03-10T09:28:41Z</time>
      </trkpt>
      <trkpt lat="43.46584" lon="5.95971">
        <ele>307.419</ele>
        <time>2010-03-10T09:28:47Z</time>
      </trkpt>
      <trkpt lat="43.46587" lon="5.95969">
        <ele>308.471</ele>
        <time>2010-03-10T09:28:49Z</time>
      </trkpt>
      <trkpt lat="43.46589" lon="5.9596">
        <ele>310.168</ele>
        <time>2010-03-10T09:28:55Z</time>
      </trkpt>
      <trkpt lat="43.46586" lon="5.95935">
        <ele>308.49</ele>
        <time>2010-03-10T09:29:08Z</time>
      </trkpt>
      <trkpt lat="43.46589" lon="5.95933">
        <ele>305.801</ele>
        <time>2010-03-10T09:29:10Z</time>
      </trkpt>
      <trkpt lat="43.46589" lon="5.95925">
        <ele>304.062</ele>
        <time>2010-03-10T09:29:14Z</time>
      </trkpt>
      <trkpt lat="43.46589" lon="5.95923">
        <ele>303.157</ele>
        <time>2010-03-10T09:29:17Z</time>
      </trkpt>
      <trkpt lat="43.46596" lon="5.95926">
        <ele>301.562</ele>
        <time>2010-03-10T09:29:23Z</time>
      </trkpt>
      <trkpt lat="43.46609" lon="5.95929">
        <ele>301.058</ele>
        <time>2010-03-10T09:29:31Z</time>
      </trkpt>
      <trkpt lat="43.46617" lon="5.9592">
        <ele>296.39</ele>
        <time>2010-03-10T09:29:40Z</time>
      </trkpt>
      <trkpt lat="43.46624" lon="5.9592">
        <ele>295.198</ele>
        <time>2010-03-10T09:29:44Z</time>
      </trkpt>
      <trkpt lat="43.46626" lon="5.95918">
        <ele>296.515</ele>
        <time>2010-03-10T09:29:46Z</time>
      </trkpt>
      <trkpt lat="43.46634" lon="5.95907">
        <ele>294.185</ele>
        <time>2010-03-10T09:29:56Z</time>
      </trkpt>
      <trkpt lat="43.46633" lon="5.95902">
        <ele>291.951</ele>
        <time>2010-03-10T09:30:02Z</time>
      </trkpt>
      <trkpt lat="43.46637" lon="5.95908">
        <ele>292.6</ele>
        <time>2010-03-10T09:30:06Z</time>
      </trkpt>
      <trkpt lat="43.46639" lon="5.9591">
        <ele>292.807</ele>
        <time>2010-03-10T09:30:08Z</time>
      </trkpt>
      <trkpt lat="43.46646" lon="5.95911">
        <ele>293.889</ele>
        <time>2010-03-10T09:30:23Z</time>
      </trkpt>
      <trkpt lat="43.46658" lon="5.95891">
        <ele>297.418</ele>
        <time>2010-03-10T09:30:46Z</time>
      </trkpt>
      <trkpt lat="43.46668" lon="5.95882">
        <ele>299.866</ele>
        <time>2010-03-10T09:31:04Z</time>
      </trkpt>
      <trkpt lat="43.46678" lon="5.95872">
        <ele>303.098</ele>
        <time>2010-03-10T09:31:16Z</time>
      </trkpt>
      <trkpt lat="43.46688" lon="5.95855">
        <ele>302.96</ele>
        <time>2010-03-10T09:31:32Z</time>
      </trkpt>
      <trkpt lat="43.46699" lon="5.95836">
        <ele>304.726</ele>
        <time>2010-03-10T09:31:54Z</time>
      </trkpt>
      <trkpt lat="43.46711" lon="5.95813">
        <ele>306.71</ele>
        <time>2010-03-10T09:32:11Z</time>
      </trkpt>
      <trkpt lat="43.46723" lon="5.958">
        <ele>311.398</ele>
        <time>2010-03-10T09:32:24Z</time>
      </trkpt>
      <trkpt lat="43.46724" lon="5.95799">
        <ele>311.579</ele>
        <time>2010-03-10T09:32:26Z</time>
      </trkpt>
      <trkpt lat="43.46736" lon="5.95781">
        <ele>313.546</ele>
        <time>2010-03-10T09:32:41Z</time>
      </trkpt>
      <trkpt lat="43.46739" lon="5.95775">
        <ele>314.264</ele>
        <time>2010-03-10T09:32:45Z</time>
      </trkpt>
      <trkpt lat="43.46745" lon="5.95767">
        <ele>314.221</ele>
        <time>2010-03-10T09:32:52Z</time>
      </trkpt>
      <trkpt lat="43.4675" lon="5.9576">
        <ele>314.248</ele>
        <time>2010-03-10T09:32:58Z</time>
      </trkpt>
      <trkpt lat="43.46751" lon="5.95757">
        <ele>313.896</ele>
        <time>2010-03-10T09:33:02Z</time>
      </trkpt>
      <trkpt lat="43.46755" lon="5.95751">
        <ele>313.899</ele>
        <time>2010-03-10T09:33:06Z</time>
      </trkpt>
      <trkpt lat="43.46759" lon="5.95746">
        <ele>313.895</ele>
        <time>2010-03-10T09:33:09Z</time>
      </trkpt>
      <trkpt lat="43.46761" lon="5.95741">
        <ele>313.031</ele>
        <time>2010-03-10T09:33:13Z</time>
      </trkpt>
      <trkpt lat="43.46761" lon="5.95739">
        <ele>312.55</ele>
        <time>2010-03-10T09:33:15Z</time>
      </trkpt>
      <trkpt lat="43.46763" lon="5.95733">
        <ele>311.343</ele>
        <time>2010-03-10T09:33:19Z</time>
      </trkpt>
      <trkpt lat="43.46766" lon="5.95726">
        <ele>310.905</ele>
        <time>2010-03-10T09:33:23Z</time>
      </trkpt>
      <trkpt lat="43.46784" lon="5.95705">
        <ele>308.013</ele>
        <time>2010-03-10T09:33:42Z</time>
      </trkpt>
      <trkpt lat="43.46793" lon="5.95694">
        <ele>306.276</ele>
        <time>2010-03-10T09:33:53Z</time>
      </trkpt>
      <trkpt lat="43.46794" lon="5.95691">
        <ele>307.742</ele>
        <time>2010-03-10T09:33:55Z</time>
      </trkpt>
      <trkpt lat="43.46795" lon="5.95689">
        <ele>308.999</ele>
        <time>2010-03-10T09:33:57Z</time>
      </trkpt>
      <trkpt lat="43.46828" lon="5.95696">
        <ele>310.721</ele>
        <time>2010-03-10T09:34:23Z</time>
      </trkpt>
      <trkpt lat="43.46834" lon="5.95696">
        <ele>310.438</ele>
        <time>2010-03-10T09:34:28Z</time>
      </trkpt>
      <trkpt lat="43.46841" lon="5.95695">
        <ele>311.173</ele>
        <time>2010-03-10T09:34:34Z</time>
      </trkpt>
      <trkpt lat="43.46849" lon="5.95694">
        <ele>312.968</ele>
        <time>2010-03-10T09:34:43Z</time>
      </trkpt>
      <trkpt lat="43.46867" lon="5.95693">
        <ele>314.326</ele>
        <time>2010-03-10T09:34:57Z</time>
      </trkpt>
      <trkpt lat="43.46892" lon="5.95694">
        <ele>313.608</ele>
        <time>2010-03-10T09:35:17Z</time>
      </trkpt>
      <trkpt lat="43.46895" lon="5.95696">
        <ele>312.649</ele>
        <time>2010-03-10T09:35:20Z</time>
      </trkpt>
      <trkpt lat="43.46905" lon="5.95684">
        <ele>310.275</ele>
        <time>2010-03-10T09:35:28Z</time>
      </trkpt>
      <trkpt lat="43.46924" lon="5.95648">
        <ele>315.18</ele>
        <time>2010-03-10T09:35:52Z</time>
      </trkpt>
      <trkpt lat="43.4694" lon="5.9562">
        <ele>317.8</ele>
        <time>2010-03-10T09:36:11Z</time>
      </trkpt>
      <trkpt lat="43.46947" lon="5.95612">
        <ele>317.337</ele>
        <time>2010-03-10T09:36:18Z</time>
      </trkpt>
      <trkpt lat="43.46956" lon="5.95608">
        <ele>309.316</ele>
        <time>2010-03-10T09:36:36Z</time>
      </trkpt>
      <trkpt lat="43.46958" lon="5.95607">
        <ele>309.558</ele>
        <time>2010-03-10T09:36:40Z</time>
      </trkpt>
      <trkpt lat="43.46965" lon="5.9561">
        <ele>309.67</ele>
        <time>2010-03-10T09:36:45Z</time>
      </trkpt>
      <trkpt lat="43.46967" lon="5.95617">
        <ele>309.251</ele>
        <time>2010-03-10T09:36:49Z</time>
      </trkpt>
      <trkpt lat="43.4697" lon="5.95628">
        <ele>308.511</ele>
        <time>2010-03-10T09:36:56Z</time>
      </trkpt>
      <trkpt lat="43.46964" lon="5.95651">
        <ele>306.307</ele>
        <time>2010-03-10T09:37:11Z</time>
      </trkpt>
      <trkpt lat="43.46962" lon="5.95652">
        <ele>306.776</ele>
        <time>2010-03-10T09:37:13Z</time>
      </trkpt>
      <trkpt lat="43.46955" lon="5.9568">
        <ele>304.121</ele>
        <time>2010-03-10T09:37:30Z</time>
      </trkpt>
      <trkpt lat="43.46955" lon="5.95682">
        <ele>304.253</ele>
        <time>2010-03-10T09:37:31Z</time>
      </trkpt>
      <trkpt lat="43.46947" lon="5.95722">
        <ele>304.876</ele>
        <time>2010-03-10T09:37:54Z</time>
      </trkpt>
      <trkpt lat="43.46952" lon="5.95731">
        <ele>307.715</ele>
        <time>2010-03-10T09:38:00Z</time>
      </trkpt>
      <trkpt lat="43.46959" lon="5.95731">
        <ele>305.355</ele>
        <time>2010-03-10T09:38:05Z</time>
      </trkpt>
      <trkpt lat="43.46965" lon="5.95726">
        <ele>300.474</ele>
        <time>2010-03-10T09:38:11Z</time>
      </trkpt>
      <trkpt lat="43.46983" lon="5.95708">
        <ele>296.803</ele>
        <time>2010-03-10T09:38:31Z</time>
      </trkpt>
      <trkpt lat="43.46996" lon="5.95696">
        <ele>293.932</ele>
        <time>2010-03-10T09:38:45Z</time>
      </trkpt>
      <trkpt lat="43.47" lon="5.95658">
        <ele>294.674</ele>
        <time>2010-03-10T09:39:07Z</time>
      </trkpt>
      <trkpt lat="43.47009" lon="5.95619">
        <ele>301.257</ele>
        <time>2010-03-10T09:39:30Z</time>
      </trkpt>
      <trkpt lat="43.4701" lon="5.95614">
        <ele>303.014</ele>
        <time>2010-03-10T09:39:35Z</time>
      </trkpt>
      <trkpt lat="43.47011" lon="5.95612">
        <ele>304.589</ele>
        <time>2010-03-10T09:39:42Z</time>
      </trkpt>
      <trkpt lat="43.47014" lon="5.95614">
        <ele>305.149</ele>
        <time>2010-03-10T09:39:44Z</time>
      </trkpt>
      <trkpt lat="43.47018" lon="5.95624">
        <ele>306.744</ele>
        <time>2010-03-10T09:39:50Z</time>
      </trkpt>
      <trkpt lat="43.47023" lon="5.95623">
        <ele>300.434</ele>
        <time>2010-03-10T09:39:57Z</time>
      </trkpt>
      <trkpt lat="43.47029" lon="5.95625">
        <ele>301.016</ele>
        <time>2010-03-10T09:40:01Z</time>
      </trkpt>
      <trkpt lat="43.47047" lon="5.95654">
        <ele>306.33</ele>
        <time>2010-03-10T09:40:22Z</time>
      </trkpt>
      <trkpt lat="43.47048" lon="5.95682">
        <ele>315.836</ele>
        <time>2010-03-10T09:40:38Z</time>
      </trkpt>
      <trkpt lat="43.47055" lon="5.9569">
        <ele>314.759</ele>
        <time>2010-03-10T09:40:48Z</time>
      </trkpt>
      <trkpt lat="43.47057" lon="5.95695">
        <ele>315.453</ele>
        <time>2010-03-10T09:40:54Z</time>
      </trkpt>
      <trkpt lat="43.47058" lon="5.95698">
        <ele>315.866</ele>
        <time>2010-03-10T09:40:56Z</time>
      </trkpt>
      <trkpt lat="43.47063" lon="5.95716">
        <ele>312.739</ele>
        <time>2010-03-10T09:41:07Z</time>
      </trkpt>
      <trkpt lat="43.47069" lon="5.95716">
        <ele>310.054</ele>
        <time>2010-03-10T09:41:13Z</time>
      </trkpt>
      <trkpt lat="43.47071" lon="5.95718">
        <ele>309.972</ele>
        <time>2010-03-10T09:41:15Z</time>
      </trkpt>
      <trkpt lat="43.4709" lon="5.95699">
        <ele>301.743</ele>
        <time>2010-03-10T09:41:34Z</time>
      </trkpt>
      <trkpt lat="43.47097" lon="5.95696">
        <ele>300.922</ele>
        <time>2010-03-10T09:41:43Z</time>
      </trkpt>
      <trkpt lat="43.47099" lon="5.95693">
        <ele>300.624</ele>
        <time>2010-03-10T09:41:46Z</time>
      </trkpt>
      <trkpt lat="43.47098" lon="5.9568">
        <ele>297.416</ele>
        <time>2010-03-10T09:41:53Z</time>
      </trkpt>
      <trkpt lat="43.47101" lon="5.95668">
        <ele>298.821</ele>
        <time>2010-03-10T09:42:02Z</time>
      </trkpt>
      <trkpt lat="43.47102" lon="5.95658">
        <ele>297.979</ele>
        <time>2010-03-10T09:42:07Z</time>
      </trkpt>
      <trkpt lat="43.47103" lon="5.95641">
        <ele>298.904</ele>
        <time>2010-03-10T09:42:16Z</time>
      </trkpt>
      <trkpt lat="43.47108" lon="5.95639">
        <ele>299.296</ele>
        <time>2010-03-10T09:42:19Z</time>
      </trkpt>
      <trkpt lat="43.47113" lon="5.9564">
        <ele>299.438</ele>
        <time>2010-03-10T09:42:22Z</time>
      </trkpt>
      <trkpt lat="43.47113" lon="5.95636">
        <ele>301.421</ele>
        <time>2010-03-10T09:42:26Z</time>
      </trkpt>
      <trkpt lat="43.47128" lon="5.95615">
        <ele>305.164</ele>
        <time>2010-03-10T09:42:49Z</time>
      </trkpt>
      <trkpt lat="43.4714" lon="5.95577">
        <ele>307.088</ele>
        <time>2010-03-10T09:43:14Z</time>
      </trkpt>
      <trkpt lat="43.47144" lon="5.95568">
        <ele>307.452</ele>
        <time>2010-03-10T09:43:18Z</time>
      </trkpt>
      <trkpt lat="43.47163" lon="5.95529">
        <ele>306.707</ele>
        <time>2010-03-10T09:43:45Z</time>
      </trkpt>
      <trkpt lat="43.47183" lon="5.95485">
        <ele>308.506</ele>
        <time>2010-03-10T09:44:14Z</time>
      </trkpt>
      <trkpt lat="43.47173" lon="5.95471">
        <ele>310.962</ele>
        <time>2010-03-10T09:44:31Z</time>
      </trkpt>
      <trkpt lat="43.47178" lon="5.95441">
        <ele>311.656</ele>
        <time>2010-03-10T09:44:43Z</time>
      </trkpt>
      <trkpt lat="43.47186" lon="5.95403">
        <ele>313.629</ele>
        <time>2010-03-10T09:45:00Z</time>
      </trkpt>
      <trkpt lat="43.47207" lon="5.95383">
        <ele>311.522</ele>
        <time>2010-03-10T09:45:16Z</time>
      </trkpt>
      <trkpt lat="43.47213" lon="5.95358">
        <ele>301.613</ele>
        <time>2010-03-10T09:45:43Z</time>
      </trkpt>
      <trkpt lat="43.47213" lon="5.95349">
        <ele>300.185</ele>
        <time>2010-03-10T09:46:03Z</time>
      </trkpt>
      <trkpt lat="43.4722" lon="5.95335">
        <ele>302.491</ele>
        <time>2010-03-10T09:46:19Z</time>
      </trkpt>
      <trkpt lat="43.47246" lon="5.95295">
        <ele>304.533</ele>
        <time>2010-03-10T09:46:42Z</time>
      </trkpt>
      <trkpt lat="43.47252" lon="5.95296">
        <ele>303.37</ele>
        <time>2010-03-10T09:46:50Z</time>
      </trkpt>
      <trkpt lat="43.47244" lon="5.95287">
        <ele>296.711</ele>
        <time>2010-03-10T09:47:03Z</time>
      </trkpt>
      <trkpt lat="43.4725" lon="5.95266">
        <ele>285.554</ele>
        <time>2010-03-10T09:47:20Z</time>
      </trkpt>
      <trkpt lat="43.47257" lon="5.95265">
        <ele>285.432</ele>
        <time>2010-03-10T09:47:27Z</time>
      </trkpt>
      <trkpt lat="43.47263" lon="5.95256">
        <ele>284.953</ele>
        <time>2010-03-10T09:47:32Z</time>
      </trkpt>
      <trkpt lat="43.47266" lon="5.95256">
        <ele>284.976</ele>
        <time>2010-03-10T09:47:34Z</time>
      </trkpt>
      <trkpt lat="43.47274" lon="5.95239">
        <ele>280.417</ele>
        <time>2010-03-10T09:47:43Z</time>
      </trkpt>
      <trkpt lat="43.47279" lon="5.95244">
        <ele>279.741</ele>
        <time>2010-03-10T09:47:45Z</time>
      </trkpt>
      <trkpt lat="43.47289" lon="5.95244">
        <ele>271.606</ele>
        <time>2010-03-10T09:48:00Z</time>
      </trkpt>
      <trkpt lat="43.47292" lon="5.95245">
        <ele>268.827</ele>
        <time>2010-03-10T09:48:10Z</time>
      </trkpt>
      <trkpt lat="43.47306" lon="5.95248">
        <ele>266.777</ele>
        <time>2010-03-10T09:48:21Z</time>
      </trkpt>
      <trkpt lat="43.47329" lon="5.95244">
        <ele>258.744</ele>
        <time>2010-03-10T09:48:41Z</time>
      </trkpt>
      <trkpt lat="43.47334" lon="5.9524">
        <ele>258.263</ele>
        <time>2010-03-10T09:48:45Z</time>
      </trkpt>
      <trkpt lat="43.47348" lon="5.95214">
        <ele>252.114</ele>
        <time>2010-03-10T09:49:06Z</time>
      </trkpt>
      <trkpt lat="43.47352" lon="5.9521">
        <ele>251.771</ele>
        <time>2010-03-10T09:49:09Z</time>
      </trkpt>
      <trkpt lat="43.47358" lon="5.95198">
        <ele>252.669</ele>
        <time>2010-03-10T09:49:17Z</time>
      </trkpt>
      <trkpt lat="43.47378" lon="5.95176">
        <ele>252.812</ele>
        <time>2010-03-10T09:49:40Z</time>
      </trkpt>
      <trkpt lat="43.47385" lon="5.95168">
        <ele>252.286</ele>
        <time>2010-03-10T09:49:47Z</time>
      </trkpt>
      <trkpt lat="43.47401" lon="5.95166">
        <ele>249.967</ele>
        <time>2010-03-10T09:50:03Z</time>
      </trkpt>
      <trkpt lat="43.47416" lon="5.95154">
        <ele>246.669</ele>
        <time>2010-03-10T09:50:16Z</time>
      </trkpt>
      <trkpt lat="43.47431" lon="5.95138">
        <ele>241.337</ele>
        <time>2010-03-10T09:50:34Z</time>
      </trkpt>
      <trkpt lat="43.47442" lon="5.95121">
        <ele>238.133</ele>
        <time>2010-03-10T09:50:50Z</time>
      </trkpt>
      <trkpt lat="43.47462" lon="5.951">
        <ele>237.329</ele>
        <time>2010-03-10T09:51:08Z</time>
      </trkpt>
      <trkpt lat="43.47469" lon="5.95101">
        <ele>238.059</ele>
        <time>2010-03-10T09:51:14Z</time>
      </trkpt>
      <trkpt lat="43.47476" lon="5.95086">
        <ele>237.844</ele>
        <time>2010-03-10T09:51:22Z</time>
      </trkpt>
      <trkpt lat="43.47495" lon="5.95076">
        <ele>241.916</ele>
        <time>2010-03-10T09:51:39Z</time>
      </trkpt>
      <trkpt lat="43.47519" lon="5.95066">
        <ele>243.963</ele>
        <time>2010-03-10T09:52:01Z</time>
      </trkpt>
      <trkpt lat="43.47526" lon="5.95066">
        <ele>245.405</ele>
        <time>2010-03-10T09:52:16Z</time>
      </trkpt>
      <trkpt lat="43.47531" lon="5.95063">
        <ele>245.404</ele>
        <time>2010-03-10T09:52:20Z</time>
      </trkpt>
      <trkpt lat="43.47533" lon="5.95062">
        <ele>245.502</ele>
        <time>2010-03-10T09:52:22Z</time>
      </trkpt>
      <trkpt lat="43.47542" lon="5.9506">
        <ele>245.473</ele>
        <time>2010-03-10T09:52:30Z</time>
      </trkpt>
      <trkpt lat="43.47554" lon="5.95042">
        <ele>246.014</ele>
        <time>2010-03-10T09:52:43Z</time>
      </trkpt>
      <trkpt lat="43.47565" lon="5.94999">
        <ele>253.408</ele>
        <time>2010-03-10T09:53:06Z</time>
      </trkpt>
      <trkpt lat="43.4758" lon="5.9497">
        <ele>258.992</ele>
        <time>2010-03-10T09:53:22Z</time>
      </trkpt>
      <trkpt lat="43.47593" lon="5.94964">
        <ele>259.763</ele>
        <time>2010-03-10T09:53:38Z</time>
      </trkpt>
      <trkpt lat="43.47594" lon="5.94967">
        <ele>258.969</ele>
        <time>2010-03-10T09:53:42Z</time>
      </trkpt>
      <trkpt lat="43.47618" lon="5.94973">
        <ele>254.079</ele>
        <time>2010-03-10T09:54:03Z</time>
      </trkpt>
      <trkpt lat="43.47635" lon="5.94991">
        <ele>252.864</ele>
        <time>2010-03-10T09:54:23Z</time>
      </trkpt>
      <trkpt lat="43.47646" lon="5.94988">
        <ele>253.659</ele>
        <time>2010-03-10T09:54:31Z</time>
      </trkpt>
      <trkpt lat="43.4766" lon="5.94985">
        <ele>250.524</ele>
        <time>2010-03-10T09:54:48Z</time>
      </trkpt>
      <trkpt lat="43.4766" lon="5.94985">
        <ele>250.494</ele>
        <time>2010-03-10T09:54:53Z</time>
      </trkpt>
      <trkpt lat="43.47668" lon="5.9499">
        <ele>247.479</ele>
        <time>2010-03-10T09:55:15Z</time>
      </trkpt>
      <trkpt lat="43.47687" lon="5.95009">
        <ele>247.511</ele>
        <time>2010-03-10T09:55:32Z</time>
      </trkpt>
      <trkpt lat="43.47706" lon="5.95014">
        <ele>247.993</ele>
        <time>2010-03-10T09:55:51Z</time>
      </trkpt>
      <trkpt lat="43.47707" lon="5.95014">
        <ele>248.252</ele>
        <time>2010-03-10T09:55:52Z</time>
      </trkpt>
      <trkpt lat="43.47709" lon="5.95015">
        <ele>248.517</ele>
        <time>2010-03-10T09:55:54Z</time>
      </trkpt>
      <trkpt lat="43.4772" lon="5.95022">
        <ele>248.848</ele>
        <time>2010-03-10T09:56:02Z</time>
      </trkpt>
      <trkpt lat="43.47732" lon="5.9503">
        <ele>251.233</ele>
        <time>2010-03-10T09:56:13Z</time>
      </trkpt>
      <trkpt lat="43.47759" lon="5.95038">
        <ele>257.379</ele>
        <time>2010-03-10T09:56:35Z</time>
      </trkpt>
      <trkpt lat="43.47766" lon="5.9504">
        <ele>258.246</ele>
        <time>2010-03-10T09:56:40Z</time>
      </trkpt>
      <trkpt lat="43.47775" lon="5.95041">
        <ele>257.852</ele>
        <time>2010-03-10T09:56:48Z</time>
      </trkpt>
      <trkpt lat="43.47776" lon="5.95042">
        <ele>257.815</ele>
        <time>2010-03-10T09:56:50Z</time>
      </trkpt>
      <trkpt lat="43.47789" lon="5.95046">
        <ele>258.655</ele>
        <time>2010-03-10T09:57:00Z</time>
      </trkpt>
      <trkpt lat="43.47792" lon="5.95047">
        <ele>259.231</ele>
        <time>2010-03-10T09:57:03Z</time>
      </trkpt>
      <trkpt lat="43.47816" lon="5.9505">
        <ele>260.332</ele>
        <time>2010-03-10T09:57:23Z</time>
      </trkpt>
      <trkpt lat="43.47825" lon="5.95049">
        <ele>259.271</ele>
        <time>2010-03-10T09:57:30Z</time>
      </trkpt>
      <trkpt lat="43.47827" lon="5.95049">
        <ele>258.401</ele>
        <time>2010-03-10T09:57:32Z</time>
      </trkpt>
      <trkpt lat="43.47832" lon="5.95052">
        <ele>256.686</ele>
        <time>2010-03-10T09:57:36Z</time>
      </trkpt>
      <trkpt lat="43.47834" lon="5.95054">
        <ele>257.492</ele>
        <time>2010-03-10T09:57:39Z</time>
      </trkpt>
      <trkpt lat="43.47859" lon="5.95061">
        <ele>253.188</ele>
        <time>2010-03-10T09:58:00Z</time>
      </trkpt>
      <trkpt lat="43.4787" lon="5.95063">
        <ele>253.531</ele>
        <time>2010-03-10T09:58:09Z</time>
      </trkpt>
      <trkpt lat="43.47883" lon="5.95067">
        <ele>251.617</ele>
        <time>2010-03-10T09:58:20Z</time>
      </trkpt>
      <trkpt lat="43.47901" lon="5.95081">
        <ele>248.319</ele>
        <time>2010-03-10T09:58:38Z</time>
      </trkpt>
      <trkpt lat="43.47907" lon="5.95079">
        <ele>248.161</ele>
        <time>2010-03-10T09:58:43Z</time>
      </trkpt>
      <trkpt lat="43.47914" lon="5.95081">
        <ele>250.666</ele>
        <time>2010-03-10T09:58:49Z</time>
      </trkpt>
      <trkpt lat="43.47919" lon="5.9508">
        <ele>252.22</ele>
        <time>2010-03-10T09:58:53Z</time>
      </trkpt>
      <trkpt lat="43.47923" lon="5.95079">
        <ele>252.502</ele>
        <time>2010-03-10T09:58:56Z</time>
      </trkpt>
      <trkpt lat="43.47928" lon="5.9508">
        <ele>252.657</ele>
        <time>2010-03-10T09:59:00Z</time>
      </trkpt>
      <trkpt lat="43.47931" lon="5.95085">
        <ele>252.664</ele>
        <time>2010-03-10T09:59:04Z</time>
      </trkpt>
      <trkpt lat="43.47947" lon="5.9509">
        <ele>246.173</ele>
        <time>2010-03-10T09:59:17Z</time>
      </trkpt>
      <trkpt lat="43.47949" lon="5.95089">
        <ele>245.779</ele>
        <time>2010-03-10T09:59:20Z</time>
      </trkpt>
      <trkpt lat="43.47954" lon="5.95089">
        <ele>244.583</ele>
        <time>2010-03-10T09:59:23Z</time>
      </trkpt>
      <trkpt lat="43.47961" lon="5.95092">
        <ele>243.809</ele>
        <time>2010-03-10T09:59:30Z</time>
      </trkpt>
      <trkpt lat="43.47965" lon="5.95093">
        <ele>243.885</ele>
        <time>2010-03-10T09:59:33Z</time>
      </trkpt>
      <trkpt lat="43.47995" lon="5.95116">
        <ele>240.324</ele>
        <time>2010-03-10T09:59:58Z</time>
      </trkpt>
      <trkpt lat="43.4801" lon="5.95125">
        <ele>236.703</ele>
        <time>2010-03-10T10:00:11Z</time>
      </trkpt>
      <trkpt lat="43.48021" lon="5.9513">
        <ele>237.009</ele>
        <time>2010-03-10T10:00:21Z</time>
      </trkpt>
      <trkpt lat="43.48027" lon="5.9513">
        <ele>239.599</ele>
        <time>2010-03-10T10:00:35Z</time>
      </trkpt>
      <trkpt lat="43.48031" lon="5.95125">
        <ele>241.113</ele>
        <time>2010-03-10T10:00:38Z</time>
      </trkpt>
      <trkpt lat="43.48034" lon="5.95124">
        <ele>241.907</ele>
        <time>2010-03-10T10:00:41Z</time>
      </trkpt>
      <trkpt lat="43.48036" lon="5.95123">
        <ele>241.981</ele>
        <time>2010-03-10T10:00:43Z</time>
      </trkpt>
      <trkpt lat="43.4805" lon="5.95123">
        <ele>242.746</ele>
        <time>2010-03-10T10:00:54Z</time>
      </trkpt>
      <trkpt lat="43.48055" lon="5.95125">
        <ele>244.278</ele>
        <time>2010-03-10T10:00:59Z</time>
      </trkpt>
      <trkpt lat="43.48059" lon="5.95125">
        <ele>245.04</ele>
        <time>2010-03-10T10:01:02Z</time>
      </trkpt>
      <trkpt lat="43.48063" lon="5.95124">
        <ele>244.665</ele>
        <time>2010-03-10T10:01:05Z</time>
      </trkpt>
      <trkpt lat="43.48088" lon="5.95109">
        <ele>251.972</ele>
        <time>2010-03-10T10:01:24Z</time>
      </trkpt>
      <trkpt lat="43.48116" lon="5.95101">
        <ele>254.205</ele>
        <time>2010-03-10T10:01:47Z</time>
      </trkpt>
      <trkpt lat="43.48136" lon="5.95083">
        <ele>253.365</ele>
        <time>2010-03-10T10:02:07Z</time>
      </trkpt>
      <trkpt lat="43.48149" lon="5.95082">
        <ele>249.989</ele>
        <time>2010-03-10T10:02:27Z</time>
      </trkpt>
      <trkpt lat="43.48151" lon="5.95078">
        <ele>248.628</ele>
        <time>2010-03-10T10:03:37Z</time>
      </trkpt>
      <trkpt lat="43.48148" lon="5.95083">
        <ele>250.057</ele>
        <time>2010-03-10T10:04:34Z</time>
      </trkpt>
      <trkpt lat="43.48162" lon="5.9509">
        <ele>250.888</ele>
        <time>2010-03-10T10:04:56Z</time>
      </trkpt>
      <trkpt lat="43.48181" lon="5.95094">
        <ele>247.975</ele>
        <time>2010-03-10T10:05:11Z</time>
      </trkpt>
      <trkpt lat="43.48201" lon="5.95091">
        <ele>254.683</ele>
        <time>2010-03-10T10:05:34Z</time>
      </trkpt>
      <trkpt lat="43.48222" lon="5.95084">
        <ele>247.594</ele>
        <time>2010-03-10T10:05:53Z</time>
      </trkpt>
      <trkpt lat="43.48245" lon="5.95075">
        <ele>241.295</ele>
        <time>2010-03-10T10:06:14Z</time>
      </trkpt>
      <trkpt lat="43.4825" lon="5.95074">
        <ele>239.511</ele>
        <time>2010-03-10T10:06:19Z</time>
      </trkpt>
      <trkpt lat="43.48274" lon="5.95056">
        <ele>243.265</ele>
        <time>2010-03-10T10:06:39Z</time>
      </trkpt>
      <trkpt lat="43.48296" lon="5.95056">
        <ele>244.337</ele>
        <time>2010-03-10T10:07:00Z</time>
      </trkpt>
      <trkpt lat="43.48308" lon="5.95061">
        <ele>243.844</ele>
        <time>2010-03-10T10:07:17Z</time>
      </trkpt>
      <trkpt lat="43.48322" lon="5.95073">
        <ele>242.837</ele>
        <time>2010-03-10T10:07:30Z</time>
      </trkpt>
      <trkpt lat="43.48327" lon="5.95077">
        <ele>244.391</ele>
        <time>2010-03-10T10:07:35Z</time>
      </trkpt>
      <trkpt lat="43.48341" lon="5.95075">
        <ele>246.171</ele>
        <time>2010-03-10T10:07:47Z</time>
      </trkpt>
      <trkpt lat="43.48366" lon="5.95066">
        <ele>239.993</ele>
        <time>2010-03-10T10:08:09Z</time>
      </trkpt>
      <trkpt lat="43.48368" lon="5.95064">
        <ele>239.578</ele>
        <time>2010-03-10T10:08:11Z</time>
      </trkpt>
      <trkpt lat="43.48371" lon="5.9506">
        <ele>238.584</ele>
        <time>2010-03-10T10:08:14Z</time>
      </trkpt>
      <trkpt lat="43.48381" lon="5.95053">
        <ele>236.022</ele>
        <time>2010-03-10T10:08:23Z</time>
      </trkpt>
      <trkpt lat="43.48383" lon="5.95052">
        <ele>235.811</ele>
        <time>2010-03-10T10:08:25Z</time>
      </trkpt>
      <trkpt lat="43.48386" lon="5.95053">
        <ele>235.12</ele>
        <time>2010-03-10T10:08:28Z</time>
      </trkpt>
      <trkpt lat="43.4839" lon="5.95054">
        <ele>234.122</ele>
        <time>2010-03-10T10:08:32Z</time>
      </trkpt>
      <trkpt lat="43.48396" lon="5.95052">
        <ele>232.534</ele>
        <time>2010-03-10T10:08:37Z</time>
      </trkpt>
      <trkpt lat="43.48418" lon="5.95064">
        <ele>230.286</ele>
        <time>2010-03-10T10:08:57Z</time>
      </trkpt>
      <trkpt lat="43.48421" lon="5.95065">
        <ele>230.791</ele>
        <time>2010-03-10T10:09:02Z</time>
      </trkpt>
      <trkpt lat="43.48426" lon="5.9506">
        <ele>230.942</ele>
        <time>2010-03-10T10:09:04Z</time>
      </trkpt>
      <trkpt lat="43.4843" lon="5.95059">
        <ele>231.003</ele>
        <time>2010-03-10T10:09:09Z</time>
      </trkpt>
      <trkpt lat="43.48437" lon="5.95065">
        <ele>232.56</ele>
        <time>2010-03-10T10:09:16Z</time>
      </trkpt>
      <trkpt lat="43.48439" lon="5.95068">
        <ele>234.253</ele>
        <time>2010-03-10T10:09:20Z</time>
      </trkpt>
      <trkpt lat="43.48449" lon="5.95072">
        <ele>235.696</ele>
        <time>2010-03-10T10:09:26Z</time>
      </trkpt>
      <trkpt lat="43.48454" lon="5.95074">
        <ele>236.95</ele>
        <time>2010-03-10T10:09:31Z</time>
      </trkpt>
      <trkpt lat="43.48459" lon="5.95073">
        <ele>237.203</ele>
        <time>2010-03-10T10:09:36Z</time>
      </trkpt>
      <trkpt lat="43.48462" lon="5.95075">
        <ele>238.774</ele>
        <time>2010-03-10T10:09:39Z</time>
      </trkpt>
      <trkpt lat="43.4847" lon="5.95076">
        <ele>240.523</ele>
        <time>2010-03-10T10:09:45Z</time>
      </trkpt>
      <trkpt lat="43.48482" lon="5.9508">
        <ele>245.426</ele>
        <time>2010-03-10T10:10:03Z</time>
      </trkpt>
      <trkpt lat="43.48503" lon="5.95076">
        <ele>246.708</ele>
        <time>2010-03-10T10:10:27Z</time>
      </trkpt>
      <trkpt lat="43.48525" lon="5.95075">
        <ele>248.613</ele>
        <time>2010-03-10T10:10:45Z</time>
      </trkpt>
      <trkpt lat="43.48549" lon="5.95076">
        <ele>248.69</ele>
        <time>2010-03-10T10:11:04Z</time>
      </trkpt>
      <trkpt lat="43.48551" lon="5.95076">
        <ele>249.34</ele>
        <time>2010-03-10T10:11:06Z</time>
      </trkpt>
      <trkpt lat="43.48567" lon="5.95073">
        <ele>249.149</ele>
        <time>2010-03-10T10:11:17Z</time>
      </trkpt>
      <trkpt lat="43.4857" lon="5.95073">
        <ele>248.671</ele>
        <time>2010-03-10T10:11:19Z</time>
      </trkpt>
      <trkpt lat="43.48573" lon="5.95072">
        <ele>248.941</ele>
        <time>2010-03-10T10:11:21Z</time>
      </trkpt>
      <trkpt lat="43.48583" lon="5.95069">
        <ele>248.287</ele>
        <time>2010-03-10T10:11:30Z</time>
      </trkpt>
      <trkpt lat="43.48586" lon="5.95067">
        <ele>248.303</ele>
        <time>2010-03-10T10:11:32Z</time>
      </trkpt>
      <trkpt lat="43.48603" lon="5.95067">
        <ele>247.823</ele>
        <time>2010-03-10T10:11:47Z</time>
      </trkpt>
      <trkpt lat="43.48621" lon="5.95067">
        <ele>248.82</ele>
        <time>2010-03-10T10:12:00Z</time>
      </trkpt>
      <trkpt lat="43.4864" lon="5.95071">
        <ele>248.243</ele>
        <time>2010-03-10T10:12:16Z</time>
      </trkpt>
      <trkpt lat="43.48669" lon="5.95072">
        <ele>251.848</ele>
        <time>2010-03-10T10:12:39Z</time>
      </trkpt>
      <trkpt lat="43.487" lon="5.9506">
        <ele>250.385</ele>
        <time>2010-03-10T10:13:03Z</time>
      </trkpt>
      <trkpt lat="43.48714" lon="5.95055">
        <ele>249.088</ele>
        <time>2010-03-10T10:13:14Z</time>
      </trkpt>
      <trkpt lat="43.4874" lon="5.95045">
        <ele>241.328</ele>
        <time>2010-03-10T10:13:35Z</time>
      </trkpt>
      <trkpt lat="43.48766" lon="5.95041">
        <ele>242.384</ele>
        <time>2010-03-10T10:13:56Z</time>
      </trkpt>
      <trkpt lat="43.48771" lon="5.9504">
        <ele>244.404</ele>
        <time>2010-03-10T10:14:00Z</time>
      </trkpt>
      <trkpt lat="43.48776" lon="5.95039">
        <ele>244.423</ele>
        <time>2010-03-10T10:14:04Z</time>
      </trkpt>
      <trkpt lat="43.48792" lon="5.95035">
        <ele>245.251</ele>
        <time>2010-03-10T10:14:17Z</time>
      </trkpt>
      <trkpt lat="43.48808" lon="5.95034">
        <ele>245.178</ele>
        <time>2010-03-10T10:14:31Z</time>
      </trkpt>
      <trkpt lat="43.48836" lon="5.95026">
        <ele>241.622</ele>
        <time>2010-03-10T10:14:54Z</time>
      </trkpt>
      <trkpt lat="43.48859" lon="5.95023">
        <ele>241.703</ele>
        <time>2010-03-10T10:15:13Z</time>
      </trkpt>
      <trkpt lat="43.48863" lon="5.95023">
        <ele>241.889</ele>
        <time>2010-03-10T10:15:17Z</time>
      </trkpt>
      <trkpt lat="43.48874" lon="5.95018">
        <ele>242.586</ele>
        <time>2010-03-10T10:15:27Z</time>
      </trkpt>
      <trkpt lat="43.48888" lon="5.95017">
        <ele>243.879</ele>
        <time>2010-03-10T10:15:39Z</time>
      </trkpt>
      <trkpt lat="43.4891" lon="5.95014">
        <ele>242.674</ele>
        <time>2010-03-10T10:15:58Z</time>
      </trkpt>
      <trkpt lat="43.48914" lon="5.95013">
        <ele>240.901</ele>
        <time>2010-03-10T10:16:02Z</time>
      </trkpt>
      <trkpt lat="43.48933" lon="5.95013">
        <ele>247.751</ele>
        <time>2010-03-10T10:16:22Z</time>
      </trkpt>
      <trkpt lat="43.48937" lon="5.95011">
        <ele>248.031</ele>
        <time>2010-03-10T10:16:26Z</time>
      </trkpt>
      <trkpt lat="43.48961" lon="5.95006">
        <ele>245.531</ele>
        <time>2010-03-10T10:16:47Z</time>
      </trkpt>
      <trkpt lat="43.48964" lon="5.95005">
        <ele>244.53</ele>
        <time>2010-03-10T10:16:50Z</time>
      </trkpt>
      <trkpt lat="43.48972" lon="5.95003">
        <ele>244.098</ele>
        <time>2010-03-10T10:16:57Z</time>
      </trkpt>
      <trkpt lat="43.48975" lon="5.94999">
        <ele>243.985</ele>
        <time>2010-03-10T10:17:01Z</time>
      </trkpt>
      <trkpt lat="43.48977" lon="5.95">
        <ele>243.771</ele>
        <time>2010-03-10T10:17:03Z</time>
      </trkpt>
      <trkpt lat="43.48985" lon="5.94997">
        <ele>242.907</ele>
        <time>2010-03-10T10:17:10Z</time>
      </trkpt>
      <trkpt lat="43.48988" lon="5.94996">
        <ele>242.414</ele>
        <time>2010-03-10T10:17:13Z</time>
      </trkpt>
      <trkpt lat="43.4899" lon="5.94996">
        <ele>241.995</ele>
        <time>2010-03-10T10:17:15Z</time>
      </trkpt>
      <trkpt lat="43.49011" lon="5.94992">
        <ele>237.831</ele>
        <time>2010-03-10T10:17:34Z</time>
      </trkpt>
      <trkpt lat="43.49014" lon="5.94991">
        <ele>237.402</ele>
        <time>2010-03-10T10:17:37Z</time>
      </trkpt>
      <trkpt lat="43.49024" lon="5.94988">
        <ele>236.99</ele>
        <time>2010-03-10T10:17:45Z</time>
      </trkpt>
      <trkpt lat="43.49038" lon="5.9498">
        <ele>241.326</ele>
        <time>2010-03-10T10:18:04Z</time>
      </trkpt>
      <trkpt lat="43.49047" lon="5.94976">
        <ele>242.21</ele>
        <time>2010-03-10T10:18:13Z</time>
      </trkpt>
      <trkpt lat="43.49065" lon="5.94961">
        <ele>248.152</ele>
        <time>2010-03-10T10:18:31Z</time>
      </trkpt>
      <trkpt lat="43.4907" lon="5.94956">
        <ele>250.263</ele>
        <time>2010-03-10T10:18:41Z</time>
      </trkpt>
      <trkpt lat="43.4908" lon="5.94956">
        <ele>250.89</ele>
        <time>2010-03-10T10:18:52Z</time>
      </trkpt>
      <trkpt lat="43.49096" lon="5.94958">
        <ele>248.109</ele>
        <time>2010-03-10T10:19:05Z</time>
      </trkpt>
      <trkpt lat="43.49112" lon="5.9496">
        <ele>241.643</ele>
        <time>2010-03-10T10:19:17Z</time>
      </trkpt>
      <trkpt lat="43.49119" lon="5.94961">
        <ele>239.244</ele>
        <time>2010-03-10T10:19:23Z</time>
      </trkpt>
      <trkpt lat="43.49125" lon="5.94957">
        <ele>236.75</ele>
        <time>2010-03-10T10:19:29Z</time>
      </trkpt>
      <trkpt lat="43.49135" lon="5.94957">
        <ele>233.606</ele>
        <time>2010-03-10T10:19:38Z</time>
      </trkpt>
      <trkpt lat="43.49137" lon="5.94956">
        <ele>233.27</ele>
        <time>2010-03-10T10:19:40Z</time>
      </trkpt>
      <trkpt lat="43.49142" lon="5.9496">
        <ele>231.983</ele>
        <time>2010-03-10T10:19:44Z</time>
      </trkpt>
      <trkpt lat="43.49155" lon="5.94956">
        <ele>236.263</ele>
        <time>2010-03-10T10:19:57Z</time>
      </trkpt>
      <trkpt lat="43.49175" lon="5.94948">
        <ele>243.152</ele>
        <time>2010-03-10T10:20:12Z</time>
      </trkpt>
      <trkpt lat="43.49177" lon="5.94946">
        <ele>244.41</ele>
        <time>2010-03-10T10:20:14Z</time>
      </trkpt>
      <trkpt lat="43.49182" lon="5.9495">
        <ele>247.993</ele>
        <time>2010-03-10T10:20:27Z</time>
      </trkpt>
      <trkpt lat="43.49188" lon="5.94945">
        <ele>246.412</ele>
        <time>2010-03-10T10:20:34Z</time>
      </trkpt>
      <trkpt lat="43.49192" lon="5.94943">
        <ele>246.36</ele>
        <time>2010-03-10T10:20:37Z</time>
      </trkpt>
      <trkpt lat="43.49209" lon="5.94939">
        <ele>242.98</ele>
        <time>2010-03-10T10:20:54Z</time>
      </trkpt>
      <trkpt lat="43.49234" lon="5.94936">
        <ele>240.836</ele>
        <time>2010-03-10T10:21:14Z</time>
      </trkpt>
      <trkpt lat="43.49244" lon="5.94933">
        <ele>247.526</ele>
        <time>2010-03-10T10:21:23Z</time>
      </trkpt>
      <trkpt lat="43.49249" lon="5.94936">
        <ele>246.935</ele>
        <time>2010-03-10T10:21:28Z</time>
      </trkpt>
      <trkpt lat="43.49269" lon="5.94958">
        <ele>249.236</ele>
        <time>2010-03-10T10:21:49Z</time>
      </trkpt>
      <trkpt lat="43.49271" lon="5.94962">
        <ele>249.881</ele>
        <time>2010-03-10T10:21:52Z</time>
      </trkpt>
      <trkpt lat="43.49274" lon="5.94966">
        <ele>249.585</ele>
        <time>2010-03-10T10:21:55Z</time>
      </trkpt>
      <trkpt lat="43.49286" lon="5.94996">
        <ele>253.144</ele>
        <time>2010-03-10T10:22:15Z</time>
      </trkpt>
      <trkpt lat="43.49289" lon="5.95002">
        <ele>253.488</ele>
        <time>2010-03-10T10:22:20Z</time>
      </trkpt>
      <trkpt lat="43.49295" lon="5.9501">
        <ele>253.441</ele>
        <time>2010-03-10T10:22:27Z</time>
      </trkpt>
      <trkpt lat="43.49303" lon="5.9502">
        <ele>253.168</ele>
        <time>2010-03-10T10:22:36Z</time>
      </trkpt>
      <trkpt lat="43.49315" lon="5.95038">
        <ele>250.006</ele>
        <time>2010-03-10T10:22:54Z</time>
      </trkpt>
      <trkpt lat="43.49318" lon="5.9505">
        <ele>250.662</ele>
        <time>2010-03-10T10:23:13Z</time>
      </trkpt>
      <trkpt lat="43.49318" lon="5.95049">
        <ele>250.102</ele>
        <time>2010-03-10T10:27:37Z</time>
      </trkpt>
      <trkpt lat="43.49321" lon="5.95053">
        <ele>251.111</ele>
        <time>2010-03-10T10:37:37Z</time>
      </trkpt>
      <trkpt lat="43.49321" lon="5.95053">
        <ele>251.536</ele>
        <time>2010-03-10T10:37:44Z</time>
      </trkpt>
      <trkpt lat="43.49324" lon="5.95056">
        <ele>250.834</ele>
        <time>2010-03-10T10:37:59Z</time>
      </trkpt>
      <trkpt lat="43.49325" lon="5.95067">
        <ele>249.496</ele>
        <time>2010-03-10T10:38:13Z</time>
      </trkpt>
      <trkpt lat="43.49327" lon="5.95078">
        <ele>248.894</ele>
        <time>2010-03-10T10:38:23Z</time>
      </trkpt>
      <trkpt lat="43.49326" lon="5.95086">
        <ele>249.14</ele>
        <time>2010-03-10T10:38:29Z</time>
      </trkpt>
      <trkpt lat="43.49333" lon="5.95116">
        <ele>253.622</ele>
        <time>2010-03-10T10:38:51Z</time>
      </trkpt>
      <trkpt lat="43.49339" lon="5.9514">
        <ele>258.957</ele>
        <time>2010-03-10T10:39:08Z</time>
      </trkpt>
      <trkpt lat="43.49346" lon="5.95162">
        <ele>264.965</ele>
        <time>2010-03-10T10:39:24Z</time>
      </trkpt>
      <trkpt lat="43.49353" lon="5.95185">
        <ele>272.251</ele>
        <time>2010-03-10T10:39:40Z</time>
      </trkpt>
      <trkpt lat="43.49355" lon="5.95194">
        <ele>275.121</ele>
        <time>2010-03-10T10:39:46Z</time>
      </trkpt>
      <trkpt lat="43.49355" lon="5.95199">
        <ele>277.263</ele>
        <time>2010-03-10T10:39:51Z</time>
      </trkpt>
      <trkpt lat="43.49356" lon="5.95202">
        <ele>276.956</ele>
        <time>2010-03-10T10:39:54Z</time>
      </trkpt>
      <trkpt lat="43.49371" lon="5.9522">
        <ele>282.11</ele>
        <time>2010-03-10T10:40:13Z</time>
      </trkpt>
      <trkpt lat="43.49372" lon="5.95222">
        <ele>282.873</ele>
        <time>2010-03-10T10:40:15Z</time>
      </trkpt>
      <trkpt lat="43.49374" lon="5.95226">
        <ele>283.755</ele>
        <time>2010-03-10T10:40:18Z</time>
      </trkpt>
      <trkpt lat="43.49382" lon="5.95245">
        <ele>288.424</ele>
        <time>2010-03-10T10:40:36Z</time>
      </trkpt>
      <trkpt lat="43.49384" lon="5.95248">
        <ele>288.037</ele>
        <time>2010-03-10T10:40:39Z</time>
      </trkpt>
      <trkpt lat="43.49389" lon="5.95276">
        <ele>287.572</ele>
        <time>2010-03-10T10:40:59Z</time>
      </trkpt>
      <trkpt lat="43.49394" lon="5.95285">
        <ele>286.566</ele>
        <time>2010-03-10T10:41:07Z</time>
      </trkpt>
      <trkpt lat="43.49416" lon="5.95289">
        <ele>268.395</ele>
        <time>2010-03-10T10:41:27Z</time>
      </trkpt>
      <trkpt lat="43.49425" lon="5.95292">
        <ele>262.007</ele>
        <time>2010-03-10T10:41:43Z</time>
      </trkpt>
      <trkpt lat="43.49432" lon="5.95288">
        <ele>260.845</ele>
        <time>2010-03-10T10:41:53Z</time>
      </trkpt>
      <trkpt lat="43.49433" lon="5.95283">
        <ele>259.802</ele>
        <time>2010-03-10T10:41:58Z</time>
      </trkpt>
      <trkpt lat="43.49435" lon="5.95278">
        <ele>259.642</ele>
        <time>2010-03-10T10:42:02Z</time>
      </trkpt>
      <trkpt lat="43.49442" lon="5.95278">
        <ele>258.04</ele>
        <time>2010-03-10T10:42:10Z</time>
      </trkpt>
      <trkpt lat="43.49454" lon="5.95279">
        <ele>257.26</ele>
        <time>2010-03-10T10:42:22Z</time>
      </trkpt>
      <trkpt lat="43.49457" lon="5.95279">
        <ele>257.716</ele>
        <time>2010-03-10T10:42:25Z</time>
      </trkpt>
      <trkpt lat="43.49475" lon="5.95272">
        <ele>255.503</ele>
        <time>2010-03-10T10:42:42Z</time>
      </trkpt>
      <trkpt lat="43.495" lon="5.95261">
        <ele>251.233</ele>
        <time>2010-03-10T10:43:05Z</time>
      </trkpt>
      <trkpt lat="43.4951" lon="5.9525">
        <ele>252.459</ele>
        <time>2010-03-10T10:43:19Z</time>
      </trkpt>
      <trkpt lat="43.49522" lon="5.95238">
        <ele>251</ele>
        <time>2010-03-10T10:43:36Z</time>
      </trkpt>
      <trkpt lat="43.49534" lon="5.95228">
        <ele>249.606</ele>
        <time>2010-03-10T10:43:51Z</time>
      </trkpt>
      <trkpt lat="43.49556" lon="5.95216">
        <ele>247.493</ele>
        <time>2010-03-10T10:44:09Z</time>
      </trkpt>
      <trkpt lat="43.49569" lon="5.95202">
        <ele>246.38</ele>
        <time>2010-03-10T10:44:26Z</time>
      </trkpt>
      <trkpt lat="43.49591" lon="5.95181">
        <ele>245.583</ele>
        <time>2010-03-10T10:44:48Z</time>
      </trkpt>
      <trkpt lat="43.49594" lon="5.95176">
        <ele>245.999</ele>
        <time>2010-03-10T10:44:54Z</time>
      </trkpt>
      <trkpt lat="43.49597" lon="5.95173">
        <ele>246.176</ele>
        <time>2010-03-10T10:44:57Z</time>
      </trkpt>
      <trkpt lat="43.49621" lon="5.95156">
        <ele>249.512</ele>
        <time>2010-03-10T10:45:18Z</time>
      </trkpt>
      <trkpt lat="43.4963" lon="5.95147">
        <ele>249.605</ele>
        <time>2010-03-10T10:45:33Z</time>
      </trkpt>
      <trkpt lat="43.49632" lon="5.95144">
        <ele>249.851</ele>
        <time>2010-03-10T10:45:41Z</time>
      </trkpt>
      <trkpt lat="43.49646" lon="5.95128">
        <ele>251.024</ele>
        <time>2010-03-10T10:45:58Z</time>
      </trkpt>
      <trkpt lat="43.4965" lon="5.95126">
        <ele>251.581</ele>
        <time>2010-03-10T10:46:01Z</time>
      </trkpt>
      <trkpt lat="43.49652" lon="5.95124">
        <ele>252.453</ele>
        <time>2010-03-10T10:46:04Z</time>
      </trkpt>
      <trkpt lat="43.49659" lon="5.95118">
        <ele>253.138</ele>
        <time>2010-03-10T10:46:11Z</time>
      </trkpt>
      <trkpt lat="43.49661" lon="5.95116">
        <ele>253.776</ele>
        <time>2010-03-10T10:46:13Z</time>
      </trkpt>
      <trkpt lat="43.49667" lon="5.95113">
        <ele>252.609</ele>
        <time>2010-03-10T10:46:17Z</time>
      </trkpt>
      <trkpt lat="43.49684" lon="5.95095">
        <ele>261.674</ele>
        <time>2010-03-10T10:46:36Z</time>
      </trkpt>
      <trkpt lat="43.49688" lon="5.95088">
        <ele>263.637</ele>
        <time>2010-03-10T10:46:42Z</time>
      </trkpt>
      <trkpt lat="43.49692" lon="5.95082">
        <ele>265.542</ele>
        <time>2010-03-10T10:46:47Z</time>
      </trkpt>
      <trkpt lat="43.497" lon="5.95069">
        <ele>264.766</ele>
        <time>2010-03-10T10:46:57Z</time>
      </trkpt>
      <trkpt lat="43.49709" lon="5.9506">
        <ele>267.958</ele>
        <time>2010-03-10T10:47:06Z</time>
      </trkpt>
      <trkpt lat="43.497" lon="5.95055">
        <ele>262.948</ele>
        <time>2010-03-10T10:47:28Z</time>
      </trkpt>
      <trkpt lat="43.49698" lon="5.95054">
        <ele>263.028</ele>
        <time>2010-03-10T10:47:43Z</time>
      </trkpt>
      <trkpt lat="43.49704" lon="5.9505">
        <ele>261.45</ele>
        <time>2010-03-10T10:48:02Z</time>
      </trkpt>
      <trkpt lat="43.49714" lon="5.95038">
        <ele>257.444</ele>
        <time>2010-03-10T10:48:20Z</time>
      </trkpt>
      <trkpt lat="43.49721" lon="5.95038">
        <ele>258.966</ele>
        <time>2010-03-10T10:49:26Z</time>
      </trkpt>
      <trkpt lat="43.49702" lon="5.95042">
        <ele>258.758</ele>
        <time>2010-03-10T10:49:51Z</time>
      </trkpt>
      <trkpt lat="43.49705" lon="5.95047">
        <ele>256.847</ele>
        <time>2010-03-10T10:50:12Z</time>
      </trkpt>
      <trkpt lat="43.49708" lon="5.95045">
        <ele>256.271</ele>
        <time>2010-03-10T10:50:16Z</time>
      </trkpt>
      <trkpt lat="43.4972" lon="5.95037">
        <ele>252.881</ele>
        <time>2010-03-10T10:50:24Z</time>
      </trkpt>
      <trkpt lat="43.49725" lon="5.95038">
        <ele>251</ele>
        <time>2010-03-10T10:50:30Z</time>
      </trkpt>
      <trkpt lat="43.49745" lon="5.9505">
        <ele>247.247</ele>
        <time>2010-03-10T10:50:52Z</time>
      </trkpt>
      <trkpt lat="43.4976" lon="5.95028">
        <ele>249.845</ele>
        <time>2010-03-10T10:51:09Z</time>
      </trkpt>
      <trkpt lat="43.49779" lon="5.94992">
        <ele>250.837</ele>
        <time>2010-03-10T10:51:33Z</time>
      </trkpt>
      <trkpt lat="43.49787" lon="5.94988">
        <ele>253.932</ele>
        <time>2010-03-10T10:51:48Z</time>
      </trkpt>
      <trkpt lat="43.4979" lon="5.94987">
        <ele>254.971</ele>
        <time>2010-03-10T10:51:59Z</time>
      </trkpt>
      <trkpt lat="43.4979" lon="5.94984">
        <ele>256.046</ele>
        <time>2010-03-10T10:52:01Z</time>
      </trkpt>
      <trkpt lat="43.49784" lon="5.94975">
        <ele>259.65</ele>
        <time>2010-03-10T10:52:19Z</time>
      </trkpt>
      <trkpt lat="43.49791" lon="5.94983">
        <ele>262.637</ele>
        <time>2010-03-10T10:52:40Z</time>
      </trkpt>
      <trkpt lat="43.49796" lon="5.94984">
        <ele>263.62</ele>
        <time>2010-03-10T10:52:46Z</time>
      </trkpt>
      <trkpt lat="43.49823" lon="5.95005">
        <ele>269.313</ele>
        <time>2010-03-10T10:53:16Z</time>
      </trkpt>
      <trkpt lat="43.4985" lon="5.9504">
        <ele>276.134</ele>
        <time>2010-03-10T10:53:43Z</time>
      </trkpt>
      <trkpt lat="43.49879" lon="5.95061">
        <ele>284.086</ele>
        <time>2010-03-10T10:54:09Z</time>
      </trkpt>
      <trkpt lat="43.49884" lon="5.95067">
        <ele>285.157</ele>
        <time>2010-03-10T10:54:14Z</time>
      </trkpt>
      <trkpt lat="43.49886" lon="5.95069">
        <ele>285.894</ele>
        <time>2010-03-10T10:54:17Z</time>
      </trkpt>
      <trkpt lat="43.49897" lon="5.95082">
        <ele>289.067</ele>
        <time>2010-03-10T10:54:30Z</time>
      </trkpt>
      <trkpt lat="43.499" lon="5.95089">
        <ele>290.333</ele>
        <time>2010-03-10T10:54:36Z</time>
      </trkpt>
      <trkpt lat="43.49913" lon="5.95093">
        <ele>294.109</ele>
        <time>2010-03-10T10:54:57Z</time>
      </trkpt>
      <trkpt lat="43.49919" lon="5.95098">
        <ele>294.79</ele>
        <time>2010-03-10T10:55:02Z</time>
      </trkpt>
      <trkpt lat="43.49929" lon="5.9511">
        <ele>290.606</ele>
        <time>2010-03-10T10:55:16Z</time>
      </trkpt>
      <trkpt lat="43.49959" lon="5.95132">
        <ele>288.289</ele>
        <time>2010-03-10T10:55:44Z</time>
      </trkpt>
      <trkpt lat="43.49965" lon="5.9514">
        <ele>287.906</ele>
        <time>2010-03-10T10:55:51Z</time>
      </trkpt>
      <trkpt lat="43.4998" lon="5.95152">
        <ele>290.4</ele>
        <time>2010-03-10T10:56:07Z</time>
      </trkpt>
      <trkpt lat="43.50001" lon="5.95155">
        <ele>275.466</ele>
        <time>2010-03-10T10:56:27Z</time>
      </trkpt>
      <trkpt lat="43.50004" lon="5.95157">
        <ele>274.176</ele>
        <time>2010-03-10T10:56:29Z</time>
      </trkpt>
      <trkpt lat="43.50008" lon="5.9516">
        <ele>270.801</ele>
        <time>2010-03-10T10:56:33Z</time>
      </trkpt>
      <trkpt lat="43.50011" lon="5.95162">
        <ele>270.574</ele>
        <time>2010-03-10T10:56:36Z</time>
      </trkpt>
      <trkpt lat="43.50015" lon="5.95165">
        <ele>269.98</ele>
        <time>2010-03-10T10:56:40Z</time>
      </trkpt>
      <trkpt lat="43.50035" lon="5.95191">
        <ele>266.935</ele>
        <time>2010-03-10T10:57:01Z</time>
      </trkpt>
      <trkpt lat="43.50037" lon="5.95193">
        <ele>268.41</ele>
        <time>2010-03-10T10:57:03Z</time>
      </trkpt>
      <trkpt lat="43.50039" lon="5.95197">
        <ele>270.866</ele>
        <time>2010-03-10T10:57:07Z</time>
      </trkpt>
      <trkpt lat="43.50054" lon="5.95205">
        <ele>274.412</ele>
        <time>2010-03-10T10:57:20Z</time>
      </trkpt>
      <trkpt lat="43.5006" lon="5.95213">
        <ele>274.685</ele>
        <time>2010-03-10T10:57:26Z</time>
      </trkpt>
      <trkpt lat="43.50072" lon="5.95231">
        <ele>264.772</ele>
        <time>2010-03-10T10:57:43Z</time>
      </trkpt>
      <trkpt lat="43.50077" lon="5.95234">
        <ele>264.071</ele>
        <time>2010-03-10T10:57:48Z</time>
      </trkpt>
      <trkpt lat="43.50091" lon="5.9522">
        <ele>261.553</ele>
        <time>2010-03-10T10:58:04Z</time>
      </trkpt>
      <trkpt lat="43.50095" lon="5.95217">
        <ele>262.585</ele>
        <time>2010-03-10T10:58:26Z</time>
      </trkpt>
      <trkpt lat="43.50094" lon="5.9522">
        <ele>261.658</ele>
        <time>2010-03-10T10:58:31Z</time>
      </trkpt>
      <trkpt lat="43.50085" lon="5.9523">
        <ele>262.143</ele>
        <time>2010-03-10T10:58:43Z</time>
      </trkpt>
      <trkpt lat="43.50085" lon="5.95245">
        <ele>260.456</ele>
        <time>2010-03-10T10:58:57Z</time>
      </trkpt>
      <trkpt lat="43.50078" lon="5.95261">
        <ele>259.607</ele>
        <time>2010-03-10T10:59:13Z</time>
      </trkpt>
      <trkpt lat="43.50068" lon="5.95273">
        <ele>259.688</ele>
        <time>2010-03-10T10:59:27Z</time>
      </trkpt>
      <trkpt lat="43.50052" lon="5.95291">
        <ele>261.966</ele>
        <time>2010-03-10T10:59:50Z</time>
      </trkpt>
      <trkpt lat="43.50049" lon="5.95296">
        <ele>262.069</ele>
        <time>2010-03-10T10:59:53Z</time>
      </trkpt>
      <trkpt lat="43.50035" lon="5.95314">
        <ele>262.065</ele>
        <time>2010-03-10T11:00:09Z</time>
      </trkpt>
      <trkpt lat="43.50019" lon="5.95336">
        <ele>260.399</ele>
        <time>2010-03-10T11:00:28Z</time>
      </trkpt>
      <trkpt lat="43.50012" lon="5.95346">
        <ele>260.256</ele>
        <time>2010-03-10T11:00:38Z</time>
      </trkpt>
      <trkpt lat="43.50009" lon="5.95354">
        <ele>259.14</ele>
        <time>2010-03-10T11:00:45Z</time>
      </trkpt>
      <trkpt lat="43.50002" lon="5.95371">
        <ele>257.767</ele>
        <time>2010-03-10T11:00:56Z</time>
      </trkpt>
      <trkpt lat="43.5" lon="5.95373">
        <ele>257.587</ele>
        <time>2010-03-10T11:00:59Z</time>
      </trkpt>
      <trkpt lat="43.4999" lon="5.95392">
        <ele>252.696</ele>
        <time>2010-03-10T11:01:18Z</time>
      </trkpt>
      <trkpt lat="43.49988" lon="5.95396">
        <ele>252.055</ele>
        <time>2010-03-10T11:01:22Z</time>
      </trkpt>
      <trkpt lat="43.49978" lon="5.95414">
        <ele>248.614</ele>
        <time>2010-03-10T11:01:45Z</time>
      </trkpt>
      <trkpt lat="43.49965" lon="5.95434">
        <ele>244.456</ele>
        <time>2010-03-10T11:02:04Z</time>
      </trkpt>
      <trkpt lat="43.49955" lon="5.95455">
        <ele>241.966</ele>
        <time>2010-03-10T11:02:26Z</time>
      </trkpt>
      <trkpt lat="43.49945" lon="5.95473">
        <ele>238.081</ele>
        <time>2010-03-10T11:02:48Z</time>
      </trkpt>
      <trkpt lat="43.49939" lon="5.95493">
        <ele>237.797</ele>
        <time>2010-03-10T11:03:05Z</time>
      </trkpt>
      <trkpt lat="43.49916" lon="5.95512">
        <ele>241.113</ele>
        <time>2010-03-10T11:03:28Z</time>
      </trkpt>
      <trkpt lat="43.49897" lon="5.95518">
        <ele>246.403</ele>
        <time>2010-03-10T11:03:49Z</time>
      </trkpt>
      <trkpt lat="43.49894" lon="5.95517">
        <ele>248.281</ele>
        <time>2010-03-10T11:03:51Z</time>
      </trkpt>
      <trkpt lat="43.49889" lon="5.95516">
        <ele>249.56</ele>
        <time>2010-03-10T11:03:56Z</time>
      </trkpt>
      <trkpt lat="43.49879" lon="5.9552">
        <ele>251.37</ele>
        <time>2010-03-10T11:04:04Z</time>
      </trkpt>
      <trkpt lat="43.49876" lon="5.95518">
        <ele>252.736</ele>
        <time>2010-03-10T11:04:06Z</time>
      </trkpt>
      <trkpt lat="43.49859" lon="5.95519">
        <ele>258.45</ele>
        <time>2010-03-10T11:04:22Z</time>
      </trkpt>
      <trkpt lat="43.49859" lon="5.95519">
        <ele>259.066</ele>
        <time>2010-03-10T11:04:23Z</time>
      </trkpt>
      <trkpt lat="43.49849" lon="5.95518">
        <ele>262.925</ele>
        <time>2010-03-10T11:04:31Z</time>
      </trkpt>
      <trkpt lat="43.49837" lon="5.95499">
        <ele>265.283</ele>
        <time>2010-03-10T11:04:50Z</time>
      </trkpt>
      <trkpt lat="43.49834" lon="5.95491">
        <ele>266.122</ele>
        <time>2010-03-10T11:04:58Z</time>
      </trkpt>
      <trkpt lat="43.49817" lon="5.95481">
        <ele>268.576</ele>
        <time>2010-03-10T11:05:17Z</time>
      </trkpt>
      <trkpt lat="43.49803" lon="5.95469">
        <ele>269.935</ele>
        <time>2010-03-10T11:05:37Z</time>
      </trkpt>
      <trkpt lat="43.49782" lon="5.95465">
        <ele>273.702</ele>
        <time>2010-03-10T11:05:57Z</time>
      </trkpt>
      <trkpt lat="43.49766" lon="5.95462">
        <ele>278.512</ele>
        <time>2010-03-10T11:06:18Z</time>
      </trkpt>
      <trkpt lat="43.49744" lon="5.95458">
        <ele>280.522</ele>
        <time>2010-03-10T11:06:40Z</time>
      </trkpt>
      <trkpt lat="43.4974" lon="5.9546">
        <ele>281.189</ele>
        <time>2010-03-10T11:07:02Z</time>
      </trkpt>
      <trkpt lat="43.49736" lon="5.95461">
        <ele>279.119</ele>
        <time>2010-03-10T11:07:14Z</time>
      </trkpt>
      <trkpt lat="43.49719" lon="5.95459">
        <ele>279.242</ele>
        <time>2010-03-10T11:07:29Z</time>
      </trkpt>
      <trkpt lat="43.49714" lon="5.95459">
        <ele>279.873</ele>
        <time>2010-03-10T11:07:33Z</time>
      </trkpt>
      <trkpt lat="43.49704" lon="5.95452">
        <ele>279.319</ele>
        <time>2010-03-10T11:07:48Z</time>
      </trkpt>
      <trkpt lat="43.49697" lon="5.95444">
        <ele>278.066</ele>
        <time>2010-03-10T11:08:08Z</time>
      </trkpt>
      <trkpt lat="43.49689" lon="5.95456">
        <ele>280.182</ele>
        <time>2010-03-10T11:09:09Z</time>
      </trkpt>
      <trkpt lat="43.49686" lon="5.95461">
        <ele>281.631</ele>
        <time>2010-03-10T11:09:13Z</time>
      </trkpt>
      <trkpt lat="43.49688" lon="5.95466">
        <ele>281.745</ele>
        <time>2010-03-10T11:09:34Z</time>
      </trkpt>
      <trkpt lat="43.49687" lon="5.95466">
        <ele>281.611</ele>
        <time>2010-03-10T11:09:36Z</time>
      </trkpt>
      <trkpt lat="43.4968" lon="5.95468">
        <ele>282.143</ele>
        <time>2010-03-10T11:09:43Z</time>
      </trkpt>
      <trkpt lat="43.4967" lon="5.95468">
        <ele>283.543</ele>
        <time>2010-03-10T11:09:51Z</time>
      </trkpt>
      <trkpt lat="43.49667" lon="5.95467">
        <ele>283.978</ele>
        <time>2010-03-10T11:09:53Z</time>
      </trkpt>
      <trkpt lat="43.49661" lon="5.95465">
        <ele>286.063</ele>
        <time>2010-03-10T11:09:59Z</time>
      </trkpt>
      <trkpt lat="43.49649" lon="5.95466">
        <ele>291.242</ele>
        <time>2010-03-10T11:10:15Z</time>
      </trkpt>
      <trkpt lat="43.49646" lon="5.9547">
        <ele>294.543</ele>
        <time>2010-03-10T11:10:35Z</time>
      </trkpt>
      <trkpt lat="43.49652" lon="5.9547">
        <ele>295.917</ele>
        <time>2010-03-10T11:10:44Z</time>
      </trkpt>
      <trkpt lat="43.49659" lon="5.95467">
        <ele>293.962</ele>
        <time>2010-03-10T11:10:52Z</time>
      </trkpt>
      <trkpt lat="43.49675" lon="5.95468">
        <ele>292.266</ele>
        <time>2010-03-10T11:11:06Z</time>
      </trkpt>
      <trkpt lat="43.49683" lon="5.95475">
        <ele>291.459</ele>
        <time>2010-03-10T11:11:18Z</time>
      </trkpt>
      <trkpt lat="43.49689" lon="5.9548">
        <ele>290.094</ele>
        <time>2010-03-10T11:11:26Z</time>
      </trkpt>
      <trkpt lat="43.49693" lon="5.95484">
        <ele>289.606</ele>
        <time>2010-03-10T11:11:31Z</time>
      </trkpt>
      <trkpt lat="43.49698" lon="5.95486">
        <ele>288.85</ele>
        <time>2010-03-10T11:11:36Z</time>
      </trkpt>
      <trkpt lat="43.49717" lon="5.95473">
        <ele>287.727</ele>
        <time>2010-03-10T11:11:54Z</time>
      </trkpt>
      <trkpt lat="43.49726" lon="5.95463">
        <ele>287.229</ele>
        <time>2010-03-10T11:12:10Z</time>
      </trkpt>
      <trkpt lat="43.49732" lon="5.95466">
        <ele>285.395</ele>
        <time>2010-03-10T11:12:16Z</time>
      </trkpt>
      <trkpt lat="43.49737" lon="5.95463">
        <ele>285.138</ele>
        <time>2010-03-10T11:12:20Z</time>
      </trkpt>
      <trkpt lat="43.49751" lon="5.95463">
        <ele>279.521</ele>
        <time>2010-03-10T11:12:34Z</time>
      </trkpt>
      <trkpt lat="43.49757" lon="5.9546">
        <ele>279.324</ele>
        <time>2010-03-10T11:12:41Z</time>
      </trkpt>
      <trkpt lat="43.49767" lon="5.95462">
        <ele>278.749</ele>
        <time>2010-03-10T11:12:52Z</time>
      </trkpt>
      <trkpt lat="43.49788" lon="5.95467">
        <ele>274.152</ele>
        <time>2010-03-10T11:13:09Z</time>
      </trkpt>
      <trkpt lat="43.49789" lon="5.95467">
        <ele>273.93</ele>
        <time>2010-03-10T11:13:10Z</time>
      </trkpt>
      <trkpt lat="43.49794" lon="5.95469">
        <ele>272.642</ele>
        <time>2010-03-10T11:13:14Z</time>
      </trkpt>
      <trkpt lat="43.498" lon="5.95469">
        <ele>270.53</ele>
        <time>2010-03-10T11:13:21Z</time>
      </trkpt>
      <trkpt lat="43.49804" lon="5.95474">
        <ele>269.077</ele>
        <time>2010-03-10T11:13:26Z</time>
      </trkpt>
      <trkpt lat="43.49809" lon="5.95476">
        <ele>269.484</ele>
        <time>2010-03-10T11:13:30Z</time>
      </trkpt>
      <trkpt lat="43.49813" lon="5.95475">
        <ele>268.19</ele>
        <time>2010-03-10T11:13:33Z</time>
      </trkpt>
      <trkpt lat="43.49813" lon="5.95479">
        <ele>267.554</ele>
        <time>2010-03-10T11:13:35Z</time>
      </trkpt>
      <trkpt lat="43.49819" lon="5.9548">
        <ele>267.232</ele>
        <time>2010-03-10T11:13:39Z</time>
      </trkpt>
      <trkpt lat="43.49824" lon="5.95488">
        <ele>264.168</ele>
        <time>2010-03-10T11:13:46Z</time>
      </trkpt>
      <trkpt lat="43.4983" lon="5.95493">
        <ele>263.332</ele>
        <time>2010-03-10T11:13:53Z</time>
      </trkpt>
      <trkpt lat="43.49832" lon="5.95496">
        <ele>263.302</ele>
        <time>2010-03-10T11:13:55Z</time>
      </trkpt>
      <trkpt lat="43.49847" lon="5.95518">
        <ele>262.97</ele>
        <time>2010-03-10T11:14:16Z</time>
      </trkpt>
      <trkpt lat="43.49848" lon="5.95522">
        <ele>263.888</ele>
        <time>2010-03-10T11:14:19Z</time>
      </trkpt>
      <trkpt lat="43.49832" lon="5.95524">
        <ele>263.957</ele>
        <time>2010-03-10T11:14:36Z</time>
      </trkpt>
      <trkpt lat="43.49821" lon="5.95523">
        <ele>263.692</ele>
        <time>2010-03-10T11:14:56Z</time>
      </trkpt>
      <trkpt lat="43.49818" lon="5.95524">
        <ele>263.811</ele>
        <time>2010-03-10T11:14:59Z</time>
      </trkpt>
      <trkpt lat="43.49804" lon="5.95529">
        <ele>264.41</ele>
        <time>2010-03-10T11:15:17Z</time>
      </trkpt>
      <trkpt lat="43.49803" lon="5.9553">
        <ele>264.512</ele>
        <time>2010-03-10T11:15:18Z</time>
      </trkpt>
      <trkpt lat="43.49798" lon="5.95536">
        <ele>264.568</ele>
        <time>2010-03-10T11:15:25Z</time>
      </trkpt>
      <trkpt lat="43.49789" lon="5.95544">
        <ele>266.43</ele>
        <time>2010-03-10T11:15:35Z</time>
      </trkpt>
      <trkpt lat="43.49777" lon="5.95556">
        <ele>269.364</ele>
        <time>2010-03-10T11:15:53Z</time>
      </trkpt>
      <trkpt lat="43.49755" lon="5.95591">
        <ele>273.657</ele>
        <time>2010-03-10T11:16:24Z</time>
      </trkpt>
      <trkpt lat="43.49748" lon="5.95602">
        <ele>273.291</ele>
        <time>2010-03-10T11:16:39Z</time>
      </trkpt>
      <trkpt lat="43.49729" lon="5.95626">
        <ele>272.015</ele>
        <time>2010-03-10T11:17:10Z</time>
      </trkpt>
      <trkpt lat="43.49716" lon="5.95645">
        <ele>272.351</ele>
        <time>2010-03-10T11:17:25Z</time>
      </trkpt>
      <trkpt lat="43.49704" lon="5.95655">
        <ele>272.293</ele>
        <time>2010-03-10T11:17:43Z</time>
      </trkpt>
      <trkpt lat="43.49688" lon="5.95675">
        <ele>275.893</ele>
        <time>2010-03-10T11:18:04Z</time>
      </trkpt>
      <trkpt lat="43.49671" lon="5.95691">
        <ele>277.431</ele>
        <time>2010-03-10T11:18:23Z</time>
      </trkpt>
      <trkpt lat="43.49656" lon="5.95694">
        <ele>279.33</ele>
        <time>2010-03-10T11:18:38Z</time>
      </trkpt>
      <trkpt lat="43.49642" lon="5.95694">
        <ele>278.024</ele>
        <time>2010-03-10T11:18:54Z</time>
      </trkpt>
      <trkpt lat="43.49638" lon="5.95694">
        <ele>275.595</ele>
        <time>2010-03-10T11:19:37Z</time>
      </trkpt>
      <trkpt lat="43.49627" lon="5.95694">
        <ele>274.659</ele>
        <time>2010-03-10T11:20:42Z</time>
      </trkpt>
      <trkpt lat="43.49621" lon="5.95696">
        <ele>273.842</ele>
        <time>2010-03-10T11:20:51Z</time>
      </trkpt>
      <trkpt lat="43.4962" lon="5.95697">
        <ele>273.355</ele>
        <time>2010-03-10T11:20:53Z</time>
      </trkpt>
      <trkpt lat="43.49615" lon="5.95703">
        <ele>272.248</ele>
        <time>2010-03-10T11:20:59Z</time>
      </trkpt>
      <trkpt lat="43.49605" lon="5.95716">
        <ele>269.505</ele>
        <time>2010-03-10T11:21:17Z</time>
      </trkpt>
      <trkpt lat="43.496" lon="5.9572">
        <ele>268.929</ele>
        <time>2010-03-10T11:21:22Z</time>
      </trkpt>
      <trkpt lat="43.49598" lon="5.95721">
        <ele>268.766</ele>
        <time>2010-03-10T11:21:24Z</time>
      </trkpt>
      <trkpt lat="43.49584" lon="5.95731">
        <ele>271.417</ele>
        <time>2010-03-10T11:21:38Z</time>
      </trkpt>
      <trkpt lat="43.49574" lon="5.95735">
        <ele>274.953</ele>
        <time>2010-03-10T11:21:51Z</time>
      </trkpt>
      <trkpt lat="43.49573" lon="5.95736">
        <ele>275.151</ele>
        <time>2010-03-10T11:21:52Z</time>
      </trkpt>
      <trkpt lat="43.49556" lon="5.95746">
        <ele>275.244</ele>
        <time>2010-03-10T11:22:13Z</time>
      </trkpt>
      <trkpt lat="43.49549" lon="5.95757">
        <ele>272.875</ele>
        <time>2010-03-10T11:22:25Z</time>
      </trkpt>
      <trkpt lat="43.49548" lon="5.95755">
        <ele>273.582</ele>
        <time>2010-03-10T11:22:30Z</time>
      </trkpt>
      <trkpt lat="43.49545" lon="5.95758">
        <ele>273.491</ele>
        <time>2010-03-10T11:22:34Z</time>
      </trkpt>
      <trkpt lat="43.49536" lon="5.95769">
        <ele>271.245</ele>
        <time>2010-03-10T11:22:49Z</time>
      </trkpt>
      <trkpt lat="43.49535" lon="5.95772">
        <ele>270.826</ele>
        <time>2010-03-10T11:22:51Z</time>
      </trkpt>
      <trkpt lat="43.49523" lon="5.95784">
        <ele>265.95</ele>
        <time>2010-03-10T11:23:12Z</time>
      </trkpt>
      <trkpt lat="43.49508" lon="5.95796">
        <ele>263.101</ele>
        <time>2010-03-10T11:23:56Z</time>
      </trkpt>
      <trkpt lat="43.49505" lon="5.95798">
        <ele>262.533</ele>
        <time>2010-03-10T11:24:00Z</time>
      </trkpt>
      <trkpt lat="43.49491" lon="5.95797">
        <ele>257.982</ele>
        <time>2010-03-10T11:24:19Z</time>
      </trkpt>
      <trkpt lat="43.49469" lon="5.95794">
        <ele>257.735</ele>
        <time>2010-03-10T11:24:40Z</time>
      </trkpt>
      <trkpt lat="43.4946" lon="5.95796">
        <ele>258.568</ele>
        <time>2010-03-10T11:24:50Z</time>
      </trkpt>
      <trkpt lat="43.49453" lon="5.958">
        <ele>259.41</ele>
        <time>2010-03-10T11:24:58Z</time>
      </trkpt>
      <trkpt lat="43.49438" lon="5.95798">
        <ele>263.13</ele>
        <time>2010-03-10T11:25:16Z</time>
      </trkpt>
      <trkpt lat="43.49425" lon="5.95794">
        <ele>267.672</ele>
        <time>2010-03-10T11:25:56Z</time>
      </trkpt>
      <trkpt lat="43.49419" lon="5.95794">
        <ele>267.706</ele>
        <time>2010-03-10T11:26:03Z</time>
      </trkpt>
      <trkpt lat="43.4941" lon="5.95798">
        <ele>270.307</ele>
        <time>2010-03-10T11:26:15Z</time>
      </trkpt>
      <trkpt lat="43.49399" lon="5.95801">
        <ele>272.053</ele>
        <time>2010-03-10T11:26:26Z</time>
      </trkpt>
      <trkpt lat="43.4939" lon="5.95798">
        <ele>271.05</ele>
        <time>2010-03-10T11:26:38Z</time>
      </trkpt>
      <trkpt lat="43.49381" lon="5.9583">
        <ele>269.393</ele>
        <time>2010-03-10T11:27:05Z</time>
      </trkpt>
      <trkpt lat="43.49374" lon="5.9585">
        <ele>267.459</ele>
        <time>2010-03-10T11:27:22Z</time>
      </trkpt>
      <trkpt lat="43.49375" lon="5.9589">
        <ele>260.149</ele>
        <time>2010-03-10T11:27:43Z</time>
      </trkpt>
      <trkpt lat="43.49371" lon="5.9591">
        <ele>263.264</ele>
        <time>2010-03-10T11:28:00Z</time>
      </trkpt>
      <trkpt lat="43.4937" lon="5.95912">
        <ele>263.402</ele>
        <time>2010-03-10T11:28:01Z</time>
      </trkpt>
      <trkpt lat="43.49367" lon="5.9593">
        <ele>265.334</ele>
        <time>2010-03-10T11:28:14Z</time>
      </trkpt>
      <trkpt lat="43.49366" lon="5.95935">
        <ele>265.57</ele>
        <time>2010-03-10T11:28:18Z</time>
      </trkpt>
      <trkpt lat="43.49352" lon="5.95968">
        <ele>263.132</ele>
        <time>2010-03-10T11:28:42Z</time>
      </trkpt>
      <trkpt lat="43.49341" lon="5.95985">
        <ele>258.062</ele>
        <time>2010-03-10T11:28:59Z</time>
      </trkpt>
      <trkpt lat="43.49336" lon="5.95991">
        <ele>257.028</ele>
        <time>2010-03-10T11:29:07Z</time>
      </trkpt>
      <trkpt lat="43.49327" lon="5.95992">
        <ele>256.482</ele>
        <time>2010-03-10T11:29:15Z</time>
      </trkpt>
      <trkpt lat="43.49326" lon="5.95993">
        <ele>256.871</ele>
        <time>2010-03-10T11:29:17Z</time>
      </trkpt>
      <trkpt lat="43.49316" lon="5.9599">
        <ele>259.313</ele>
        <time>2010-03-10T11:29:29Z</time>
      </trkpt>
      <trkpt lat="43.49312" lon="5.95987">
        <ele>259.788</ele>
        <time>2010-03-10T11:29:33Z</time>
      </trkpt>
      <trkpt lat="43.49311" lon="5.95988">
        <ele>258.698</ele>
        <time>2010-03-10T11:29:35Z</time>
      </trkpt>
      <trkpt lat="43.49296" lon="5.9598">
        <ele>258.513</ele>
        <time>2010-03-10T11:29:51Z</time>
      </trkpt>
      <trkpt lat="43.49283" lon="5.95968">
        <ele>256.341</ele>
        <time>2010-03-10T11:30:07Z</time>
      </trkpt>
      <trkpt lat="43.49281" lon="5.95967">
        <ele>255.895</ele>
        <time>2010-03-10T11:30:09Z</time>
      </trkpt>
      <trkpt lat="43.49272" lon="5.95965">
        <ele>254.208</ele>
        <time>2010-03-10T11:30:17Z</time>
      </trkpt>
      <trkpt lat="43.49268" lon="5.95959">
        <ele>253.669</ele>
        <time>2010-03-10T11:30:22Z</time>
      </trkpt>
      <trkpt lat="43.49265" lon="5.95958">
        <ele>254.029</ele>
        <time>2010-03-10T11:30:25Z</time>
      </trkpt>
      <trkpt lat="43.4924" lon="5.95969">
        <ele>264.622</ele>
        <time>2010-03-10T11:30:47Z</time>
      </trkpt>
      <trkpt lat="43.49232" lon="5.95976">
        <ele>265.671</ele>
        <time>2010-03-10T11:30:56Z</time>
      </trkpt>
      <trkpt lat="43.4922" lon="5.95999">
        <ele>265.481</ele>
        <time>2010-03-10T11:31:13Z</time>
      </trkpt>
      <trkpt lat="43.49218" lon="5.96005">
        <ele>265.043</ele>
        <time>2010-03-10T11:31:17Z</time>
      </trkpt>
      <trkpt lat="43.49214" lon="5.96007">
        <ele>267.456</ele>
        <time>2010-03-10T11:31:21Z</time>
      </trkpt>
      <trkpt lat="43.49219" lon="5.96032">
        <ele>267.951</ele>
        <time>2010-03-10T11:31:36Z</time>
      </trkpt>
      <trkpt lat="43.49221" lon="5.96038">
        <ele>266.778</ele>
        <time>2010-03-10T11:31:42Z</time>
      </trkpt>
      <trkpt lat="43.49225" lon="5.96042">
        <ele>265.26</ele>
        <time>2010-03-10T11:31:47Z</time>
      </trkpt>
      <trkpt lat="43.49244" lon="5.96059">
        <ele>265.3</ele>
        <time>2010-03-10T11:32:06Z</time>
      </trkpt>
      <trkpt lat="43.49252" lon="5.9607">
        <ele>264.533</ele>
        <time>2010-03-10T11:32:19Z</time>
      </trkpt>
      <trkpt lat="43.49251" lon="5.96087">
        <ele>263.566</ele>
        <time>2010-03-10T11:32:28Z</time>
      </trkpt>
      <trkpt lat="43.49252" lon="5.96093">
        <ele>262.471</ele>
        <time>2010-03-10T11:32:32Z</time>
      </trkpt>
      <trkpt lat="43.49255" lon="5.9612">
        <ele>260.052</ele>
        <time>2010-03-10T11:32:47Z</time>
      </trkpt>
      <trkpt lat="43.49259" lon="5.96125">
        <ele>259.761</ele>
        <time>2010-03-10T11:32:51Z</time>
      </trkpt>
      <trkpt lat="43.49257" lon="5.96131">
        <ele>259.209</ele>
        <time>2010-03-10T11:33:08Z</time>
      </trkpt>
      <trkpt lat="43.49256" lon="5.96131">
        <ele>259.271</ele>
        <time>2010-03-10T11:33:18Z</time>
      </trkpt>
      <trkpt lat="43.49222" lon="5.96139">
        <ele>260.128</ele>
        <time>2010-03-10T11:33:48Z</time>
      </trkpt>
      <trkpt lat="43.49218" lon="5.96139">
        <ele>260.836</ele>
        <time>2010-03-10T11:33:52Z</time>
      </trkpt>
      <trkpt lat="43.4921" lon="5.96139">
        <ele>262.426</ele>
        <time>2010-03-10T11:34:00Z</time>
      </trkpt>
      <trkpt lat="43.49208" lon="5.96137">
        <ele>262.399</ele>
        <time>2010-03-10T11:34:02Z</time>
      </trkpt>
      <trkpt lat="43.49189" lon="5.96135">
        <ele>260.142</ele>
        <time>2010-03-10T11:34:20Z</time>
      </trkpt>
      <trkpt lat="43.49167" lon="5.96137">
        <ele>261.789</ele>
        <time>2010-03-10T11:34:39Z</time>
      </trkpt>
      <trkpt lat="43.49162" lon="5.96132">
        <ele>261.072</ele>
        <time>2010-03-10T11:34:45Z</time>
      </trkpt>
      <trkpt lat="43.49157" lon="5.9612">
        <ele>259.531</ele>
        <time>2010-03-10T11:35:00Z</time>
      </trkpt>
      <trkpt lat="43.49154" lon="5.96112">
        <ele>258.498</ele>
        <time>2010-03-10T11:35:05Z</time>
      </trkpt>
      <trkpt lat="43.49148" lon="5.96107">
        <ele>256.476</ele>
        <time>2010-03-10T11:35:12Z</time>
      </trkpt>
      <trkpt lat="43.49147" lon="5.96104">
        <ele>255.511</ele>
        <time>2010-03-10T11:35:15Z</time>
      </trkpt>
      <trkpt lat="43.49136" lon="5.96097">
        <ele>256.38</ele>
        <time>2010-03-10T11:35:24Z</time>
      </trkpt>
      <trkpt lat="43.49135" lon="5.96095">
        <ele>256.13</ele>
        <time>2010-03-10T11:35:26Z</time>
      </trkpt>
      <trkpt lat="43.49132" lon="5.96094">
        <ele>255.616</ele>
        <time>2010-03-10T11:35:29Z</time>
      </trkpt>
      <trkpt lat="43.49129" lon="5.9609">
        <ele>255.072</ele>
        <time>2010-03-10T11:35:33Z</time>
      </trkpt>
      <trkpt lat="43.49122" lon="5.96081">
        <ele>253.859</ele>
        <time>2010-03-10T11:35:40Z</time>
      </trkpt>
      <trkpt lat="43.49114" lon="5.96081">
        <ele>258.206</ele>
        <time>2010-03-10T11:35:46Z</time>
      </trkpt>
      <trkpt lat="43.49112" lon="5.96077">
        <ele>258.876</ele>
        <time>2010-03-10T11:35:50Z</time>
      </trkpt>
      <trkpt lat="43.49109" lon="5.96069">
        <ele>257.635</ele>
        <time>2010-03-10T11:35:54Z</time>
      </trkpt>
      <trkpt lat="43.49105" lon="5.96058">
        <ele>254.003</ele>
        <time>2010-03-10T11:36:01Z</time>
      </trkpt>
      <trkpt lat="43.49099" lon="5.96055">
        <ele>251.134</ele>
        <time>2010-03-10T11:36:05Z</time>
      </trkpt>
      <trkpt lat="43.4909" lon="5.96049">
        <ele>245.048</ele>
        <time>2010-03-10T11:36:14Z</time>
      </trkpt>
      <trkpt lat="43.49085" lon="5.96044">
        <ele>246.757</ele>
        <time>2010-03-10T11:36:21Z</time>
      </trkpt>
      <trkpt lat="43.49076" lon="5.96036">
        <ele>248.016</ele>
        <time>2010-03-10T11:36:30Z</time>
      </trkpt>
      <trkpt lat="43.49068" lon="5.96028">
        <ele>248.022</ele>
        <time>2010-03-10T11:36:38Z</time>
      </trkpt>
      <trkpt lat="43.49064" lon="5.96023">
        <ele>248.007</ele>
        <time>2010-03-10T11:36:44Z</time>
      </trkpt>
      <trkpt lat="43.4906" lon="5.96025">
        <ele>247.862</ele>
        <time>2010-03-10T11:36:46Z</time>
      </trkpt>
      <trkpt lat="43.49054" lon="5.96017">
        <ele>246.497</ele>
        <time>2010-03-10T11:36:53Z</time>
      </trkpt>
      <trkpt lat="43.49039" lon="5.95999">
        <ele>254.521</ele>
        <time>2010-03-10T11:37:09Z</time>
      </trkpt>
      <trkpt lat="43.49034" lon="5.95987">
        <ele>252.487</ele>
        <time>2010-03-10T11:37:20Z</time>
      </trkpt>
      <trkpt lat="43.49029" lon="5.95982">
        <ele>251.284</ele>
        <time>2010-03-10T11:37:26Z</time>
      </trkpt>
      <trkpt lat="43.49022" lon="5.9597">
        <ele>250.434</ele>
        <time>2010-03-10T11:37:36Z</time>
      </trkpt>
      <trkpt lat="43.49016" lon="5.95956">
        <ele>249.393</ele>
        <time>2010-03-10T11:37:47Z</time>
      </trkpt>
      <trkpt lat="43.49013" lon="5.9595">
        <ele>248.958</ele>
        <time>2010-03-10T11:37:52Z</time>
      </trkpt>
      <trkpt lat="43.48989" lon="5.95932">
        <ele>251.09</ele>
        <time>2010-03-10T11:38:14Z</time>
      </trkpt>
      <trkpt lat="43.48982" lon="5.95924">
        <ele>251.363</ele>
        <time>2010-03-10T11:38:21Z</time>
      </trkpt>
      <trkpt lat="43.48957" lon="5.95894">
        <ele>253.248</ele>
        <time>2010-03-10T11:38:51Z</time>
      </trkpt>
      <trkpt lat="43.48941" lon="5.95875">
        <ele>253.453</ele>
        <time>2010-03-10T11:39:09Z</time>
      </trkpt>
      <trkpt lat="43.48928" lon="5.95863">
        <ele>255.884</ele>
        <time>2010-03-10T11:39:29Z</time>
      </trkpt>
      <trkpt lat="43.48923" lon="5.95865">
        <ele>256.543</ele>
        <time>2010-03-10T11:40:22Z</time>
      </trkpt>
      <trkpt lat="43.4891" lon="5.95857">
        <ele>258.726</ele>
        <time>2010-03-10T11:40:38Z</time>
      </trkpt>
      <trkpt lat="43.48896" lon="5.95853">
        <ele>261.13</ele>
        <time>2010-03-10T11:40:53Z</time>
      </trkpt>
      <trkpt lat="43.48886" lon="5.95851">
        <ele>262.547</ele>
        <time>2010-03-10T11:41:02Z</time>
      </trkpt>
      <trkpt lat="43.48867" lon="5.95851">
        <ele>267.108</ele>
        <time>2010-03-10T11:41:20Z</time>
      </trkpt>
      <trkpt lat="43.48848" lon="5.95844">
        <ele>271.49</ele>
        <time>2010-03-10T11:41:40Z</time>
      </trkpt>
      <trkpt lat="43.48844" lon="5.95844">
        <ele>271.254</ele>
        <time>2010-03-10T11:41:42Z</time>
      </trkpt>
      <trkpt lat="43.48839" lon="5.95843">
        <ele>271.535</ele>
        <time>2010-03-10T11:41:46Z</time>
      </trkpt>
      <trkpt lat="43.48836" lon="5.95843">
        <ele>270.764</ele>
        <time>2010-03-10T11:41:48Z</time>
      </trkpt>
      <trkpt lat="43.48826" lon="5.95838">
        <ele>270.128</ele>
        <time>2010-03-10T11:41:58Z</time>
      </trkpt>
      <trkpt lat="43.48809" lon="5.95831">
        <ele>270.399</ele>
        <time>2010-03-10T11:42:13Z</time>
      </trkpt>
      <trkpt lat="43.48805" lon="5.95824">
        <ele>271.181</ele>
        <time>2010-03-10T11:42:20Z</time>
      </trkpt>
      <trkpt lat="43.48803" lon="5.95823">
        <ele>271.008</ele>
        <time>2010-03-10T11:42:22Z</time>
      </trkpt>
      <trkpt lat="43.48797" lon="5.95822">
        <ele>271.8</ele>
        <time>2010-03-10T11:42:27Z</time>
      </trkpt>
      <trkpt lat="43.48794" lon="5.95823">
        <ele>271.581</ele>
        <time>2010-03-10T11:42:29Z</time>
      </trkpt>
      <trkpt lat="43.48776" lon="5.95812">
        <ele>270.785</ele>
        <time>2010-03-10T11:42:47Z</time>
      </trkpt>
      <trkpt lat="43.48771" lon="5.9581">
        <ele>270.917</ele>
        <time>2010-03-10T11:42:52Z</time>
      </trkpt>
      <trkpt lat="43.48763" lon="5.95804">
        <ele>271.468</ele>
        <time>2010-03-10T11:43:00Z</time>
      </trkpt>
      <trkpt lat="43.48759" lon="5.95804">
        <ele>271.468</ele>
        <time>2010-03-10T11:43:03Z</time>
      </trkpt>
      <trkpt lat="43.48752" lon="5.95799">
        <ele>270.62</ele>
        <time>2010-03-10T11:43:12Z</time>
      </trkpt>
      <trkpt lat="43.48748" lon="5.95798">
        <ele>270.686</ele>
        <time>2010-03-10T11:43:16Z</time>
      </trkpt>
      <trkpt lat="43.4874" lon="5.95798">
        <ele>270.206</ele>
        <time>2010-03-10T11:43:21Z</time>
      </trkpt>
      <trkpt lat="43.48725" lon="5.9579">
        <ele>273.586</ele>
        <time>2010-03-10T11:43:35Z</time>
      </trkpt>
      <trkpt lat="43.48716" lon="5.95787">
        <ele>275.52</ele>
        <time>2010-03-10T11:43:44Z</time>
      </trkpt>
      <trkpt lat="43.48698" lon="5.95786">
        <ele>274.081</ele>
        <time>2010-03-10T11:44:01Z</time>
      </trkpt>
      <trkpt lat="43.48676" lon="5.95791">
        <ele>273.119</ele>
        <time>2010-03-10T11:44:21Z</time>
      </trkpt>
      <trkpt lat="43.48674" lon="5.9579">
        <ele>273.276</ele>
        <time>2010-03-10T11:44:23Z</time>
      </trkpt>
      <trkpt lat="43.48655" lon="5.95797">
        <ele>274.601</ele>
        <time>2010-03-10T11:44:42Z</time>
      </trkpt>
      <trkpt lat="43.48632" lon="5.95804">
        <ele>277.231</ele>
        <time>2010-03-10T11:45:05Z</time>
      </trkpt>
      <trkpt lat="43.48618" lon="5.95811">
        <ele>279.607</ele>
        <time>2010-03-10T11:45:22Z</time>
      </trkpt>
      <trkpt lat="43.48598" lon="5.95817">
        <ele>280.988</ele>
        <time>2010-03-10T11:45:41Z</time>
      </trkpt>
      <trkpt lat="43.48577" lon="5.95824">
        <ele>283.677</ele>
        <time>2010-03-10T11:46:02Z</time>
      </trkpt>
      <trkpt lat="43.48568" lon="5.95828">
        <ele>285.21</ele>
        <time>2010-03-10T11:46:15Z</time>
      </trkpt>
      <trkpt lat="43.4855" lon="5.95832">
        <ele>285.687</ele>
        <time>2010-03-10T11:46:33Z</time>
      </trkpt>
      <trkpt lat="43.48527" lon="5.95833">
        <ele>287.399</ele>
        <time>2010-03-10T11:46:59Z</time>
      </trkpt>
      <trkpt lat="43.48503" lon="5.95843">
        <ele>288.669</ele>
        <time>2010-03-10T11:47:21Z</time>
      </trkpt>
      <trkpt lat="43.48489" lon="5.95849">
        <ele>289.612</ele>
        <time>2010-03-10T11:47:39Z</time>
      </trkpt>
      <trkpt lat="43.48475" lon="5.95853">
        <ele>288.73</ele>
        <time>2010-03-10T11:47:51Z</time>
      </trkpt>
      <trkpt lat="43.48473" lon="5.95855">
        <ele>289.367</ele>
        <time>2010-03-10T11:47:54Z</time>
      </trkpt>
      <trkpt lat="43.4846" lon="5.95868">
        <ele>292.483</ele>
        <time>2010-03-10T11:48:10Z</time>
      </trkpt>
      <trkpt lat="43.48456" lon="5.95871">
        <ele>292.549</ele>
        <time>2010-03-10T11:48:14Z</time>
      </trkpt>
      <trkpt lat="43.48432" lon="5.95885">
        <ele>289.737</ele>
        <time>2010-03-10T11:48:39Z</time>
      </trkpt>
      <trkpt lat="43.48418" lon="5.95882">
        <ele>288.907</ele>
        <time>2010-03-10T11:48:52Z</time>
      </trkpt>
      <trkpt lat="43.48395" lon="5.95884">
        <ele>294.423</ele>
        <time>2010-03-10T11:49:14Z</time>
      </trkpt>
      <trkpt lat="43.48388" lon="5.95886">
        <ele>296.258</ele>
        <time>2010-03-10T11:49:20Z</time>
      </trkpt>
      <trkpt lat="43.48378" lon="5.95887">
        <ele>302.951</ele>
        <time>2010-03-10T11:49:30Z</time>
      </trkpt>
      <trkpt lat="43.48375" lon="5.95889">
        <ele>302.731</ele>
        <time>2010-03-10T11:49:33Z</time>
      </trkpt>
      <trkpt lat="43.48357" lon="5.95891">
        <ele>306.658</ele>
        <time>2010-03-10T11:49:49Z</time>
      </trkpt>
      <trkpt lat="43.48351" lon="5.95892">
        <ele>306.77</ele>
        <time>2010-03-10T11:49:55Z</time>
      </trkpt>
      <trkpt lat="43.48328" lon="5.95902">
        <ele>308.53</ele>
        <time>2010-03-10T11:50:20Z</time>
      </trkpt>
      <trkpt lat="43.48323" lon="5.95905">
        <ele>308.349</ele>
        <time>2010-03-10T11:50:25Z</time>
      </trkpt>
      <trkpt lat="43.48317" lon="5.95913">
        <ele>308.261</ele>
        <time>2010-03-10T11:50:32Z</time>
      </trkpt>
      <trkpt lat="43.48314" lon="5.95923">
        <ele>308.352</ele>
        <time>2010-03-10T11:50:40Z</time>
      </trkpt>
      <trkpt lat="43.48307" lon="5.95935">
        <ele>307.394</ele>
        <time>2010-03-10T11:50:56Z</time>
      </trkpt>
      <trkpt lat="43.48305" lon="5.95939">
        <ele>306.301</ele>
        <time>2010-03-10T11:51:01Z</time>
      </trkpt>
      <trkpt lat="43.48299" lon="5.95939">
        <ele>306.622</ele>
        <time>2010-03-10T11:51:18Z</time>
      </trkpt>
      <trkpt lat="43.48289" lon="5.95927">
        <ele>305.816</ele>
        <time>2010-03-10T11:51:37Z</time>
      </trkpt>
      <trkpt lat="43.48281" lon="5.95907">
        <ele>310.824</ele>
        <time>2010-03-10T11:51:52Z</time>
      </trkpt>
      <trkpt lat="43.48281" lon="5.95883">
        <ele>313.885</ele>
        <time>2010-03-10T11:52:03Z</time>
      </trkpt>
      <trkpt lat="43.48277" lon="5.95862">
        <ele>316.678</ele>
        <time>2010-03-10T11:52:17Z</time>
      </trkpt>
      <trkpt lat="43.48277" lon="5.95859">
        <ele>316.611</ele>
        <time>2010-03-10T11:52:19Z</time>
      </trkpt>
      <trkpt lat="43.4826" lon="5.95835">
        <ele>312.138</ele>
        <time>2010-03-10T11:52:40Z</time>
      </trkpt>
      <trkpt lat="43.48223" lon="5.95815">
        <ele>304.506</ele>
        <time>2010-03-10T11:53:12Z</time>
      </trkpt>
      <trkpt lat="43.48198" lon="5.95803">
        <ele>301.935</ele>
        <time>2010-03-10T11:53:35Z</time>
      </trkpt>
      <trkpt lat="43.48185" lon="5.95794">
        <ele>300.928</ele>
        <time>2010-03-10T11:53:49Z</time>
      </trkpt>
      <trkpt lat="43.48171" lon="5.95776">
        <ele>310.904</ele>
        <time>2010-03-10T11:54:07Z</time>
      </trkpt>
      <trkpt lat="43.48166" lon="5.95772">
        <ele>310.52</ele>
        <time>2010-03-10T11:54:12Z</time>
      </trkpt>
      <trkpt lat="43.48163" lon="5.95769">
        <ele>310.711</ele>
        <time>2010-03-10T11:54:16Z</time>
      </trkpt>
      <trkpt lat="43.48156" lon="5.95764">
        <ele>311.654</ele>
        <time>2010-03-10T11:54:23Z</time>
      </trkpt>
      <trkpt lat="43.48133" lon="5.95751">
        <ele>315.78</ele>
        <time>2010-03-10T11:54:45Z</time>
      </trkpt>
      <trkpt lat="43.48125" lon="5.95747">
        <ele>316.845</ele>
        <time>2010-03-10T11:54:52Z</time>
      </trkpt>
      <trkpt lat="43.48096" lon="5.95738">
        <ele>319.625</ele>
        <time>2010-03-10T11:55:18Z</time>
      </trkpt>
      <trkpt lat="43.48091" lon="5.95737">
        <ele>320.829</ele>
        <time>2010-03-10T11:55:22Z</time>
      </trkpt>
      <trkpt lat="43.4807" lon="5.95733">
        <ele>324.802</ele>
        <time>2010-03-10T11:55:40Z</time>
      </trkpt>
      <trkpt lat="43.48063" lon="5.95722">
        <ele>325.132</ele>
        <time>2010-03-10T11:55:52Z</time>
      </trkpt>
      <trkpt lat="43.48063" lon="5.95708">
        <ele>322.091</ele>
        <time>2010-03-10T11:55:59Z</time>
      </trkpt>
      <trkpt lat="43.48062" lon="5.95705">
        <ele>322.396</ele>
        <time>2010-03-10T11:56:01Z</time>
      </trkpt>
      <trkpt lat="43.48061" lon="5.95702">
        <ele>322.249</ele>
        <time>2010-03-10T11:56:03Z</time>
      </trkpt>
      <trkpt lat="43.48069" lon="5.95677">
        <ele>315.515</ele>
        <time>2010-03-10T11:56:20Z</time>
      </trkpt>
      <trkpt lat="43.48074" lon="5.9566">
        <ele>315.136</ele>
        <time>2010-03-10T11:56:38Z</time>
      </trkpt>
      <trkpt lat="43.48077" lon="5.95652">
        <ele>313.358</ele>
        <time>2010-03-10T11:56:44Z</time>
      </trkpt>
      <trkpt lat="43.48078" lon="5.95649">
        <ele>312.962</ele>
        <time>2010-03-10T11:56:46Z</time>
      </trkpt>
      <trkpt lat="43.48085" lon="5.95618">
        <ele>312.792</ele>
        <time>2010-03-10T11:57:03Z</time>
      </trkpt>
      <trkpt lat="43.4809" lon="5.95589">
        <ele>313.649</ele>
        <time>2010-03-10T11:57:26Z</time>
      </trkpt>
      <trkpt lat="43.48093" lon="5.95567">
        <ele>316.074</ele>
        <time>2010-03-10T11:57:41Z</time>
      </trkpt>
      <trkpt lat="43.48094" lon="5.9556">
        <ele>315.774</ele>
        <time>2010-03-10T11:57:45Z</time>
      </trkpt>
      <trkpt lat="43.48096" lon="5.95546">
        <ele>314.529</ele>
        <time>2010-03-10T11:57:53Z</time>
      </trkpt>
      <trkpt lat="43.48095" lon="5.95512">
        <ele>310.764</ele>
        <time>2010-03-10T11:58:12Z</time>
      </trkpt>
      <trkpt lat="43.48095" lon="5.955">
        <ele>308.804</ele>
        <time>2010-03-10T11:58:19Z</time>
      </trkpt>
      <trkpt lat="43.48092" lon="5.95483">
        <ele>305.99</ele>
        <time>2010-03-10T11:58:32Z</time>
      </trkpt>
      <trkpt lat="43.48089" lon="5.95481">
        <ele>305.615</ele>
        <time>2010-03-10T11:58:35Z</time>
      </trkpt>
      <trkpt lat="43.48062" lon="5.9547">
        <ele>303.232</ele>
        <time>2010-03-10T11:58:59Z</time>
      </trkpt>
      <trkpt lat="43.48046" lon="5.95478">
        <ele>304.183</ele>
        <time>2010-03-10T11:59:12Z</time>
      </trkpt>
      <trkpt lat="43.48013" lon="5.95496">
        <ele>302.898</ele>
        <time>2010-03-10T11:59:38Z</time>
      </trkpt>
      <trkpt lat="43.47983" lon="5.95504">
        <ele>299.719</ele>
        <time>2010-03-10T12:00:03Z</time>
      </trkpt>
      <trkpt lat="43.47958" lon="5.95494">
        <ele>293.2</ele>
        <time>2010-03-10T12:00:25Z</time>
      </trkpt>
      <trkpt lat="43.47934" lon="5.95489">
        <ele>288.504</ele>
        <time>2010-03-10T12:00:47Z</time>
      </trkpt>
      <trkpt lat="43.47905" lon="5.95476">
        <ele>286.954</ele>
        <time>2010-03-10T12:01:12Z</time>
      </trkpt>
      <trkpt lat="43.47886" lon="5.95484">
        <ele>284.138</ele>
        <time>2010-03-10T12:01:30Z</time>
      </trkpt>
      <trkpt lat="43.4788" lon="5.95484">
        <ele>284.198</ele>
        <time>2010-03-10T12:01:37Z</time>
      </trkpt>
      <trkpt lat="43.47876" lon="5.95481">
        <ele>283.317</ele>
        <time>2010-03-10T12:01:41Z</time>
      </trkpt>
      <trkpt lat="43.47857" lon="5.95485">
        <ele>280.602</ele>
        <time>2010-03-10T12:01:54Z</time>
      </trkpt>
      <trkpt lat="43.47852" lon="5.95481">
        <ele>279.329</ele>
        <time>2010-03-10T12:01:59Z</time>
      </trkpt>
      <trkpt lat="43.47848" lon="5.95477">
        <ele>277.809</ele>
        <time>2010-03-10T12:02:05Z</time>
      </trkpt>
      <trkpt lat="43.47832" lon="5.95482">
        <ele>277.625</ele>
        <time>2010-03-10T12:02:21Z</time>
      </trkpt>
      <trkpt lat="43.4781" lon="5.95479">
        <ele>277.587</ele>
        <time>2010-03-10T12:02:40Z</time>
      </trkpt>
      <trkpt lat="43.47796" lon="5.95467">
        <ele>277.109</ele>
        <time>2010-03-10T12:02:55Z</time>
      </trkpt>
      <trkpt lat="43.47794" lon="5.95466">
        <ele>276.779</ele>
        <time>2010-03-10T12:02:57Z</time>
      </trkpt>
      <trkpt lat="43.4777" lon="5.95465">
        <ele>278.919</ele>
        <time>2010-03-10T12:03:15Z</time>
      </trkpt>
      <trkpt lat="43.47756" lon="5.95469">
        <ele>280.364</ele>
        <time>2010-03-10T12:03:35Z</time>
      </trkpt>
      <trkpt lat="43.47755" lon="5.9547">
        <ele>280.108</ele>
        <time>2010-03-10T12:03:36Z</time>
      </trkpt>
      <trkpt lat="43.47735" lon="5.95482">
        <ele>279.429</ele>
        <time>2010-03-10T12:03:55Z</time>
      </trkpt>
      <trkpt lat="43.47716" lon="5.95487">
        <ele>275.576</ele>
        <time>2010-03-10T12:04:14Z</time>
      </trkpt>
      <trkpt lat="43.47714" lon="5.95488">
        <ele>275.229</ele>
        <time>2010-03-10T12:04:16Z</time>
      </trkpt>
      <trkpt lat="43.47689" lon="5.95483">
        <ele>270.86</ele>
        <time>2010-03-10T12:04:37Z</time>
      </trkpt>
      <trkpt lat="43.47673" lon="5.95478">
        <ele>264.947</ele>
        <time>2010-03-10T12:04:55Z</time>
      </trkpt>
      <trkpt lat="43.47673" lon="5.95478">
        <ele>265.195</ele>
        <time>2010-03-10T12:04:57Z</time>
      </trkpt>
      <trkpt lat="43.47662" lon="5.95478">
        <ele>263.54</ele>
        <time>2010-03-10T12:05:07Z</time>
      </trkpt>
      <trkpt lat="43.47652" lon="5.95479">
        <ele>261.115</ele>
        <time>2010-03-10T12:05:13Z</time>
      </trkpt>
      <trkpt lat="43.47638" lon="5.9547">
        <ele>256.365</ele>
        <time>2010-03-10T12:05:30Z</time>
      </trkpt>
      <trkpt lat="43.47619" lon="5.95457">
        <ele>252.83</ele>
        <time>2010-03-10T12:05:49Z</time>
      </trkpt>
      <trkpt lat="43.4761" lon="5.95458">
        <ele>257.915</ele>
        <time>2010-03-10T12:06:06Z</time>
      </trkpt>
      <trkpt lat="43.47597" lon="5.95455">
        <ele>260.172</ele>
        <time>2010-03-10T12:06:20Z</time>
      </trkpt>
      <trkpt lat="43.47571" lon="5.95456">
        <ele>261.457</ele>
        <time>2010-03-10T12:06:45Z</time>
      </trkpt>
      <trkpt lat="43.47556" lon="5.95469">
        <ele>255.294</ele>
        <time>2010-03-10T12:07:02Z</time>
      </trkpt>
      <trkpt lat="43.47536" lon="5.95472">
        <ele>250.614</ele>
        <time>2010-03-10T12:07:18Z</time>
      </trkpt>
      <trkpt lat="43.47528" lon="5.9547">
        <ele>250.142</ele>
        <time>2010-03-10T12:07:21Z</time>
      </trkpt>
      <trkpt lat="43.47508" lon="5.95468">
        <ele>242.783</ele>
        <time>2010-03-10T12:07:36Z</time>
      </trkpt>
      <trkpt lat="43.47483" lon="5.95466">
        <ele>227.87</ele>
        <time>2010-03-10T12:07:55Z</time>
      </trkpt>
      <trkpt lat="43.47473" lon="5.95464">
        <ele>223.124</ele>
        <time>2010-03-10T12:08:06Z</time>
      </trkpt>
      <trkpt lat="43.47467" lon="5.95466">
        <ele>235.68</ele>
        <time>2010-03-10T12:08:14Z</time>
      </trkpt>
      <trkpt lat="43.47464" lon="5.95467">
        <ele>235.534</ele>
        <time>2010-03-10T12:08:16Z</time>
      </trkpt>
      <trkpt lat="43.47439" lon="5.95463">
        <ele>226.773</ele>
        <time>2010-03-10T12:08:38Z</time>
      </trkpt>
      <trkpt lat="43.47412" lon="5.95458">
        <ele>233.206</ele>
        <time>2010-03-10T12:08:59Z</time>
      </trkpt>
      <trkpt lat="43.47405" lon="5.95458">
        <ele>234.252</ele>
        <time>2010-03-10T12:09:05Z</time>
      </trkpt>
      <trkpt lat="43.47402" lon="5.95455">
        <ele>234.278</ele>
        <time>2010-03-10T12:09:09Z</time>
      </trkpt>
      <trkpt lat="43.474" lon="5.95455">
        <ele>243.872</ele>
        <time>2010-03-10T12:09:35Z</time>
      </trkpt>
      <trkpt lat="43.474" lon="5.95455">
        <ele>244.598</ele>
        <time>2010-03-10T12:09:40Z</time>
      </trkpt>
      <trkpt lat="43.47392" lon="5.9545">
        <ele>249.141</ele>
        <time>2010-03-10T12:09:48Z</time>
      </trkpt>
      <trkpt lat="43.47385" lon="5.95447">
        <ele>248.146</ele>
        <time>2010-03-10T12:09:53Z</time>
      </trkpt>
      <trkpt lat="43.47381" lon="5.95442">
        <ele>249.755</ele>
        <time>2010-03-10T12:09:57Z</time>
      </trkpt>
      <trkpt lat="43.47379" lon="5.95439">
        <ele>249.939</ele>
        <time>2010-03-10T12:09:59Z</time>
      </trkpt>
      <trkpt lat="43.4737" lon="5.95434">
        <ele>247.682</ele>
        <time>2010-03-10T12:10:24Z</time>
      </trkpt>
      <trkpt lat="43.47366" lon="5.95432">
        <ele>245.859</ele>
        <time>2010-03-10T12:10:27Z</time>
      </trkpt>
      <trkpt lat="43.47358" lon="5.95426">
        <ele>240.187</ele>
        <time>2010-03-10T12:10:34Z</time>
      </trkpt>
      <trkpt lat="43.47351" lon="5.95423">
        <ele>235.228</ele>
        <time>2010-03-10T12:10:40Z</time>
      </trkpt>
      <trkpt lat="43.4733" lon="5.95416">
        <ele>239.398</ele>
        <time>2010-03-10T12:11:00Z</time>
      </trkpt>
      <trkpt lat="43.47317" lon="5.95421">
        <ele>241.253</ele>
        <time>2010-03-10T12:11:10Z</time>
      </trkpt>
      <trkpt lat="43.47289" lon="5.95428">
        <ele>239.954</ele>
        <time>2010-03-10T12:11:33Z</time>
      </trkpt>
      <trkpt lat="43.47264" lon="5.95443">
        <ele>241.975</ele>
        <time>2010-03-10T12:11:58Z</time>
      </trkpt>
      <trkpt lat="43.4724" lon="5.95459">
        <ele>244.684</ele>
        <time>2010-03-10T12:12:20Z</time>
      </trkpt>
      <trkpt lat="43.47227" lon="5.95486">
        <ele>259.53</ele>
        <time>2010-03-10T12:12:44Z</time>
      </trkpt>
      <trkpt lat="43.47224" lon="5.95491">
        <ele>261.5</ele>
        <time>2010-03-10T12:12:49Z</time>
      </trkpt>
      <trkpt lat="43.47217" lon="5.955">
        <ele>264.314</ele>
        <time>2010-03-10T12:12:58Z</time>
      </trkpt>
      <trkpt lat="43.47213" lon="5.95502">
        <ele>265.347</ele>
        <time>2010-03-10T12:13:02Z</time>
      </trkpt>
      <trkpt lat="43.47205" lon="5.95514">
        <ele>268.888</ele>
        <time>2010-03-10T12:13:14Z</time>
      </trkpt>
      <trkpt lat="43.4719" lon="5.95529">
        <ele>271.589</ele>
        <time>2010-03-10T12:13:32Z</time>
      </trkpt>
      <trkpt lat="43.47188" lon="5.95529">
        <ele>271.233</ele>
        <time>2010-03-10T12:13:34Z</time>
      </trkpt>
      <trkpt lat="43.47184" lon="5.95519">
        <ele>270.812</ele>
        <time>2010-03-10T12:13:46Z</time>
      </trkpt>
      <trkpt lat="43.47175" lon="5.95501">
        <ele>271.968</ele>
        <time>2010-03-10T12:14:05Z</time>
      </trkpt>
      <trkpt lat="43.47161" lon="5.95519">
        <ele>274.301</ele>
        <time>2010-03-10T12:14:32Z</time>
      </trkpt>
      <trkpt lat="43.47134" lon="5.95564">
        <ele>277.433</ele>
        <time>2010-03-10T12:15:00Z</time>
      </trkpt>
      <trkpt lat="43.47122" lon="5.95583">
        <ele>279.222</ele>
        <time>2010-03-10T12:15:16Z</time>
      </trkpt>
      <trkpt lat="43.47121" lon="5.95587">
        <ele>279.488</ele>
        <time>2010-03-10T12:15:18Z</time>
      </trkpt>
      <trkpt lat="43.47117" lon="5.95602">
        <ele>281.207</ele>
        <time>2010-03-10T12:15:28Z</time>
      </trkpt>
      <trkpt lat="43.47116" lon="5.95633">
        <ele>279.793</ele>
        <time>2010-03-10T12:15:45Z</time>
      </trkpt>
      <trkpt lat="43.47114" lon="5.9564">
        <ele>278.016</ele>
        <time>2010-03-10T12:15:50Z</time>
      </trkpt>
      <trkpt lat="43.4711" lon="5.95643">
        <ele>278.226</ele>
        <time>2010-03-10T12:15:54Z</time>
      </trkpt>
      <trkpt lat="43.47094" lon="5.95675">
        <ele>282.828</ele>
        <time>2010-03-10T12:16:15Z</time>
      </trkpt>
      <trkpt lat="43.47093" lon="5.95682">
        <ele>282.644</ele>
        <time>2010-03-10T12:16:21Z</time>
      </trkpt>
      <trkpt lat="43.47094" lon="5.9569">
        <ele>281.291</ele>
        <time>2010-03-10T12:16:30Z</time>
      </trkpt>
      <trkpt lat="43.47093" lon="5.95706">
        <ele>279.974</ele>
        <time>2010-03-10T12:16:38Z</time>
      </trkpt>
      <trkpt lat="43.47096" lon="5.95718">
        <ele>276.398</ele>
        <time>2010-03-10T12:16:56Z</time>
      </trkpt>
      <trkpt lat="43.47099" lon="5.95716">
        <ele>275.649</ele>
        <time>2010-03-10T12:18:13Z</time>
      </trkpt>
      <trkpt lat="43.47101" lon="5.95715">
        <ele>273.839</ele>
        <time>2010-03-10T12:18:57Z</time>
      </trkpt>
      <trkpt lat="43.47106" lon="5.95712">
        <ele>270.775</ele>
        <time>2010-03-10T12:19:48Z</time>
      </trkpt>
      <trkpt lat="43.4711" lon="5.9571">
        <ele>268.883</ele>
        <time>2010-03-10T12:20:34Z</time>
      </trkpt>
      <trkpt lat="43.4711" lon="5.9572">
        <ele>266.145</ele>
        <time>2010-03-10T12:21:03Z</time>
      </trkpt>
    </trkseg>
  </trk>
</gpx>